<?xml version='1.0' encoding='UTF-8'?><gpx version="1.1" creator="JPX - https://github.com/jenetics/jpx" xmlns="http://www.topografix.com/GPX/1/1"><trk><trkseg><trkpt lat="45.68482587012963" lon="9.22754465752085"><ele>264.0</ele><time>2026-04-18T11:44:21.997Z</time></trkpt><trkpt lat="45.68491694776581" lon="9.227498826252043"><ele>264.0</ele><time>2026-04-18T11:44:27.997Z</time></trkpt><trkpt lat="45.68499180138162" lon="9.227592442835624"><ele>264.0</ele><time>2026-04-18T11:44:29.997Z</time></trkpt><trkpt lat="45.685052851262" lon="9.227692441378025"><ele>264.0</ele><time>2026-04-18T11:44:31.997Z</time></trkpt><trkpt lat="45.68511802401961" lon="9.227804608258602"><ele>264.0</ele><time>2026-04-18T11:44:33.997Z</time></trkpt><trkpt lat="45.68518457367342" lon="9.227908080682074"><ele>264.0</ele><time>2026-04-18T11:44:35.997Z</time></trkpt><trkpt lat="45.68522786190242" lon="9.227980644619974"><ele>264.0</ele><time>2026-04-18T11:44:37.997Z</time></trkpt><trkpt lat="45.68524593170379" lon="9.228090286093238"><ele>264.0</ele><time>2026-04-18T11:44:43.997Z</time></trkpt><trkpt lat="45.685274434982134" lon="9.22819442137936"><ele>264.0</ele><time>2026-04-18T11:44:45.997Z</time></trkpt><trkpt lat="45.68536779643127" lon="9.228246477029607"><ele>264.0</ele><time>2026-04-18T11:44:47.997Z</time></trkpt><trkpt lat="45.68546560116945" lon="9.228136677210554"><ele>264.0</ele><time>2026-04-18T11:44:49.997Z</time></trkpt><trkpt lat="45.68552104226883" lon="9.22806688417101"><ele>264.1666666666667</ele><time>2026-04-18T11:44:50.997Z</time></trkpt><trkpt lat="45.68558318921993" lon="9.228014484823634"><ele>264.3333333333333</ele><time>2026-04-18T11:44:51.997Z</time></trkpt><trkpt lat="45.68565427047075" lon="9.227964568293253"><ele>264.5</ele><time>2026-04-18T11:44:52.997Z</time></trkpt><trkpt lat="45.68573676677434" lon="9.227907348582804"><ele>264.66666666666663</ele><time>2026-04-18T11:44:53.997Z</time></trkpt><trkpt lat="45.68581371280764" lon="9.227854725998263"><ele>264.8333333333333</ele><time>2026-04-18T11:44:54.997Z</time></trkpt><trkpt lat="45.68589825602878" lon="9.227801157730827"><ele>265.0</ele><time>2026-04-18T11:44:55.997Z</time></trkpt><trkpt lat="45.685981626924075" lon="9.22775674976031"><ele>265.0</ele><time>2026-04-18T11:44:56.997Z</time></trkpt><trkpt lat="45.68606641101699" lon="9.227712328782173"><ele>265.0</ele><time>2026-04-18T11:44:57.997Z</time></trkpt><trkpt lat="45.686151847527825" lon="9.227665124550901"><ele>265.0</ele><time>2026-04-18T11:44:58.997Z</time></trkpt><trkpt lat="45.68623990527094" lon="9.227621169001242"><ele>265.0</ele><time>2026-04-18T11:44:59.997Z</time></trkpt><trkpt lat="45.686324018329934" lon="9.22758036825596"><ele>265.0</ele><time>2026-04-18T11:45:00.997Z</time></trkpt><trkpt lat="45.68640525143547" lon="9.2275400748487"><ele>265.16666666666663</ele><time>2026-04-18T11:45:01.997Z</time></trkpt><trkpt lat="45.68647206888178" lon="9.227502226738677"><ele>265.3333333333333</ele><time>2026-04-18T11:45:02.997Z</time></trkpt><trkpt lat="45.68657620392654" lon="9.227448341966795"><ele>265.5</ele><time>2026-04-18T11:45:04.998Z</time></trkpt><trkpt lat="45.68666994368268" lon="9.227403572910598"><ele>265.6666666666667</ele><time>2026-04-18T11:45:13.999Z</time></trkpt><trkpt lat="45.68673418733263" lon="9.227367681818505"><ele>265.83333333333337</ele><time>2026-04-18T11:45:14.999Z</time></trkpt><trkpt lat="45.68681579200386" lon="9.227331408159344"><ele>266.0</ele><time>2026-04-18T11:45:15.999Z</time></trkpt><trkpt lat="45.686900188239626" lon="9.227293436098975"><ele>266.2</ele><time>2026-04-18T11:45:16.999Z</time></trkpt><trkpt lat="45.686991136126025" lon="9.227257826261233"><ele>266.40000000000003</ele><time>2026-04-18T11:45:17.999Z</time></trkpt><trkpt lat="45.68708350797973" lon="9.227212208168279"><ele>266.6</ele><time>2026-04-18T11:45:18.999Z</time></trkpt><trkpt lat="45.68718165789612" lon="9.227163297563381"><ele>266.8</ele><time>2026-04-18T11:45:19.999Z</time></trkpt><trkpt lat="45.68728415118438" lon="9.22711229743427"><ele>267.0</ele><time>2026-04-18T11:45:20.999Z</time></trkpt><trkpt lat="45.68739356756014" lon="9.227058486513313"><ele>267.0</ele><time>2026-04-18T11:45:21.999Z</time></trkpt><trkpt lat="45.68750234652734" lon="9.226993801892114"><ele>267.0</ele><time>2026-04-18T11:45:22.999Z</time></trkpt><trkpt lat="45.68761626437627" lon="9.226922533607874"><ele>267.0</ele><time>2026-04-18T11:45:23.999Z</time></trkpt><trkpt lat="45.68772564103988" lon="9.226860597815165"><ele>267.0</ele><time>2026-04-18T11:45:24.999Z</time></trkpt><trkpt lat="45.68783385807802" lon="9.226788021794901"><ele>267.75</ele><time>2026-04-18T11:45:25.999Z</time></trkpt><trkpt lat="45.68794077540968" lon="9.226700068451368"><ele>268.5</ele><time>2026-04-18T11:45:26.999Z</time></trkpt><trkpt lat="45.68805990482354" lon="9.226604194606008"><ele>269.25</ele><time>2026-04-18T11:45:27.999Z</time></trkpt><trkpt lat="45.68817805635413" lon="9.226515977353282"><ele>270.0</ele><time>2026-04-18T11:45:28.999Z</time></trkpt><trkpt lat="45.68829910399791" lon="9.226426854565942"><ele>270.0</ele><time>2026-04-18T11:45:30Z</time></trkpt><trkpt lat="45.688420938465896" lon="9.226341329082764"><ele>270.0</ele><time>2026-04-18T11:45:31Z</time></trkpt><trkpt lat="45.688541428761845" lon="9.226255917983133"><ele>270.0</ele><time>2026-04-18T11:45:32Z</time></trkpt><trkpt lat="45.68865561423532" lon="9.226172847288476"><ele>270.0</ele><time>2026-04-18T11:45:33Z</time></trkpt><trkpt lat="45.68876407379616" lon="9.226099702981525"><ele>270.0</ele><time>2026-04-18T11:45:34Z</time></trkpt><trkpt lat="45.688876029416626" lon="9.226021389362197"><ele>270.0</ele><time>2026-04-18T11:45:35Z</time></trkpt><trkpt lat="45.68899174786616" lon="9.225945760444764"><ele>270.0</ele><time>2026-04-18T11:45:36Z</time></trkpt><trkpt lat="45.68910767688163" lon="9.225864335071032"><ele>270.0</ele><time>2026-04-18T11:45:37Z</time></trkpt><trkpt lat="45.6892323777299" lon="9.22578573382051"><ele>270.0</ele><time>2026-04-18T11:45:38Z</time></trkpt><trkpt lat="45.68935627535783" lon="9.225702550807501"><ele>270.0</ele><time>2026-04-18T11:45:39Z</time></trkpt><trkpt lat="45.689481388387094" lon="9.225615377559263"><ele>270.0</ele><time>2026-04-18T11:45:40Z</time></trkpt><trkpt lat="45.6896078557357" lon="9.22553088630238"><ele>270.0</ele><time>2026-04-18T11:45:41Z</time></trkpt><trkpt lat="45.68973574459601" lon="9.225440371728212"><ele>270.25</ele><time>2026-04-18T11:45:42Z</time></trkpt><trkpt lat="45.68986168428673" lon="9.22533980761791"><ele>270.5</ele><time>2026-04-18T11:45:43Z</time></trkpt><trkpt lat="45.689988942675704" lon="9.225245056870838"><ele>270.75</ele><time>2026-04-18T11:45:44Z</time></trkpt><trkpt lat="45.690125450363034" lon="9.225144833395348"><ele>271.0</ele><time>2026-04-18T11:45:45Z</time></trkpt><trkpt lat="45.69025853946083" lon="9.225038870527449"><ele>271.0</ele><time>2026-04-18T11:45:46Z</time></trkpt><trkpt lat="45.69037937259371" lon="9.224930753288529"><ele>271.0</ele><time>2026-04-18T11:45:47Z</time></trkpt><trkpt lat="45.69048636693655" lon="9.224831543751826"><ele>271.0</ele><time>2026-04-18T11:45:48Z</time></trkpt><trkpt lat="45.69058218004177" lon="9.224739806372748"><ele>271.0</ele><time>2026-04-18T11:45:49Z</time></trkpt><trkpt lat="45.69068345610182" lon="9.224644748671938"><ele>271.0</ele><time>2026-04-18T11:45:50Z</time></trkpt><trkpt lat="45.69077648987775" lon="9.22455634296434"><ele>271.0</ele><time>2026-04-18T11:45:51Z</time></trkpt><trkpt lat="45.69086083865958" lon="9.224480929880182"><ele>271.0</ele><time>2026-04-18T11:45:52Z</time></trkpt><trkpt lat="45.690932197788044" lon="9.224417948213937"><ele>271.0</ele><time>2026-04-18T11:45:53Z</time></trkpt><trkpt lat="45.69099653399808" lon="9.224396006345687"><ele>271.0</ele><time>2026-04-18T11:45:54Z</time></trkpt><trkpt lat="45.69111526856745" lon="9.224392232872207"><ele>271.0</ele><time>2026-04-18T11:45:56Z</time></trkpt><trkpt lat="45.6912434998306" lon="9.224351663568127"><ele>271.0</ele><time>2026-04-18T11:45:58Z</time></trkpt><trkpt lat="45.69128308225177" lon="9.224234393833914"><ele>271.0</ele><time>2026-04-18T11:45:59Z</time></trkpt><trkpt lat="45.69131571443174" lon="9.22413315121032"><ele>271.0</ele><time>2026-04-18T11:46:00Z</time></trkpt><trkpt lat="45.69134454725042" lon="9.224023213680809"><ele>271.0</ele><time>2026-04-18T11:46:01Z</time></trkpt><trkpt lat="45.6913815499087" lon="9.223893038918282"><ele>270.75</ele><time>2026-04-18T11:46:02Z</time></trkpt><trkpt lat="45.69147146097272" lon="9.223811607409198"><ele>270.5</ele><time>2026-04-18T11:46:03Z</time></trkpt><trkpt lat="45.6915629544792" lon="9.22369697204343"><ele>270.25</ele><time>2026-04-18T11:46:04Z</time></trkpt><trkpt lat="45.6916526704696" lon="9.223565359425843"><ele>270.0</ele><time>2026-04-18T11:46:05Z</time></trkpt><trkpt lat="45.691755995394686" lon="9.223440185609972"><ele>270.0</ele><time>2026-04-18T11:46:06Z</time></trkpt><trkpt lat="45.69185834505316" lon="9.22329623204685"><ele>270.0</ele><time>2026-04-18T11:46:07Z</time></trkpt><trkpt lat="45.69197511713078" lon="9.223145462122995"><ele>270.0</ele><time>2026-04-18T11:46:08Z</time></trkpt><trkpt lat="45.69209206970507" lon="9.222990354453803"><ele>269.3333333333333</ele><time>2026-04-18T11:46:09Z</time></trkpt><trkpt lat="45.69221095291514" lon="9.222830023297112"><ele>268.66666666666663</ele><time>2026-04-18T11:46:10Z</time></trkpt><trkpt lat="45.692329743562325" lon="9.22268794706132"><ele>268.0</ele><time>2026-04-18T11:46:11Z</time></trkpt><trkpt lat="45.69245187172765" lon="9.222543185798912"><ele>268.0</ele><time>2026-04-18T11:46:12Z</time></trkpt><trkpt lat="45.69254363049741" lon="9.222419187528152"><ele>268.0</ele><time>2026-04-18T11:46:13Z</time></trkpt><trkpt lat="45.692620393719075" lon="9.222298937369535"><ele>268.0</ele><time>2026-04-18T11:46:14Z</time></trkpt><trkpt lat="45.692699890477854" lon="9.222193238070933"><ele>268.0</ele><time>2026-04-18T11:46:15Z</time></trkpt><trkpt lat="45.69277751886904" lon="9.222093886826483"><ele>267.5</ele><time>2026-04-18T11:46:16Z</time></trkpt><trkpt lat="45.692848642439586" lon="9.222004202645762"><ele>267.0</ele><time>2026-04-18T11:46:17Z</time></trkpt><trkpt lat="45.692912178079645" lon="9.221912155786423"><ele>266.5</ele><time>2026-04-18T11:46:18Z</time></trkpt><trkpt lat="45.692971186979705" lon="9.221826188590418"><ele>266.0</ele><time>2026-04-18T11:46:19Z</time></trkpt><trkpt lat="45.69303020064369" lon="9.221743371978125"><ele>265.5</ele><time>2026-04-18T11:46:20Z</time></trkpt><trkpt lat="45.6930886930363" lon="9.221667008633325"><ele>265.0</ele><time>2026-04-18T11:46:21Z</time></trkpt><trkpt lat="45.69314403600264" lon="9.221592022100939"><ele>265.0</ele><time>2026-04-18T11:46:22Z</time></trkpt><trkpt lat="45.693202425683076" lon="9.22150670390164"><ele>265.0</ele><time>2026-04-18T11:46:23Z</time></trkpt><trkpt lat="45.693254386257586" lon="9.221417911588354"><ele>265.0</ele><time>2026-04-18T11:46:24Z</time></trkpt><trkpt lat="45.69329637996469" lon="9.221339543700006"><ele>265.0</ele><time>2026-04-18T11:46:25Z</time></trkpt><trkpt lat="45.6933395642498" lon="9.221254206485233"><ele>265.0</ele><time>2026-04-18T11:46:26Z</time></trkpt><trkpt lat="45.69339290050254" lon="9.221144521433846"><ele>265.0</ele><time>2026-04-18T11:46:27Z</time></trkpt><trkpt lat="45.69345613488019" lon="9.221006282022008"><ele>265.25</ele><time>2026-04-18T11:46:28Z</time></trkpt><trkpt lat="45.693538005477016" lon="9.22086082153701"><ele>265.5</ele><time>2026-04-18T11:46:29Z</time></trkpt><trkpt lat="45.693592608586414" lon="9.220688248218675"><ele>265.75</ele><time>2026-04-18T11:46:30Z</time></trkpt><trkpt lat="45.6936540835419" lon="9.220553697441245"><ele>266.0</ele><time>2026-04-18T11:46:31Z</time></trkpt><trkpt lat="45.693717888714204" lon="9.220406349560932"><ele>266.25</ele><time>2026-04-18T11:46:32Z</time></trkpt><trkpt lat="45.693781298962165" lon="9.220240323480773"><ele>266.5</ele><time>2026-04-18T11:46:33Z</time></trkpt><trkpt lat="45.69385273003029" lon="9.220062823085195"><ele>266.75</ele><time>2026-04-18T11:46:34Z</time></trkpt><trkpt lat="45.69392930642769" lon="9.21989406372052"><ele>267.0</ele><time>2026-04-18T11:46:35Z</time></trkpt><trkpt lat="45.694010069498404" lon="9.219722504128669"><ele>267.5</ele><time>2026-04-18T11:46:36Z</time></trkpt><trkpt lat="45.69409136070131" lon="9.219550421381292"><ele>268.0</ele><time>2026-04-18T11:46:37Z</time></trkpt><trkpt lat="45.69417562530531" lon="9.21938342273284"><ele>268.5</ele><time>2026-04-18T11:46:38Z</time></trkpt><trkpt lat="45.69426369219338" lon="9.219217307420875"><ele>269.0</ele><time>2026-04-18T11:46:39Z</time></trkpt><trkpt lat="45.694361061040574" lon="9.219052872814487"><ele>269.6666666666667</ele><time>2026-04-18T11:46:40Z</time></trkpt><trkpt lat="45.69445412645705" lon="9.2188843963948"><ele>270.3333333333333</ele><time>2026-04-18T11:46:41Z</time></trkpt><trkpt lat="45.69456198378063" lon="9.218714063028553"><ele>271.0</ele><time>2026-04-18T11:46:42Z</time></trkpt><trkpt lat="45.69465837578282" lon="9.218561160096552"><ele>271.0</ele><time>2026-04-18T11:46:43Z</time></trkpt><trkpt lat="45.694744758832066" lon="9.218417984730609"><ele>271.0</ele><time>2026-04-18T11:46:44Z</time></trkpt><trkpt lat="45.694837227271194" lon="9.21827662117686"><ele>271.0</ele><time>2026-04-18T11:46:45Z</time></trkpt><trkpt lat="45.69492787619839" lon="9.21812911735475"><ele>271.0</ele><time>2026-04-18T11:46:46Z</time></trkpt><trkpt lat="45.695022016286366" lon="9.217978990976974"><ele>271.0</ele><time>2026-04-18T11:46:47Z</time></trkpt><trkpt lat="45.69511109931181" lon="9.217820831554887"><ele>271.0</ele><time>2026-04-18T11:46:48Z</time></trkpt><trkpt lat="45.695188312106396" lon="9.217658313184112"><ele>271.0</ele><time>2026-04-18T11:46:49Z</time></trkpt><trkpt lat="45.69525016460165" lon="9.217500898225111"><ele>271.0</ele><time>2026-04-18T11:46:50Z</time></trkpt><trkpt lat="45.69530010521688" lon="9.217371183467286"><ele>270.8</ele><time>2026-04-18T11:46:51Z</time></trkpt><trkpt lat="45.69535041856337" lon="9.217272193774102"><ele>270.6</ele><time>2026-04-18T11:46:52Z</time></trkpt><trkpt lat="45.69540753454426" lon="9.217123247787404"><ele>270.4</ele><time>2026-04-18T11:46:54Z</time></trkpt><trkpt lat="45.695448872020215" lon="9.217014757380355"><ele>270.2</ele><time>2026-04-18T11:46:55Z</time></trkpt><trkpt lat="45.695501529827624" lon="9.21687655661287"><ele>270.0</ele><time>2026-04-18T11:46:56Z</time></trkpt><trkpt lat="45.69555956442575" lon="9.2167242448445"><ele>270.0</ele><time>2026-04-18T11:46:57Z</time></trkpt><trkpt lat="45.69563077088048" lon="9.216559642191998"><ele>270.0</ele><time>2026-04-18T11:46:58Z</time></trkpt><trkpt lat="45.69572114028758" lon="9.216350448302137"><ele>270.0</ele><time>2026-04-18T11:46:59Z</time></trkpt><trkpt lat="45.695834679395084" lon="9.216104747701557"><ele>270.0</ele><time>2026-04-18T11:47:00Z</time></trkpt><trkpt lat="45.69594108718209" lon="9.215883813397582"><ele>270.0</ele><time>2026-04-18T11:47:01Z</time></trkpt><trkpt lat="45.69603442852616" lon="9.215688339722954"><ele>270.0</ele><time>2026-04-18T11:47:02Z</time></trkpt><trkpt lat="45.696108009421685" lon="9.215534661983646"><ele>270.0</ele><time>2026-04-18T11:47:03Z</time></trkpt><trkpt lat="45.6961743453751" lon="9.215395327269936"><ele>270.0</ele><time>2026-04-18T11:47:04Z</time></trkpt><trkpt lat="45.69623445627798" lon="9.215267190770872"><ele>270.0</ele><time>2026-04-18T11:47:05Z</time></trkpt><trkpt lat="45.69627971651949" lon="9.215165423961748"><ele>270.0</ele><time>2026-04-18T11:47:06Z</time></trkpt><trkpt lat="45.69632906346266" lon="9.215099852379302"><ele>270.0</ele><time>2026-04-18T11:47:07Z</time></trkpt><trkpt lat="45.69638634661073" lon="9.21502032541576"><ele>270.0</ele><time>2026-04-18T11:47:10Z</time></trkpt><trkpt lat="45.69644940471708" lon="9.21498453415266"><ele>270.0</ele><time>2026-04-18T11:47:11Z</time></trkpt><trkpt lat="45.69654880971698" lon="9.214958059739358"><ele>270.0</ele><time>2026-04-18T11:47:12Z</time></trkpt><trkpt lat="45.696648621463" lon="9.214957050649023"><ele>270.0</ele><time>2026-04-18T11:47:13Z</time></trkpt><trkpt lat="45.69676903614289" lon="9.214981314677292"><ele>270.0</ele><time>2026-04-18T11:47:14Z</time></trkpt><trkpt lat="45.696906279124356" lon="9.215043372100444"><ele>271.3333333333333</ele><time>2026-04-18T11:47:15Z</time></trkpt><trkpt lat="45.697038800007505" lon="9.215106712427628"><ele>272.66666666666663</ele><time>2026-04-18T11:47:16Z</time></trkpt><trkpt lat="45.69717972539328" lon="9.215170400737149"><ele>274.0</ele><time>2026-04-18T11:47:17Z</time></trkpt><trkpt lat="45.697335003768615" lon="9.21523672611652"><ele>274.0</ele><time>2026-04-18T11:47:18Z</time></trkpt><trkpt lat="45.69750195317909" lon="9.21531206742948"><ele>274.0</ele><time>2026-04-18T11:47:19Z</time></trkpt><trkpt lat="45.69766492851205" lon="9.215383163316343"><ele>274.0</ele><time>2026-04-18T11:47:20Z</time></trkpt><trkpt lat="45.69781591031112" lon="9.215447934823816"><ele>274.0</ele><time>2026-04-18T11:47:21Z</time></trkpt><trkpt lat="45.697943673150036" lon="9.215508844203878"><ele>274.0</ele><time>2026-04-18T11:47:22Z</time></trkpt><trkpt lat="45.69805696943939" lon="9.21555482780423"><ele>274.0</ele><time>2026-04-18T11:47:23Z</time></trkpt><trkpt lat="45.69815248148828" lon="9.215599495378186"><ele>274.0</ele><time>2026-04-18T11:47:24Z</time></trkpt><trkpt lat="45.6982417582691" lon="9.215640792695538"><ele>274.0</ele><time>2026-04-18T11:47:25Z</time></trkpt><trkpt lat="45.6983163772894" lon="9.215679117006966"><ele>273.8571428571429</ele><time>2026-04-18T11:47:26Z</time></trkpt><trkpt lat="45.69838268113605" lon="9.215732049797303"><ele>273.7142857142857</ele><time>2026-04-18T11:47:27Z</time></trkpt><trkpt lat="45.69844439448057" lon="9.21579806741777"><ele>273.57142857142856</ele><time>2026-04-18T11:47:28Z</time></trkpt><trkpt lat="45.698491664565054" lon="9.215875490424706"><ele>273.42857142857144</ele><time>2026-04-18T11:47:29Z</time></trkpt><trkpt lat="45.69854772676799" lon="9.215931024851946"><ele>273.2857142857143</ele><time>2026-04-18T11:47:30Z</time></trkpt><trkpt lat="45.69861740947595" lon="9.215926292473846"><ele>273.14285714285717</ele><time>2026-04-18T11:47:31Z</time></trkpt><trkpt lat="45.69867490270193" lon="9.215867043167892"><ele>273.0</ele><time>2026-04-18T11:47:32Z</time></trkpt><trkpt lat="45.69871583757405" lon="9.215788685712237"><ele>273.0</ele><time>2026-04-18T11:47:33Z</time></trkpt><trkpt lat="45.698693396129514" lon="9.215655469749247"><ele>273.0</ele><time>2026-04-18T11:47:34Z</time></trkpt><trkpt lat="45.698656333872215" lon="9.215533385880848"><ele>273.0</ele><time>2026-04-18T11:47:35Z</time></trkpt><trkpt lat="45.69862101345927" lon="9.215423201793744"><ele>273.0</ele><time>2026-04-18T11:47:36Z</time></trkpt><trkpt lat="45.69864255357796" lon="9.215326357783324"><ele>273.0</ele><time>2026-04-18T11:47:37Z</time></trkpt><trkpt lat="45.69865904469267" lon="9.21523679683011"><ele>273.0</ele><time>2026-04-18T11:47:38Z</time></trkpt><trkpt lat="45.69876384189206" lon="9.215219677300881"><ele>273.0</ele><time>2026-04-18T11:47:39Z</time></trkpt><trkpt lat="45.69885028673235" lon="9.215107087605121"><ele>273.0</ele><time>2026-04-18T11:47:40Z</time></trkpt><trkpt lat="45.6989624696627" lon="9.214958984387577"><ele>273.0</ele><time>2026-04-18T11:47:41Z</time></trkpt><trkpt lat="45.69906121068939" lon="9.214829200446573"><ele>273.0</ele><time>2026-04-18T11:47:42Z</time></trkpt><trkpt lat="45.69915328434766" lon="9.214708291215215"><ele>272.75</ele><time>2026-04-18T11:47:43Z</time></trkpt><trkpt lat="45.699248149153654" lon="9.21458378125882"><ele>272.5</ele><time>2026-04-18T11:47:44Z</time></trkpt><trkpt lat="45.69934273201069" lon="9.214457011065448"><ele>272.25</ele><time>2026-04-18T11:47:45Z</time></trkpt><trkpt lat="45.69943573415834" lon="9.214334296050518"><ele>272.0</ele><time>2026-04-18T11:47:46Z</time></trkpt><trkpt lat="45.69953121097842" lon="9.21420821386119"><ele>272.75</ele><time>2026-04-18T11:47:47Z</time></trkpt><trkpt lat="45.69963270955334" lon="9.214073341473972"><ele>273.5</ele><time>2026-04-18T11:47:48Z</time></trkpt><trkpt lat="45.69973114871163" lon="9.213922445068182"><ele>274.25</ele><time>2026-04-18T11:47:49Z</time></trkpt><trkpt lat="45.69983948403653" lon="9.213785463387124"><ele>275.0</ele><time>2026-04-18T11:47:50Z</time></trkpt><trkpt lat="45.69994408552286" lon="9.21364243075584"><ele>275.0</ele><time>2026-04-18T11:47:51Z</time></trkpt><trkpt lat="45.700035256031946" lon="9.21351429715905"><ele>275.0</ele><time>2026-04-18T11:47:52Z</time></trkpt><trkpt lat="45.70012032422459" lon="9.213401885961122"><ele>275.0</ele><time>2026-04-18T11:47:53Z</time></trkpt><trkpt lat="45.700199555265065" lon="9.21329620272931"><ele>275.0</ele><time>2026-04-18T11:47:54Z</time></trkpt><trkpt lat="45.70028128882233" lon="9.21321412906154"><ele>274.83333333333337</ele><time>2026-04-18T11:47:55Z</time></trkpt><trkpt lat="45.70034529980041" lon="9.213129147600734"><ele>274.6666666666667</ele><time>2026-04-18T11:47:56Z</time></trkpt><trkpt lat="45.70039619536357" lon="9.21306157826599"><ele>274.5</ele><time>2026-04-18T11:47:57Z</time></trkpt><trkpt lat="45.700440166413976" lon="9.212973169132693"><ele>274.3333333333333</ele><time>2026-04-18T11:47:59Z</time></trkpt><trkpt lat="45.700504094189874" lon="9.212923617445806"><ele>274.16666666666663</ele><time>2026-04-18T11:48:33Z</time></trkpt><trkpt lat="45.70054859963631" lon="9.212834870961323"><ele>274.0</ele><time>2026-04-18T11:48:34Z</time></trkpt><trkpt lat="45.70060505620251" lon="9.21275643558507"><ele>274.0</ele><time>2026-04-18T11:48:35Z</time></trkpt><trkpt lat="45.700670302373084" lon="9.212680695910082"><ele>274.0</ele><time>2026-04-18T11:48:36Z</time></trkpt><trkpt lat="45.700744808067704" lon="9.21257900728394"><ele>274.0</ele><time>2026-04-18T11:48:37Z</time></trkpt><trkpt lat="45.70083530716564" lon="9.21245762992278"><ele>274.0</ele><time>2026-04-18T11:48:38Z</time></trkpt><trkpt lat="45.70095341423537" lon="9.212309310286606"><ele>273.8</ele><time>2026-04-18T11:48:39Z</time></trkpt><trkpt lat="45.701040730319825" lon="9.212189730972698"><ele>273.59999999999997</ele><time>2026-04-18T11:48:40Z</time></trkpt><trkpt lat="45.70111305782187" lon="9.212084162833918"><ele>273.4</ele><time>2026-04-18T11:48:41Z</time></trkpt><trkpt lat="45.7011893878081" lon="9.212012920684048"><ele>273.2</ele><time>2026-04-18T11:48:42Z</time></trkpt><trkpt lat="45.70124527266825" lon="9.21193985726229"><ele>273.0</ele><time>2026-04-18T11:48:43Z</time></trkpt><trkpt lat="45.70130316216095" lon="9.211862856835307"><ele>273.2</ele><time>2026-04-18T11:48:44Z</time></trkpt><trkpt lat="45.70136853008561" lon="9.211775699639043"><ele>273.4</ele><time>2026-04-18T11:48:45Z</time></trkpt><trkpt lat="45.70143481623646" lon="9.211658983462115"><ele>273.59999999999997</ele><time>2026-04-18T11:48:46Z</time></trkpt><trkpt lat="45.701519456714536" lon="9.211544142871533"><ele>273.8</ele><time>2026-04-18T11:48:47Z</time></trkpt><trkpt lat="45.701612417800085" lon="9.211422422272497"><ele>274.0</ele><time>2026-04-18T11:48:48Z</time></trkpt><trkpt lat="45.701717162629954" lon="9.211317109380499"><ele>274.0</ele><time>2026-04-18T11:48:49Z</time></trkpt><trkpt lat="45.70181539479648" lon="9.211199563937772"><ele>274.0</ele><time>2026-04-18T11:48:50Z</time></trkpt><trkpt lat="45.701894365579655" lon="9.211077080705422"><ele>274.0</ele><time>2026-04-18T11:48:51Z</time></trkpt><trkpt lat="45.70197372041289" lon="9.210983055586604"><ele>274.0</ele><time>2026-04-18T11:48:52Z</time></trkpt><trkpt lat="45.70205613048988" lon="9.210908036563792"><ele>274.0</ele><time>2026-04-18T11:48:53Z</time></trkpt><trkpt lat="45.70212128139075" lon="9.210825635140754"><ele>274.14285714285717</ele><time>2026-04-18T11:48:54Z</time></trkpt><trkpt lat="45.702180754845344" lon="9.210747325189509"><ele>274.2857142857143</ele><time>2026-04-18T11:48:55Z</time></trkpt><trkpt lat="45.70223436648751" lon="9.210675978160552"><ele>274.42857142857144</ele><time>2026-04-18T11:48:56Z</time></trkpt><trkpt lat="45.7022889364406" lon="9.210606380944096"><ele>274.57142857142856</ele><time>2026-04-18T11:48:57Z</time></trkpt><trkpt lat="45.70232604141539" lon="9.210530615855975"><ele>274.7142857142857</ele><time>2026-04-18T11:48:58Z</time></trkpt><trkpt lat="45.702385700488016" lon="9.210480791565393"><ele>274.8571428571429</ele><time>2026-04-18T11:49:00Z</time></trkpt><trkpt lat="45.70243366839074" lon="9.210414478746518"><ele>275.0</ele><time>2026-04-18T11:49:02Z</time></trkpt><trkpt lat="45.702490796804696" lon="9.210301153593264"><ele>275.0</ele><time>2026-04-18T11:49:30Z</time></trkpt><trkpt lat="45.70253625747348" lon="9.210225658250026"><ele>275.0</ele><time>2026-04-18T11:49:31Z</time></trkpt><trkpt lat="45.7025842998193" lon="9.210135869017945"><ele>275.0</ele><time>2026-04-18T11:49:32Z</time></trkpt><trkpt lat="45.70263841118626" lon="9.210046259732916"><ele>275.0</ele><time>2026-04-18T11:49:33Z</time></trkpt><trkpt lat="45.70271820547165" lon="9.209974328081502"><ele>275.0</ele><time>2026-04-18T11:49:34Z</time></trkpt><trkpt lat="45.7028361932854" lon="9.209902588404754"><ele>275.0</ele><time>2026-04-18T11:49:35Z</time></trkpt><trkpt lat="45.70297673978173" lon="9.209826243511213"><ele>275.0</ele><time>2026-04-18T11:49:36Z</time></trkpt><trkpt lat="45.703089871500154" lon="9.20976134425437"><ele>275.0</ele><time>2026-04-18T11:49:37Z</time></trkpt><trkpt lat="45.70319734398493" lon="9.209682642710439"><ele>275.0</ele><time>2026-04-18T11:49:38Z</time></trkpt><trkpt lat="45.70330235948846" lon="9.209590547446414"><ele>275.25</ele><time>2026-04-18T11:49:39Z</time></trkpt><trkpt lat="45.70342336659925" lon="9.209522085443393"><ele>275.5</ele><time>2026-04-18T11:49:40Z</time></trkpt><trkpt lat="45.703539842141545" lon="9.209451034701889"><ele>275.75</ele><time>2026-04-18T11:49:41Z</time></trkpt><trkpt lat="45.70365675379231" lon="9.209374854998314"><ele>276.0</ele><time>2026-04-18T11:49:42Z</time></trkpt><trkpt lat="45.70377862413763" lon="9.209290841629123"><ele>276.0</ele><time>2026-04-18T11:49:43Z</time></trkpt><trkpt lat="45.703902100872625" lon="9.209209065489222"><ele>276.0</ele><time>2026-04-18T11:49:44Z</time></trkpt><trkpt lat="45.70402428710568" lon="9.209129593332989"><ele>276.0</ele><time>2026-04-18T11:49:45Z</time></trkpt><trkpt lat="45.70413360578249" lon="9.209082456617056"><ele>276.0</ele><time>2026-04-18T11:49:46Z</time></trkpt><trkpt lat="45.704228200592226" lon="9.209000141117674"><ele>275.8</ele><time>2026-04-18T11:49:47Z</time></trkpt><trkpt lat="45.70431716628625" lon="9.208944085727948"><ele>275.6</ele><time>2026-04-18T11:49:48Z</time></trkpt><trkpt lat="45.70440089385197" lon="9.208891562369068"><ele>275.4</ele><time>2026-04-18T11:49:49Z</time></trkpt><trkpt lat="45.70448663817819" lon="9.208838236178325"><ele>275.2</ele><time>2026-04-18T11:49:50Z</time></trkpt><trkpt lat="45.704578857150864" lon="9.208786009365246"><ele>275.0</ele><time>2026-04-18T11:49:51Z</time></trkpt><trkpt lat="45.70467647545572" lon="9.208738863938402"><ele>276.0</ele><time>2026-04-18T11:49:52Z</time></trkpt><trkpt lat="45.704780797775165" lon="9.20870993664602"><ele>277.0</ele><time>2026-04-18T11:49:53Z</time></trkpt><trkpt lat="45.70489705646811" lon="9.208709739067853"><ele>278.0</ele><time>2026-04-18T11:49:54Z</time></trkpt><trkpt lat="45.70501442117311" lon="9.20871882414532"><ele>279.0</ele><time>2026-04-18T11:49:55Z</time></trkpt><trkpt lat="45.705127429431805" lon="9.208736342475424"><ele>279.0</ele><time>2026-04-18T11:49:56Z</time></trkpt><trkpt lat="45.70522806971858" lon="9.208747747784063"><ele>279.0</ele><time>2026-04-18T11:49:57Z</time></trkpt><trkpt lat="45.70533457735834" lon="9.208752007695942"><ele>279.0</ele><time>2026-04-18T11:49:58Z</time></trkpt><trkpt lat="45.70545253217948" lon="9.208749705412057"><ele>279.0</ele><time>2026-04-18T11:49:59Z</time></trkpt><trkpt lat="45.70558799829173" lon="9.20874792676036"><ele>279.0</ele><time>2026-04-18T11:50:00Z</time></trkpt><trkpt lat="45.705725609007004" lon="9.208737596442289"><ele>279.0</ele><time>2026-04-18T11:50:01Z</time></trkpt><trkpt lat="45.7058610446694" lon="9.208731598954472"><ele>279.0</ele><time>2026-04-18T11:50:02Z</time></trkpt><trkpt lat="45.705995022687425" lon="9.208725903565597"><ele>279.0</ele><time>2026-04-18T11:50:03Z</time></trkpt><trkpt lat="45.70612785037815" lon="9.208722920339394"><ele>279.5</ele><time>2026-04-18T11:50:04Z</time></trkpt><trkpt lat="45.706264206842036" lon="9.208714189765928"><ele>280.0</ele><time>2026-04-18T11:50:05Z</time></trkpt><trkpt lat="45.70639664967753" lon="9.20870504477233"><ele>280.5</ele><time>2026-04-18T11:50:06Z</time></trkpt><trkpt lat="45.70652566630243" lon="9.208696610812536"><ele>281.0</ele><time>2026-04-18T11:50:07Z</time></trkpt><trkpt lat="45.706652444126085" lon="9.20869465394601"><ele>281.0</ele><time>2026-04-18T11:50:08Z</time></trkpt><trkpt lat="45.70677985671069" lon="9.208692160479236"><ele>281.0</ele><time>2026-04-18T11:50:09Z</time></trkpt><trkpt lat="45.7068932195548" lon="9.20868191434145"><ele>281.0</ele><time>2026-04-18T11:50:10Z</time></trkpt><trkpt lat="45.706988108105854" lon="9.208682091196108"><ele>281.0</ele><time>2026-04-18T11:50:11Z</time></trkpt><trkpt lat="45.707077027791584" lon="9.208678452229059"><ele>281.0</ele><time>2026-04-18T11:50:12Z</time></trkpt><trkpt lat="45.70716612355501" lon="9.208674258071454"><ele>280.75</ele><time>2026-04-18T11:50:13Z</time></trkpt><trkpt lat="45.7072735746238" lon="9.20866604440976"><ele>280.5</ele><time>2026-04-18T11:50:14Z</time></trkpt><trkpt lat="45.70739983953829" lon="9.208661673479726"><ele>280.25</ele><time>2026-04-18T11:50:15Z</time></trkpt><trkpt lat="45.707537612987366" lon="9.20865479456269"><ele>280.0</ele><time>2026-04-18T11:50:16Z</time></trkpt><trkpt lat="45.707688877327335" lon="9.208642269853373"><ele>280.66666666666663</ele><time>2026-04-18T11:50:17Z</time></trkpt><trkpt lat="45.70784510038853" lon="9.208639399307511"><ele>281.3333333333333</ele><time>2026-04-18T11:50:18Z</time></trkpt><trkpt lat="45.708008740634476" lon="9.208634277693314"><ele>282.0</ele><time>2026-04-18T11:50:19Z</time></trkpt><trkpt lat="45.70817755656747" lon="9.20862941141588"><ele>282.0</ele><time>2026-04-18T11:50:20Z</time></trkpt><trkpt lat="45.708355397584974" lon="9.208613945737284"><ele>282.0</ele><time>2026-04-18T11:50:21Z</time></trkpt><trkpt lat="45.70853457942863" lon="9.20860397195952"><ele>282.0</ele><time>2026-04-18T11:50:22Z</time></trkpt><trkpt lat="45.70871712944251" lon="9.208595108121482"><ele>282.6666666666667</ele><time>2026-04-18T11:50:23Z</time></trkpt><trkpt lat="45.708886195667084" lon="9.208587597038358"><ele>283.33333333333337</ele><time>2026-04-18T11:50:24Z</time></trkpt><trkpt lat="45.70904342701124" lon="9.20858185973504"><ele>284.0</ele><time>2026-04-18T11:50:25Z</time></trkpt><trkpt lat="45.70919619368883" lon="9.208575999170591"><ele>284.0</ele><time>2026-04-18T11:50:26Z</time></trkpt><trkpt lat="45.70934986844737" lon="9.20856914585968"><ele>284.0</ele><time>2026-04-18T11:50:27Z</time></trkpt><trkpt lat="45.70949871089718" lon="9.20856117568418"><ele>284.0</ele><time>2026-04-18T11:50:28Z</time></trkpt><trkpt lat="45.70964562592076" lon="9.208552553573172"><ele>284.5</ele><time>2026-04-18T11:50:29Z</time></trkpt><trkpt lat="45.70977715762455" lon="9.208542232903211"><ele>285.0</ele><time>2026-04-18T11:50:30Z</time></trkpt><trkpt lat="45.709894660655884" lon="9.208540754757273"><ele>285.5</ele><time>2026-04-18T11:50:31Z</time></trkpt><trkpt lat="45.710003203757424" lon="9.208537959346943"><ele>286.0</ele><time>2026-04-18T11:50:32Z</time></trkpt><trkpt lat="45.71010239321537" lon="9.208521889285212"><ele>286.0</ele><time>2026-04-18T11:50:33Z</time></trkpt><trkpt lat="45.71020801860045" lon="9.208529744439282"><ele>286.0</ele><time>2026-04-18T11:50:34Z</time></trkpt><trkpt lat="45.71032159032976" lon="9.208517199715024"><ele>286.0</ele><time>2026-04-18T11:50:35Z</time></trkpt><trkpt lat="45.71043819989728" lon="9.208516620150874"><ele>286.0</ele><time>2026-04-18T11:50:36Z</time></trkpt><trkpt lat="45.71054934929442" lon="9.208512985487815"><ele>286.0</ele><time>2026-04-18T11:50:37Z</time></trkpt><trkpt lat="45.710665647417486" lon="9.20850445472507"><ele>286.0</ele><time>2026-04-18T11:50:38Z</time></trkpt><trkpt lat="45.71078502747922" lon="9.208494149624515"><ele>286.0</ele><time>2026-04-18T11:50:39Z</time></trkpt><trkpt lat="45.710909207497636" lon="9.208487094818373"><ele>286.0</ele><time>2026-04-18T11:50:40Z</time></trkpt><trkpt lat="45.71104063907828" lon="9.208495594644628"><ele>286.0</ele><time>2026-04-18T11:50:41Z</time></trkpt><trkpt lat="45.711175256610865" lon="9.208497003950479"><ele>286.25</ele><time>2026-04-18T11:50:42Z</time></trkpt><trkpt lat="45.71131219478303" lon="9.208473723826023"><ele>286.5</ele><time>2026-04-18T11:50:43Z</time></trkpt><trkpt lat="45.71145982107388" lon="9.208475689357536"><ele>286.75</ele><time>2026-04-18T11:50:44Z</time></trkpt><trkpt lat="45.711612260871064" lon="9.208476607320403"><ele>287.0</ele><time>2026-04-18T11:50:45Z</time></trkpt><trkpt lat="45.71171330600896" lon="9.208470816733405"><ele>287.0</ele><time>2026-04-18T11:50:46Z</time></trkpt><trkpt lat="45.711844303755" lon="9.20846477997588"><ele>287.0</ele><time>2026-04-18T11:50:47Z</time></trkpt><trkpt lat="45.71195963228612" lon="9.208459801681139"><ele>287.0</ele><time>2026-04-18T11:50:48Z</time></trkpt><trkpt lat="45.71205897001709" lon="9.208456084079744"><ele>287.0</ele><time>2026-04-18T11:50:49Z</time></trkpt><trkpt lat="45.71214818963278" lon="9.208448269755804"><ele>287.0</ele><time>2026-04-18T11:50:50Z</time></trkpt><trkpt lat="45.7122235060126" lon="9.208443253849499"><ele>287.0</ele><time>2026-04-18T11:50:51Z</time></trkpt><trkpt lat="45.71229401867725" lon="9.208442905039979"><ele>287.0</ele><time>2026-04-18T11:50:52Z</time></trkpt><trkpt lat="45.712358271267156" lon="9.208437128551672"><ele>287.0</ele><time>2026-04-18T11:50:53Z</time></trkpt><trkpt lat="45.712422490201256" lon="9.208433116267425"><ele>287.0</ele><time>2026-04-18T11:50:54Z</time></trkpt><trkpt lat="45.71250123121184" lon="9.208429654141778"><ele>287.0</ele><time>2026-04-18T11:50:55Z</time></trkpt><trkpt lat="45.712603870183315" lon="9.208423678387716"><ele>287.0</ele><time>2026-04-18T11:50:56Z</time></trkpt><trkpt lat="45.71271978917299" lon="9.208406918190818"><ele>286.75</ele><time>2026-04-18T11:50:57Z</time></trkpt><trkpt lat="45.71284944859797" lon="9.20840311169484"><ele>286.5</ele><time>2026-04-18T11:50:58Z</time></trkpt><trkpt lat="45.712984572248146" lon="9.208415700414697"><ele>286.25</ele><time>2026-04-18T11:50:59Z</time></trkpt><trkpt lat="45.71312551269799" lon="9.208404792136882"><ele>286.0</ele><time>2026-04-18T11:51:00Z</time></trkpt><trkpt lat="45.71327701363705" lon="9.208382641384688"><ele>286.0</ele><time>2026-04-18T11:51:01Z</time></trkpt><trkpt lat="45.713412215274865" lon="9.208387019958817"><ele>286.0</ele><time>2026-04-18T11:51:02Z</time></trkpt><trkpt lat="45.713526609814835" lon="9.208388528745136"><ele>286.0</ele><time>2026-04-18T11:51:03Z</time></trkpt><trkpt lat="45.71362920424039" lon="9.20838452111613"><ele>286.0</ele><time>2026-04-18T11:51:04Z</time></trkpt><trkpt lat="45.713717583770986" lon="9.20837127027631"><ele>286.0</ele><time>2026-04-18T11:51:05Z</time></trkpt><trkpt lat="45.71379566155077" lon="9.208353340042272"><ele>286.0</ele><time>2026-04-18T11:51:06Z</time></trkpt><trkpt lat="45.71387139077281" lon="9.208348027864345"><ele>286.0</ele><time>2026-04-18T11:51:07Z</time></trkpt><trkpt lat="45.713996751543235" lon="9.208337255120535"><ele>286.0</ele><time>2026-04-18T11:51:09Z</time></trkpt><trkpt lat="45.714108665749094" lon="9.208341474598054"><ele>286.0</ele><time>2026-04-18T11:51:11Z</time></trkpt><trkpt lat="45.71422390667382" lon="9.208350402725658"><ele>286.0</ele><time>2026-04-18T11:51:22Z</time></trkpt><trkpt lat="45.71428768218431" lon="9.208355176815303"><ele>286.0</ele><time>2026-04-18T11:51:23Z</time></trkpt><trkpt lat="45.714356496364495" lon="9.20835582297397"><ele>286.0</ele><time>2026-04-18T11:51:24Z</time></trkpt><trkpt lat="45.71443454255572" lon="9.208358325209575"><ele>286.0</ele><time>2026-04-18T11:51:25Z</time></trkpt><trkpt lat="45.71451573347142" lon="9.208351559378269"><ele>286.0</ele><time>2026-04-18T11:51:26Z</time></trkpt><trkpt lat="45.71458839648203" lon="9.208342273685105"><ele>286.0</ele><time>2026-04-18T11:51:27Z</time></trkpt><trkpt lat="45.714668480253536" lon="9.20833354757006"><ele>286.0</ele><time>2026-04-18T11:51:28Z</time></trkpt><trkpt lat="45.71474538696194" lon="9.208326459836254"><ele>286.5</ele><time>2026-04-18T11:51:29Z</time></trkpt><trkpt lat="45.71482582770875" lon="9.20832528034633"><ele>287.0</ele><time>2026-04-18T11:51:30Z</time></trkpt><trkpt lat="45.7149096852724" lon="9.20831684049525"><ele>287.5</ele><time>2026-04-18T11:51:31Z</time></trkpt><trkpt lat="45.714996162300295" lon="9.208309300269214"><ele>288.0</ele><time>2026-04-18T11:51:32Z</time></trkpt><trkpt lat="45.71508434900442" lon="9.208296205827923"><ele>288.5</ele><time>2026-04-18T11:51:33Z</time></trkpt><trkpt lat="45.715184384373316" lon="9.208282777935015"><ele>289.0</ele><time>2026-04-18T11:51:34Z</time></trkpt><trkpt lat="45.71528957247686" lon="9.208276956036746"><ele>289.2</ele><time>2026-04-18T11:51:35Z</time></trkpt><trkpt lat="45.715376411567995" lon="9.208277508634472"><ele>289.4</ele><time>2026-04-18T11:51:36Z</time></trkpt><trkpt lat="45.715459992371194" lon="9.208271665679838"><ele>289.6</ele><time>2026-04-18T11:51:37Z</time></trkpt><trkpt lat="45.71555716748351" lon="9.208266384137728"><ele>289.8</ele><time>2026-04-18T11:51:38Z</time></trkpt><trkpt lat="45.71564935209917" lon="9.20825259929346"><ele>290.0</ele><time>2026-04-18T11:51:39Z</time></trkpt><trkpt lat="45.71575636098724" lon="9.208240223768433"><ele>290.0</ele><time>2026-04-18T11:51:40Z</time></trkpt><trkpt lat="45.7158726711653" lon="9.20821080912149"><ele>290.0</ele><time>2026-04-18T11:51:41Z</time></trkpt><trkpt lat="45.71599208134984" lon="9.208185346486784"><ele>290.0</ele><time>2026-04-18T11:51:42Z</time></trkpt><trkpt lat="45.716111321764316" lon="9.208158270758219"><ele>290.0</ele><time>2026-04-18T11:51:43Z</time></trkpt><trkpt lat="45.716228274530536" lon="9.208133215857526"><ele>291.25</ele><time>2026-04-18T11:51:44Z</time></trkpt><trkpt lat="45.71634938697056" lon="9.20810594813225"><ele>292.5</ele><time>2026-04-18T11:51:45Z</time></trkpt><trkpt lat="45.71646992365143" lon="9.208081173210308"><ele>293.75</ele><time>2026-04-18T11:51:46Z</time></trkpt><trkpt lat="45.716590843105095" lon="9.208051690897188"><ele>295.0</ele><time>2026-04-18T11:51:47Z</time></trkpt><trkpt lat="45.71670878525149" lon="9.208016770226966"><ele>295.0</ele><time>2026-04-18T11:51:48Z</time></trkpt><trkpt lat="45.71683258003416" lon="9.207984802343091"><ele>295.0</ele><time>2026-04-18T11:51:49Z</time></trkpt><trkpt lat="45.71697248557863" lon="9.207938068310408"><ele>295.0</ele><time>2026-04-18T11:51:50Z</time></trkpt><trkpt lat="45.717091040131" lon="9.207895629041593"><ele>295.0</ele><time>2026-04-18T11:51:51Z</time></trkpt><trkpt lat="45.717192724662894" lon="9.20786256293831"><ele>294.8333333333333</ele><time>2026-04-18T11:51:52Z</time></trkpt><trkpt lat="45.71727959428019" lon="9.207838029459387"><ele>294.66666666666663</ele><time>2026-04-18T11:51:53Z</time></trkpt><trkpt lat="45.71735082843477" lon="9.207813422162811"><ele>294.5</ele><time>2026-04-18T11:51:54Z</time></trkpt><trkpt lat="45.71743799304207" lon="9.207780289014421"><ele>294.3333333333333</ele><time>2026-04-18T11:51:55Z</time></trkpt><trkpt lat="45.71752685895116" lon="9.207761559107132"><ele>294.1666666666667</ele><time>2026-04-18T11:51:56Z</time></trkpt><trkpt lat="45.71762366257087" lon="9.207742093966404"><ele>294.0</ele><time>2026-04-18T11:51:57Z</time></trkpt><trkpt lat="45.71770989567107" lon="9.207738040963145"><ele>295.2</ele><time>2026-04-18T11:51:58Z</time></trkpt><trkpt lat="45.717783609381776" lon="9.207740150705167"><ele>296.4</ele><time>2026-04-18T11:51:59Z</time></trkpt><trkpt lat="45.71788766042" lon="9.207753374357683"><ele>297.6</ele><time>2026-04-18T11:52:01Z</time></trkpt><trkpt lat="45.71794129119699" lon="9.207573462387657"><ele>298.8</ele><time>2026-04-18T11:52:03Z</time></trkpt><trkpt lat="45.71792599208514" lon="9.207407655285284"><ele>300.0</ele><time>2026-04-18T11:52:05Z</time></trkpt><trkpt lat="45.71792097129617" lon="9.207247200008162"><ele>300.8</ele><time>2026-04-18T11:52:07Z</time></trkpt><trkpt lat="45.717933728704644" lon="9.20709325871506"><ele>301.6</ele><time>2026-04-18T11:52:09Z</time></trkpt><trkpt lat="45.717966663771094" lon="9.20696039823326"><ele>302.4</ele><time>2026-04-18T11:52:11Z</time></trkpt><trkpt lat="45.718016413785676" lon="9.20687038106887"><ele>303.2</ele><time>2026-04-18T11:52:13Z</time></trkpt><trkpt lat="45.71806718203012" lon="9.206745544516224"><ele>304.0</ele><time>2026-04-18T11:52:15Z</time></trkpt><trkpt lat="45.71813713141566" lon="9.206673383713877"><ele>304.0</ele><time>2026-04-18T11:52:17Z</time></trkpt><trkpt lat="45.71820154180505" lon="9.206576804344978"><ele>304.0</ele><time>2026-04-18T11:52:19Z</time></trkpt><trkpt lat="45.71823252706529" lon="9.206372980212873"><ele>304.0</ele><time>2026-04-18T11:52:21Z</time></trkpt><trkpt lat="45.71825454992615" lon="9.20623834114321"><ele>304.0</ele><time>2026-04-18T11:52:22Z</time></trkpt><trkpt lat="45.718231307047475" lon="9.206117112050412"><ele>304.0</ele><time>2026-04-18T11:52:23Z</time></trkpt><trkpt lat="45.718243871910055" lon="9.206004709520492"><ele>303.66666666666663</ele><time>2026-04-18T11:52:24Z</time></trkpt><trkpt lat="45.7182533949803" lon="9.205887574681919"><ele>303.3333333333333</ele><time>2026-04-18T11:52:25Z</time></trkpt><trkpt lat="45.71826129213977" lon="9.205763978465455"><ele>303.0</ele><time>2026-04-18T11:52:26Z</time></trkpt><trkpt lat="45.71826976933336" lon="9.205625443337789"><ele>302.6666666666667</ele><time>2026-04-18T11:52:27Z</time></trkpt><trkpt lat="45.718272534521915" lon="9.205511355373142"><ele>302.33333333333337</ele><time>2026-04-18T11:52:28Z</time></trkpt><trkpt lat="45.718278676544514" lon="9.205420101592063"><ele>302.0</ele><time>2026-04-18T11:52:29Z</time></trkpt><trkpt lat="45.71832265558043" lon="9.205283361959404"><ele>301.1666666666667</ele><time>2026-04-18T11:52:31Z</time></trkpt><trkpt lat="45.718388647865" lon="9.205136534518978"><ele>300.33333333333337</ele><time>2026-04-18T11:52:33Z</time></trkpt><trkpt lat="45.718431543458195" lon="9.20504245942605"><ele>299.5</ele><time>2026-04-18T11:52:34Z</time></trkpt><trkpt lat="45.71848289652991" lon="9.204936708034811"><ele>298.6666666666667</ele><time>2026-04-18T11:52:35Z</time></trkpt><trkpt lat="45.71853205355271" lon="9.204840348852294"><ele>297.8333333333333</ele><time>2026-04-18T11:52:36Z</time></trkpt><trkpt lat="45.71856992433478" lon="9.20476232085815"><ele>297.0</ele><time>2026-04-18T11:52:37Z</time></trkpt><trkpt lat="45.718604581235745" lon="9.20468525682207"><ele>295.8</ele><time>2026-04-18T11:52:38Z</time></trkpt><trkpt lat="45.71867085766502" lon="9.204548925810952"><ele>294.6</ele><time>2026-04-18T11:52:40Z</time></trkpt><trkpt lat="45.718730019475096" lon="9.204420277098382"><ele>293.40000000000003</ele><time>2026-04-18T11:52:42Z</time></trkpt><trkpt lat="45.71876417563754" lon="9.20433149816191"><ele>292.2</ele><time>2026-04-18T11:52:45Z</time></trkpt><trkpt lat="45.71888379567397" lon="9.204283106693598"><ele>291.0</ele><time>2026-04-18T11:52:49Z</time></trkpt><trkpt lat="45.71898503885456" lon="9.204301257905309"><ele>291.0</ele><time>2026-04-18T11:52:50Z</time></trkpt><trkpt lat="45.71908284882206" lon="9.204297072409636"><ele>291.0</ele><time>2026-04-18T11:52:51Z</time></trkpt><trkpt lat="45.71919155639155" lon="9.20428808923601"><ele>291.0</ele><time>2026-04-18T11:52:52Z</time></trkpt><trkpt lat="45.719311054199814" lon="9.204278032839328"><ele>291.0</ele><time>2026-04-18T11:52:53Z</time></trkpt><trkpt lat="45.71943828670504" lon="9.20427029456396"><ele>291.25</ele><time>2026-04-18T11:52:54Z</time></trkpt><trkpt lat="45.719579301242874" lon="9.204255630811307"><ele>291.5</ele><time>2026-04-18T11:52:55Z</time></trkpt><trkpt lat="45.71972411855718" lon="9.204245629567668"><ele>291.75</ele><time>2026-04-18T11:52:56Z</time></trkpt><trkpt lat="45.719869300740186" lon="9.204226123560218"><ele>292.0</ele><time>2026-04-18T11:52:57Z</time></trkpt><trkpt lat="45.72000947330621" lon="9.204211598534345"><ele>292.0</ele><time>2026-04-18T11:52:58Z</time></trkpt><trkpt lat="45.7201385794783" lon="9.204202540432417"><ele>292.0</ele><time>2026-04-18T11:52:59Z</time></trkpt><trkpt lat="45.72025952334114" lon="9.204186399906483"><ele>292.0</ele><time>2026-04-18T11:53:00Z</time></trkpt><trkpt lat="45.72038721017461" lon="9.204172570063996"><ele>292.0</ele><time>2026-04-18T11:53:01Z</time></trkpt><trkpt lat="45.720526905416" lon="9.204163487212293"><ele>292.5</ele><time>2026-04-18T11:53:02Z</time></trkpt><trkpt lat="45.72066952997069" lon="9.204151612355108"><ele>293.0</ele><time>2026-04-18T11:53:03Z</time></trkpt><trkpt lat="45.72078978364371" lon="9.204134976835125"><ele>293.5</ele><time>2026-04-18T11:53:04Z</time></trkpt><trkpt lat="45.72092704542843" lon="9.204123347920824"><ele>294.0</ele><time>2026-04-18T11:53:05Z</time></trkpt><trkpt lat="45.721068205900146" lon="9.204107753301516"><ele>294.5</ele><time>2026-04-18T11:53:06Z</time></trkpt><trkpt lat="45.721214999923035" lon="9.20409006602989"><ele>295.0</ele><time>2026-04-18T11:53:07Z</time></trkpt><trkpt lat="45.72136123871825" lon="9.204075254046032"><ele>295.5</ele><time>2026-04-18T11:53:08Z</time></trkpt><trkpt lat="45.72151164975032" lon="9.20405949500672"><ele>296.0</ele><time>2026-04-18T11:53:09Z</time></trkpt><trkpt lat="45.72165927981406" lon="9.204037693170148"><ele>296.0</ele><time>2026-04-18T11:53:10Z</time></trkpt><trkpt lat="45.72180431916376" lon="9.204025270791528"><ele>296.0</ele><time>2026-04-18T11:53:11Z</time></trkpt><trkpt lat="45.72194893385561" lon="9.204000393372358"><ele>296.0</ele><time>2026-04-18T11:53:12Z</time></trkpt><trkpt lat="45.72209512531804" lon="9.203973104939253"><ele>296.0</ele><time>2026-04-18T11:53:13Z</time></trkpt><trkpt lat="45.72224452302422" lon="9.203957458552985"><ele>296.0</ele><time>2026-04-18T11:53:14Z</time></trkpt><trkpt lat="45.722395264566046" lon="9.203937231009457"><ele>296.0</ele><time>2026-04-18T11:53:15Z</time></trkpt><trkpt lat="45.7225484475024" lon="9.203906330550021"><ele>296.0</ele><time>2026-04-18T11:53:16Z</time></trkpt><trkpt lat="45.722694103680965" lon="9.203887738584235"><ele>296.25</ele><time>2026-04-18T11:53:17Z</time></trkpt><trkpt lat="45.72284058888399" lon="9.203863257130866"><ele>296.5</ele><time>2026-04-18T11:53:18Z</time></trkpt><trkpt lat="45.72298812255127" lon="9.203843197387222"><ele>296.75</ele><time>2026-04-18T11:53:19Z</time></trkpt><trkpt lat="45.72313420458096" lon="9.203824307142082"><ele>297.0</ele><time>2026-04-18T11:53:20Z</time></trkpt><trkpt lat="45.72327342534252" lon="9.203802394609632"><ele>297.0</ele><time>2026-04-18T11:53:21Z</time></trkpt><trkpt lat="45.72341456179883" lon="9.203779936453593"><ele>297.0</ele><time>2026-04-18T11:53:22Z</time></trkpt><trkpt lat="45.7235589545695" lon="9.203754464192372"><ele>297.0</ele><time>2026-04-18T11:53:23Z</time></trkpt><trkpt lat="45.723705933838005" lon="9.203731579311185"><ele>297.0</ele><time>2026-04-18T11:53:24Z</time></trkpt><trkpt lat="45.723847059782535" lon="9.2037070643311"><ele>297.0</ele><time>2026-04-18T11:53:25Z</time></trkpt><trkpt lat="45.72398620243087" lon="9.203682114143467"><ele>297.0</ele><time>2026-04-18T11:53:26Z</time></trkpt><trkpt lat="45.72412738047203" lon="9.203663520697031"><ele>297.0</ele><time>2026-04-18T11:53:27Z</time></trkpt><trkpt lat="45.72426176106696" lon="9.203638856266947"><ele>297.0</ele><time>2026-04-18T11:53:28Z</time></trkpt><trkpt lat="45.72440053539587" lon="9.203614060999778"><ele>297.25</ele><time>2026-04-18T11:53:29Z</time></trkpt><trkpt lat="45.72454094944009" lon="9.203590563656507"><ele>297.5</ele><time>2026-04-18T11:53:30Z</time></trkpt><trkpt lat="45.724674545783294" lon="9.20356674267622"><ele>297.75</ele><time>2026-04-18T11:53:31Z</time></trkpt><trkpt lat="45.72481189762949" lon="9.203544687015087"><ele>298.0</ele><time>2026-04-18T11:53:32Z</time></trkpt><trkpt lat="45.72494729428465" lon="9.203519904557533"><ele>298.0</ele><time>2026-04-18T11:53:33Z</time></trkpt><trkpt lat="45.72508851762712" lon="9.203495440512695"><ele>298.0</ele><time>2026-04-18T11:53:34Z</time></trkpt><trkpt lat="45.725231457796646" lon="9.203472694009351"><ele>298.0</ele><time>2026-04-18T11:53:35Z</time></trkpt><trkpt lat="45.72537851206841" lon="9.203451465131716"><ele>298.0</ele><time>2026-04-18T11:53:36Z</time></trkpt><trkpt lat="45.7255251827981" lon="9.203431480725754"><ele>298.5</ele><time>2026-04-18T11:53:37Z</time></trkpt><trkpt lat="45.725669023568116" lon="9.203409934526881"><ele>299.0</ele><time>2026-04-18T11:53:38Z</time></trkpt><trkpt lat="45.72580090317548" lon="9.203389684411917"><ele>299.5</ele><time>2026-04-18T11:53:39Z</time></trkpt><trkpt lat="45.72592412509244" lon="9.20336940602392"><ele>300.0</ele><time>2026-04-18T11:53:40Z</time></trkpt><trkpt lat="45.72603340130466" lon="9.203347521021202"><ele>300.25</ele><time>2026-04-18T11:53:41Z</time></trkpt><trkpt lat="45.72615078982816" lon="9.203325656432028"><ele>300.5</ele><time>2026-04-18T11:53:42Z</time></trkpt><trkpt lat="45.72627234299571" lon="9.203305698211052"><ele>300.75</ele><time>2026-04-18T11:53:43Z</time></trkpt><trkpt lat="45.726385115159715" lon="9.203288272845896"><ele>301.0</ele><time>2026-04-18T11:53:44Z</time></trkpt><trkpt lat="45.726488507333485" lon="9.203275034055824"><ele>301.0</ele><time>2026-04-18T11:53:45Z</time></trkpt><trkpt lat="45.72659150890305" lon="9.203260635276733"><ele>301.0</ele><time>2026-04-18T11:53:46Z</time></trkpt><trkpt lat="45.72668453843016" lon="9.203253915127599"><ele>301.0</ele><time>2026-04-18T11:53:47Z</time></trkpt><trkpt lat="45.726767284991915" lon="9.203249059036898"><ele>301.0</ele><time>2026-04-18T11:53:48Z</time></trkpt><trkpt lat="45.72684392074171" lon="9.203249732507585"><ele>301.0</ele><time>2026-04-18T11:53:49Z</time></trkpt><trkpt lat="45.72690834183141" lon="9.203269387449481"><ele>301.0</ele><time>2026-04-18T11:53:50Z</time></trkpt><trkpt lat="45.726969381185775" lon="9.203296960353038"><ele>301.0</ele><time>2026-04-18T11:53:51Z</time></trkpt><trkpt lat="45.72708001273823" lon="9.203210076959037"><ele>301.0</ele><time>2026-04-18T11:53:53Z</time></trkpt><trkpt lat="45.72712804273625" lon="9.20310533900071"><ele>301.0</ele><time>2026-04-18T11:53:54Z</time></trkpt><trkpt lat="45.72718252898175" lon="9.202987234815291"><ele>301.0</ele><time>2026-04-18T11:53:55Z</time></trkpt><trkpt lat="45.72729587969377" lon="9.202857934579129"><ele>301.0</ele><time>2026-04-18T11:53:56Z</time></trkpt><trkpt lat="45.72739324657065" lon="9.202699639948394"><ele>301.0</ele><time>2026-04-18T11:53:57Z</time></trkpt><trkpt lat="45.72750808184902" lon="9.202555662834381"><ele>301.0</ele><time>2026-04-18T11:53:58Z</time></trkpt><trkpt lat="45.72763954828398" lon="9.2023871104963"><ele>299.66666666666663</ele><time>2026-04-18T11:53:59Z</time></trkpt><trkpt lat="45.727779119222944" lon="9.202212249533394"><ele>298.3333333333333</ele><time>2026-04-18T11:54:00Z</time></trkpt><trkpt lat="45.72788890053032" lon="9.202066026465934"><ele>297.0</ele><time>2026-04-18T11:54:01Z</time></trkpt><trkpt lat="45.727985423073754" lon="9.201932238103685"><ele>297.0</ele><time>2026-04-18T11:54:02Z</time></trkpt><trkpt lat="45.728082525843014" lon="9.201796557557927"><ele>297.0</ele><time>2026-04-18T11:54:03Z</time></trkpt><trkpt lat="45.72819074332405" lon="9.201644926652754"><ele>297.0</ele><time>2026-04-18T11:54:04Z</time></trkpt><trkpt lat="45.728310648571835" lon="9.20145998364102"><ele>297.0</ele><time>2026-04-18T11:54:05Z</time></trkpt><trkpt lat="45.72844717507905" lon="9.201199016797274"><ele>297.0</ele><time>2026-04-18T11:54:06Z</time></trkpt><trkpt lat="45.728564532795836" lon="9.200916947094214"><ele>293.0</ele><time>2026-04-18T11:54:07Z</time></trkpt><trkpt lat="45.7286737844756" lon="9.200608170516123"><ele>289.0</ele><time>2026-04-18T11:54:08Z</time></trkpt><trkpt lat="45.728775610971326" lon="9.20034410601899"><ele>289.0</ele><time>2026-04-18T11:54:09Z</time></trkpt><trkpt lat="45.72888755017669" lon="9.200133555433489"><ele>289.0</ele><time>2026-04-18T11:54:10Z</time></trkpt><trkpt lat="45.72897004591668" lon="9.199960934193706"><ele>289.0</ele><time>2026-04-18T11:54:11Z</time></trkpt><trkpt lat="45.72907532625023" lon="9.199824043789217"><ele>288.0</ele><time>2026-04-18T11:54:12Z</time></trkpt><trkpt lat="45.72921160902751" lon="9.199700241446376"><ele>287.0</ele><time>2026-04-18T11:54:13Z</time></trkpt><trkpt lat="45.72935669387642" lon="9.199604009027418"><ele>286.0</ele><time>2026-04-18T11:54:14Z</time></trkpt><trkpt lat="45.729506199515214" lon="9.199522540543077"><ele>286.0</ele><time>2026-04-18T11:54:15Z</time></trkpt><trkpt lat="45.729670088793746" lon="9.199473408177687"><ele>286.0</ele><time>2026-04-18T11:54:16Z</time></trkpt><trkpt lat="45.72984056783596" lon="9.199451533958827"><ele>286.0</ele><time>2026-04-18T11:54:17Z</time></trkpt><trkpt lat="45.73002049094413" lon="9.199442224459958"><ele>286.0</ele><time>2026-04-18T11:54:18Z</time></trkpt><trkpt lat="45.73022388140141" lon="9.19943204559399"><ele>286.0</ele><time>2026-04-18T11:54:19Z</time></trkpt><trkpt lat="45.730480016970276" lon="9.199402537281731"><ele>287.5</ele><time>2026-04-18T11:54:20Z</time></trkpt><trkpt lat="45.73075703013295" lon="9.19937288485384"><ele>289.0</ele><time>2026-04-18T11:54:21Z</time></trkpt><trkpt lat="45.73104751015817" lon="9.19934238374782"><ele>288.0</ele><time>2026-04-18T11:54:22Z</time></trkpt><trkpt lat="45.731353541727856" lon="9.199297519635444"><ele>287.0</ele><time>2026-04-18T11:54:23Z</time></trkpt><trkpt lat="45.73168394319739" lon="9.199240771134177"><ele>290.0</ele><time>2026-04-18T11:54:24Z</time></trkpt><trkpt lat="45.73202405910424" lon="9.199175260294641"><ele>293.0</ele><time>2026-04-18T11:54:25Z</time></trkpt><trkpt lat="45.7323667132966" lon="9.199092839789358"><ele>293.0</ele><time>2026-04-18T11:54:26Z</time></trkpt><trkpt lat="45.7326733389574" lon="9.199027067989883"><ele>293.0</ele><time>2026-04-18T11:54:27Z</time></trkpt><trkpt lat="45.73296852026238" lon="9.198952926778652"><ele>294.5</ele><time>2026-04-18T11:54:28Z</time></trkpt><trkpt lat="45.73323659549362" lon="9.198894824981402"><ele>296.0</ele><time>2026-04-18T11:54:29Z</time></trkpt><trkpt lat="45.73347562688076" lon="9.198842125455544"><ele>296.33333333333337</ele><time>2026-04-18T11:54:30Z</time></trkpt><trkpt lat="45.733692246717965" lon="9.198794546220961"><ele>296.6666666666667</ele><time>2026-04-18T11:54:31Z</time></trkpt><trkpt lat="45.733894210255144" lon="9.198755381146329"><ele>297.0</ele><time>2026-04-18T11:54:32Z</time></trkpt><trkpt lat="45.73409088799176" lon="9.198719680427775"><ele>297.0</ele><time>2026-04-18T11:54:33Z</time></trkpt><trkpt lat="45.73429401862791" lon="9.198683771641177"><ele>297.0</ele><time>2026-04-18T11:54:34Z</time></trkpt><trkpt lat="45.73450261788994" lon="9.19864692201926"><ele>297.0</ele><time>2026-04-18T11:54:35Z</time></trkpt><trkpt lat="45.73472643628062" lon="9.19861004547543"><ele>297.0</ele><time>2026-04-18T11:54:36Z</time></trkpt><trkpt lat="45.73494161860117" lon="9.198574026222085"><ele>297.0</ele><time>2026-04-18T11:54:37Z</time></trkpt><trkpt lat="45.73513362941396" lon="9.19854320251748"><ele>297.0</ele><time>2026-04-18T11:54:38Z</time></trkpt><trkpt lat="45.73530485897444" lon="9.198511236589157"><ele>296.6666666666667</ele><time>2026-04-18T11:54:39Z</time></trkpt><trkpt lat="45.73546664934432" lon="9.198478591932245"><ele>296.33333333333337</ele><time>2026-04-18T11:54:40Z</time></trkpt><trkpt lat="45.735620960751255" lon="9.198452581087208"><ele>296.0</ele><time>2026-04-18T11:54:41Z</time></trkpt><trkpt lat="45.73576327087884" lon="9.198427658559337"><ele>296.0</ele><time>2026-04-18T11:54:42Z</time></trkpt><trkpt lat="45.73588850922471" lon="9.198404982488352"><ele>296.0</ele><time>2026-04-18T11:54:43Z</time></trkpt><trkpt lat="45.736002756030196" lon="9.198388426579026"><ele>296.0</ele><time>2026-04-18T11:54:44Z</time></trkpt><trkpt lat="45.73610440575221" lon="9.198377721044544"><ele>296.0</ele><time>2026-04-18T11:54:45Z</time></trkpt><trkpt lat="45.73619737681792" lon="9.19836822894357"><ele>296.0</ele><time>2026-04-18T11:54:46Z</time></trkpt><trkpt lat="45.736285396176505" lon="9.198379339634688"><ele>296.6</ele><time>2026-04-18T11:54:47Z</time></trkpt><trkpt lat="45.736359292651905" lon="9.198380733383065"><ele>297.20000000000005</ele><time>2026-04-18T11:54:48Z</time></trkpt><trkpt lat="45.73650529374861" lon="9.198477235301771"><ele>297.79999999999995</ele><time>2026-04-18T11:54:50Z</time></trkpt><trkpt lat="45.736571054061564" lon="9.198495064140342"><ele>298.4</ele><time>2026-04-18T11:54:51Z</time></trkpt><trkpt lat="45.73663695549004" lon="9.19847286321036"><ele>299.0</ele><time>2026-04-18T11:54:52Z</time></trkpt><trkpt lat="45.73671092737955" lon="9.198402532366135"><ele>299.0</ele><time>2026-04-18T11:54:53Z</time></trkpt><trkpt lat="45.73680498220509" lon="9.198296490193407"><ele>299.0</ele><time>2026-04-18T11:54:54Z</time></trkpt><trkpt lat="45.73693912155469" lon="9.198207253188357"><ele>299.0</ele><time>2026-04-18T11:54:55Z</time></trkpt><trkpt lat="45.73710504457784" lon="9.198162632371531"><ele>299.0</ele><time>2026-04-18T11:54:56Z</time></trkpt><trkpt lat="45.73731063754394" lon="9.198136631942765"><ele>297.0</ele><time>2026-04-18T11:54:57Z</time></trkpt><trkpt lat="45.73752762699473" lon="9.198114064446068"><ele>295.0</ele><time>2026-04-18T11:54:58Z</time></trkpt><trkpt lat="45.737789440098666" lon="9.198078517838738"><ele>295.0</ele><time>2026-04-18T11:54:59Z</time></trkpt><trkpt lat="45.73808234069019" lon="9.198027952634433"><ele>295.0</ele><time>2026-04-18T11:55:00Z</time></trkpt><trkpt lat="45.73840074287428" lon="9.197982156272467"><ele>296.0</ele><time>2026-04-18T11:55:01Z</time></trkpt><trkpt lat="45.73873092431939" lon="9.197947141538194"><ele>297.0</ele><time>2026-04-18T11:55:02Z</time></trkpt><trkpt lat="45.7390227415095" lon="9.197928563154704"><ele>297.0</ele><time>2026-04-18T11:55:03Z</time></trkpt><trkpt lat="45.739285427420384" lon="9.197913621124131"><ele>297.0</ele><time>2026-04-18T11:55:04Z</time></trkpt><trkpt lat="45.739527567741725" lon="9.197902017132481"><ele>298.0</ele><time>2026-04-18T11:55:05Z</time></trkpt><trkpt lat="45.73975836651751" lon="9.197886414460866"><ele>299.0</ele><time>2026-04-18T11:55:06Z</time></trkpt><trkpt lat="45.739993571166394" lon="9.197840549182176"><ele>300.5</ele><time>2026-04-18T11:55:07Z</time></trkpt><trkpt lat="45.740236188172396" lon="9.197766720914858"><ele>302.0</ele><time>2026-04-18T11:55:08Z</time></trkpt><trkpt lat="45.74049657490394" lon="9.197656940816383"><ele>302.0</ele><time>2026-04-18T11:55:09Z</time></trkpt><trkpt lat="45.74077821997556" lon="9.197512943853926"><ele>302.0</ele><time>2026-04-18T11:55:10Z</time></trkpt><trkpt lat="45.74106557514399" lon="9.197365980270929"><ele>300.5</ele><time>2026-04-18T11:55:11Z</time></trkpt><trkpt lat="45.741313271813766" lon="9.19724936499049"><ele>299.0</ele><time>2026-04-18T11:55:12Z</time></trkpt><trkpt lat="45.7415373640578" lon="9.19715758339252"><ele>299.0</ele><time>2026-04-18T11:55:13Z</time></trkpt><trkpt lat="45.741740778440175" lon="9.197088593852573"><ele>299.0</ele><time>2026-04-18T11:55:14Z</time></trkpt><trkpt lat="45.74193078083401" lon="9.19705058635661"><ele>299.0</ele><time>2026-04-18T11:55:15Z</time></trkpt><trkpt lat="45.74212482772006" lon="9.197040610339503"><ele>300.0</ele><time>2026-04-18T11:55:16Z</time></trkpt><trkpt lat="45.742321542292366" lon="9.197042557062149"><ele>301.0</ele><time>2026-04-18T11:55:17Z</time></trkpt><trkpt lat="45.74252621993944" lon="9.19705823853288"><ele>302.0</ele><time>2026-04-18T11:55:18Z</time></trkpt><trkpt lat="45.74274083528604" lon="9.197091807110183"><ele>303.0</ele><time>2026-04-18T11:55:19Z</time></trkpt><trkpt lat="45.742971132539374" lon="9.197122225899626"><ele>304.0</ele><time>2026-04-18T11:55:20Z</time></trkpt><trkpt lat="45.74322025324351" lon="9.197147313026502"><ele>304.0</ele><time>2026-04-18T11:55:21Z</time></trkpt><trkpt lat="45.74345280896208" lon="9.197164734202632"><ele>304.0</ele><time>2026-04-18T11:55:22Z</time></trkpt><trkpt lat="45.74365933640491" lon="9.19718625621789"><ele>304.0</ele><time>2026-04-18T11:55:23Z</time></trkpt><trkpt lat="45.743863861739214" lon="9.197210267062102"><ele>304.3333333333333</ele><time>2026-04-18T11:55:24Z</time></trkpt><trkpt lat="45.74406603290642" lon="9.197237946509674"><ele>304.6666666666667</ele><time>2026-04-18T11:55:25Z</time></trkpt><trkpt lat="45.744272814208905" lon="9.197265395070435"><ele>305.0</ele><time>2026-04-18T11:55:26Z</time></trkpt><trkpt lat="45.74447774978776" lon="9.197291895631468"><ele>307.33333333333337</ele><time>2026-04-18T11:55:27Z</time></trkpt><trkpt lat="45.74467360539918" lon="9.197321965358302"><ele>309.6666666666667</ele><time>2026-04-18T11:55:28Z</time></trkpt><trkpt lat="45.744841267391465" lon="9.197356349444515"><ele>312.0</ele><time>2026-04-18T11:55:29Z</time></trkpt><trkpt lat="45.74499476397734" lon="9.197391386608203"><ele>312.0</ele><time>2026-04-18T11:55:30Z</time></trkpt><trkpt lat="45.745124557287276" lon="9.197414581931797"><ele>312.0</ele><time>2026-04-18T11:55:31Z</time></trkpt><trkpt lat="45.745237194421925" lon="9.1974266461546"><ele>312.0</ele><time>2026-04-18T11:55:32Z</time></trkpt><trkpt lat="45.74531816063682" lon="9.197414395396525"><ele>312.0</ele><time>2026-04-18T11:55:33Z</time></trkpt><trkpt lat="45.74536830357761" lon="9.197353835085435"><ele>312.0</ele><time>2026-04-18T11:55:34Z</time></trkpt><trkpt lat="45.74537115260527" lon="9.197253986957902"><ele>313.5</ele><time>2026-04-18T11:55:35Z</time></trkpt><trkpt lat="45.745344810475785" lon="9.197135161618538"><ele>315.0</ele><time>2026-04-18T11:55:36Z</time></trkpt><trkpt lat="45.7452804477281" lon="9.197026352548017"><ele>316.5</ele><time>2026-04-18T11:55:37Z</time></trkpt><trkpt lat="45.74518248629949" lon="9.196905626332288"><ele>318.0</ele><time>2026-04-18T11:55:38Z</time></trkpt><trkpt lat="45.74504711717784" lon="9.196746472634711"><ele>318.0</ele><time>2026-04-18T11:55:39Z</time></trkpt><trkpt lat="45.7449117468186" lon="9.196580284890578"><ele>318.0</ele><time>2026-04-18T11:55:40Z</time></trkpt><trkpt lat="45.744768022867554" lon="9.196390181926372"><ele>318.0</ele><time>2026-04-18T11:55:41Z</time></trkpt><trkpt lat="45.74466539200968" lon="9.196245051874975"><ele>318.5</ele><time>2026-04-18T11:55:42Z</time></trkpt><trkpt lat="45.744599109931215" lon="9.196148868276724"><ele>319.0</ele><time>2026-04-18T11:55:43Z</time></trkpt><trkpt lat="45.74459162837288" lon="9.196001600130629"><ele>319.5</ele><time>2026-04-18T11:55:45Z</time></trkpt><trkpt lat="45.74464040627512" lon="9.19593930155668"><ele>320.0</ele><time>2026-04-18T11:55:46Z</time></trkpt><trkpt lat="45.744714640353365" lon="9.19590293458387"><ele>320.5</ele><time>2026-04-18T11:55:47Z</time></trkpt><trkpt lat="45.74481321321761" lon="9.195892742161814"><ele>321.0</ele><time>2026-04-18T11:55:48Z</time></trkpt><trkpt lat="45.74494160735472" lon="9.195880468928527"><ele>321.0</ele><time>2026-04-18T11:55:49Z</time></trkpt><trkpt lat="45.7450822187767" lon="9.195866107145578"><ele>321.0</ele><time>2026-04-18T11:55:50Z</time></trkpt><trkpt lat="45.74524734966923" lon="9.195838382826388"><ele>321.0</ele><time>2026-04-18T11:55:51Z</time></trkpt><trkpt lat="45.74539582523846" lon="9.195807001170756"><ele>322.6</ele><time>2026-04-18T11:55:52Z</time></trkpt><trkpt lat="45.74551472171604" lon="9.195783830454983"><ele>324.20000000000005</ele><time>2026-04-18T11:55:53Z</time></trkpt><trkpt lat="45.745631443336826" lon="9.195762119943883"><ele>325.79999999999995</ele><time>2026-04-18T11:55:54Z</time></trkpt><trkpt lat="45.74573530990054" lon="9.195738481606499"><ele>327.4</ele><time>2026-04-18T11:55:55Z</time></trkpt><trkpt lat="45.74583671949083" lon="9.195718146793123"><ele>329.0</ele><time>2026-04-18T11:55:56Z</time></trkpt><trkpt lat="45.74593907739519" lon="9.195695948906671"><ele>328.75</ele><time>2026-04-18T11:55:57Z</time></trkpt><trkpt lat="45.74604884707649" lon="9.19567366478015"><ele>328.5</ele><time>2026-04-18T11:55:58Z</time></trkpt><trkpt lat="45.74616727825054" lon="9.195657386052474"><ele>328.25</ele><time>2026-04-18T11:55:59Z</time></trkpt><trkpt lat="45.746298124349636" lon="9.195638614815538"><ele>328.0</ele><time>2026-04-18T11:56:00Z</time></trkpt><trkpt lat="45.74643837539284" lon="9.195626289417836"><ele>328.0</ele><time>2026-04-18T11:56:01Z</time></trkpt><trkpt lat="45.74658739974878" lon="9.195608553119527"><ele>328.0</ele><time>2026-04-18T11:56:02Z</time></trkpt><trkpt lat="45.746751231389965" lon="9.195584462576113"><ele>328.0</ele><time>2026-04-18T11:56:03Z</time></trkpt><trkpt lat="45.746921227809594" lon="9.195565899070154"><ele>328.66666666666663</ele><time>2026-04-18T11:56:04Z</time></trkpt><trkpt lat="45.74709615465717" lon="9.19554399802971"><ele>329.3333333333333</ele><time>2026-04-18T11:56:05Z</time></trkpt><trkpt lat="45.74725110860622" lon="9.195519730033386"><ele>330.0</ele><time>2026-04-18T11:56:06Z</time></trkpt><trkpt lat="45.74740843464536" lon="9.195494953286769"><ele>330.0</ele><time>2026-04-18T11:56:07Z</time></trkpt><trkpt lat="45.747566140300464" lon="9.195471973007828"><ele>330.0</ele><time>2026-04-18T11:56:08Z</time></trkpt><trkpt lat="45.74772801145578" lon="9.195452253602038"><ele>330.0</ele><time>2026-04-18T11:56:09Z</time></trkpt><trkpt lat="45.74788919567285" lon="9.195431719229058"><ele>330.6666666666667</ele><time>2026-04-18T11:56:10Z</time></trkpt><trkpt lat="45.74804925796369" lon="9.195413848332493"><ele>331.33333333333337</ele><time>2026-04-18T11:56:11Z</time></trkpt><trkpt lat="45.74821334047791" lon="9.195394495990481"><ele>332.0</ele><time>2026-04-18T11:56:12Z</time></trkpt><trkpt lat="45.7483864718335" lon="9.195374024530036"><ele>331.6666666666667</ele><time>2026-04-18T11:56:13Z</time></trkpt><trkpt lat="45.74856392630871" lon="9.195352663381973"><ele>331.3333333333333</ele><time>2026-04-18T11:56:14Z</time></trkpt><trkpt lat="45.74875072795038" lon="9.19532908206893"><ele>331.0</ele><time>2026-04-18T11:56:15Z</time></trkpt><trkpt lat="45.74891884676128" lon="9.195310623329098"><ele>331.0</ele><time>2026-04-18T11:56:16Z</time></trkpt><trkpt lat="45.7490679414551" lon="9.195293194437921"><ele>331.0</ele><time>2026-04-18T11:56:17Z</time></trkpt><trkpt lat="45.749220557756615" lon="9.19527211129985"><ele>331.0</ele><time>2026-04-18T11:56:18Z</time></trkpt><trkpt lat="45.74938194431886" lon="9.195267933509871"><ele>329.66666666666663</ele><time>2026-04-18T11:56:19Z</time></trkpt><trkpt lat="45.749557474868475" lon="9.19528593485846"><ele>328.3333333333333</ele><time>2026-04-18T11:56:20Z</time></trkpt><trkpt lat="45.749741314826935" lon="9.19533424003057"><ele>327.0</ele><time>2026-04-18T11:56:21Z</time></trkpt><trkpt lat="45.74994399842169" lon="9.195401679988093"><ele>327.0</ele><time>2026-04-18T11:56:22Z</time></trkpt><trkpt lat="45.75018770351006" lon="9.195478383898001"><ele>327.0</ele><time>2026-04-18T11:56:23Z</time></trkpt><trkpt lat="45.75047258401209" lon="9.195559649588121"><ele>326.5</ele><time>2026-04-18T11:56:24Z</time></trkpt><trkpt lat="45.75072885570824" lon="9.195629148428745"><ele>326.0</ele><time>2026-04-18T11:56:25Z</time></trkpt><trkpt lat="45.75094017210607" lon="9.19569084836854"><ele>325.0</ele><time>2026-04-18T11:56:26Z</time></trkpt><trkpt lat="45.75113465888667" lon="9.195748937223527"><ele>324.0</ele><time>2026-04-18T11:56:27Z</time></trkpt><trkpt lat="45.751308400629064" lon="9.195794102144792"><ele>323.0</ele><time>2026-04-18T11:56:28Z</time></trkpt><trkpt lat="45.751467892070764" lon="9.195842531223386"><ele>323.0</ele><time>2026-04-18T11:56:29Z</time></trkpt><trkpt lat="45.75160879622378" lon="9.19588889620865"><ele>323.0</ele><time>2026-04-18T11:56:30Z</time></trkpt><trkpt lat="45.75172495715825" lon="9.195930479186874"><ele>323.0</ele><time>2026-04-18T11:56:31Z</time></trkpt><trkpt lat="45.751828987406775" lon="9.195970193380493"><ele>323.0</ele><time>2026-04-18T11:56:32Z</time></trkpt><trkpt lat="45.7519171156341" lon="9.196026565724276"><ele>323.25</ele><time>2026-04-18T11:56:33Z</time></trkpt><trkpt lat="45.75201176537985" lon="9.196078028857826"><ele>323.5</ele><time>2026-04-18T11:56:34Z</time></trkpt><trkpt lat="45.75212830185559" lon="9.196082171416716"><ele>323.75</ele><time>2026-04-18T11:56:35Z</time></trkpt><trkpt lat="45.752264617407285" lon="9.196079330131527"><ele>324.0</ele><time>2026-04-18T11:56:36Z</time></trkpt><trkpt lat="45.752402105073905" lon="9.196107551686858"><ele>324.0</ele><time>2026-04-18T11:56:37Z</time></trkpt><trkpt lat="45.75255901027775" lon="9.196158179179605"><ele>324.0</ele><time>2026-04-18T11:56:38Z</time></trkpt><trkpt lat="45.75271222645558" lon="9.196196631952912"><ele>324.0</ele><time>2026-04-18T11:56:39Z</time></trkpt><trkpt lat="45.75284692941055" lon="9.196229105972314"><ele>324.0</ele><time>2026-04-18T11:56:40Z</time></trkpt><trkpt lat="45.75299296355017" lon="9.19626792335032"><ele>324.0</ele><time>2026-04-18T11:56:41Z</time></trkpt><trkpt lat="45.75315961318808" lon="9.196317595159819"><ele>324.0</ele><time>2026-04-18T11:56:42Z</time></trkpt><trkpt lat="45.75333270601569" lon="9.196368238831218"><ele>324.0</ele><time>2026-04-18T11:56:43Z</time></trkpt><trkpt lat="45.75347969083941" lon="9.196407910394223"><ele>324.0</ele><time>2026-04-18T11:56:44Z</time></trkpt><trkpt lat="45.75360448232979" lon="9.196441963119902"><ele>324.0</ele><time>2026-04-18T11:56:45Z</time></trkpt><trkpt lat="45.753729804134196" lon="9.196477453366281"><ele>324.0</ele><time>2026-04-18T11:56:46Z</time></trkpt><trkpt lat="45.753862081235" lon="9.196512629872307"><ele>325.25</ele><time>2026-04-18T11:56:47Z</time></trkpt><trkpt lat="45.75399648018362" lon="9.19655037677618"><ele>326.5</ele><time>2026-04-18T11:56:48Z</time></trkpt><trkpt lat="45.754134101757465" lon="9.196589310752607"><ele>327.75</ele><time>2026-04-18T11:56:49Z</time></trkpt><trkpt lat="45.75427140687594" lon="9.19663884858998"><ele>329.0</ele><time>2026-04-18T11:56:50Z</time></trkpt><trkpt lat="45.75441402648796" lon="9.196684290907195"><ele>329.0</ele><time>2026-04-18T11:56:51Z</time></trkpt><trkpt lat="45.754560394879114" lon="9.196711124882771"><ele>329.0</ele><time>2026-04-18T11:56:52Z</time></trkpt><trkpt lat="45.75468656647374" lon="9.19675129397203"><ele>329.0</ele><time>2026-04-18T11:56:53Z</time></trkpt><trkpt lat="45.75481581037804" lon="9.196779456989843"><ele>329.0</ele><time>2026-04-18T11:56:54Z</time></trkpt><trkpt lat="45.75495046531325" lon="9.196816980725956"><ele>329.0</ele><time>2026-04-18T11:56:55Z</time></trkpt><trkpt lat="45.75510314136777" lon="9.196868789495227"><ele>329.0</ele><time>2026-04-18T11:56:56Z</time></trkpt><trkpt lat="45.75526346638759" lon="9.196916338724744"><ele>329.0</ele><time>2026-04-18T11:56:57Z</time></trkpt><trkpt lat="45.755396433476356" lon="9.196941108635878"><ele>330.5</ele><time>2026-04-18T11:56:58Z</time></trkpt><trkpt lat="45.75551510429652" lon="9.196969522788812"><ele>332.0</ele><time>2026-04-18T11:56:59Z</time></trkpt><trkpt lat="45.75562427456852" lon="9.197003239838098"><ele>333.5</ele><time>2026-04-18T11:57:00Z</time></trkpt><trkpt lat="45.755731913950406" lon="9.197035674804425"><ele>335.0</ele><time>2026-04-18T11:57:01Z</time></trkpt><trkpt lat="45.75584337877721" lon="9.197061861318435"><ele>335.0</ele><time>2026-04-18T11:57:02Z</time></trkpt><trkpt lat="45.755957179594326" lon="9.197090549992781"><ele>335.0</ele><time>2026-04-18T11:57:03Z</time></trkpt><trkpt lat="45.756047622207895" lon="9.197136861843967"><ele>335.0</ele><time>2026-04-18T11:57:04Z</time></trkpt><trkpt lat="45.75610937767429" lon="9.197184525368874"><ele>335.0</ele><time>2026-04-18T11:57:05Z</time></trkpt><trkpt lat="45.756166154790456" lon="9.197224798784337"><ele>335.0</ele><time>2026-04-18T11:57:06Z</time></trkpt><trkpt lat="45.75625042999933" lon="9.197252715785858"><ele>335.0</ele><time>2026-04-18T11:57:07Z</time></trkpt><trkpt lat="45.75635310139411" lon="9.19725690295402"><ele>337.0</ele><time>2026-04-18T11:57:08Z</time></trkpt><trkpt lat="45.756482153457284" lon="9.197205682871298"><ele>339.0</ele><time>2026-04-18T11:57:09Z</time></trkpt><trkpt lat="45.75659677690607" lon="9.197164254100903"><ele>341.0</ele><time>2026-04-18T11:57:10Z</time></trkpt><trkpt lat="45.756714565345035" lon="9.19710903557586"><ele>343.0</ele><time>2026-04-18T11:57:11Z</time></trkpt><trkpt lat="45.756820216066615" lon="9.197063043046446"><ele>343.75</ele><time>2026-04-18T11:57:12Z</time></trkpt><trkpt lat="45.75691728251472" lon="9.197016453479673"><ele>344.5</ele><time>2026-04-18T11:57:13Z</time></trkpt><trkpt lat="45.75701351444551" lon="9.196974333578076"><ele>345.25</ele><time>2026-04-18T11:57:14Z</time></trkpt><trkpt lat="45.75712836635998" lon="9.19694560153598"><ele>346.0</ele><time>2026-04-18T11:57:15Z</time></trkpt><trkpt lat="45.75726339793582" lon="9.196928802054932"><ele>346.0</ele><time>2026-04-18T11:57:16Z</time></trkpt><trkpt lat="45.757402892738924" lon="9.196920653265177"><ele>346.0</ele><time>2026-04-18T11:57:17Z</time></trkpt><trkpt lat="45.75752567271222" lon="9.19691776667976"><ele>346.0</ele><time>2026-04-18T11:57:18Z</time></trkpt><trkpt lat="45.75764100292817" lon="9.196921273423962"><ele>346.0</ele><time>2026-04-18T11:57:19Z</time></trkpt><trkpt lat="45.75774722616314" lon="9.196937361053873"><ele>348.20000000000005</ele><time>2026-04-18T11:57:20Z</time></trkpt><trkpt lat="45.7578466464291" lon="9.196963432014435"><ele>350.40000000000003</ele><time>2026-04-18T11:57:21Z</time></trkpt><trkpt lat="45.75792538536498" lon="9.197005566321337"><ele>352.6</ele><time>2026-04-18T11:57:22Z</time></trkpt><trkpt lat="45.758000173909856" lon="9.197070508776942"><ele>354.8</ele><time>2026-04-18T11:57:23Z</time></trkpt><trkpt lat="45.75808883420524" lon="9.197169917316986"><ele>357.0</ele><time>2026-04-18T11:57:24Z</time></trkpt><trkpt lat="45.75817347258063" lon="9.197291600023872"><ele>354.40000000000003</ele><time>2026-04-18T11:57:25Z</time></trkpt><trkpt lat="45.75825044975822" lon="9.197388155219603"><ele>351.8</ele><time>2026-04-18T11:57:26Z</time></trkpt><trkpt lat="45.758315184016745" lon="9.197461767577765"><ele>349.2</ele><time>2026-04-18T11:57:27Z</time></trkpt><trkpt lat="45.75839614206177" lon="9.19753924551168"><ele>346.6</ele><time>2026-04-18T11:57:35Z</time></trkpt><trkpt lat="45.75849214796403" lon="9.197653372665458"><ele>344.0</ele><time>2026-04-18T11:57:37Z</time></trkpt><trkpt lat="45.758558311005224" lon="9.197740686877017"><ele>344.0</ele><time>2026-04-18T11:57:38Z</time></trkpt><trkpt lat="45.75864718213856" lon="9.197815852439284"><ele>344.0</ele><time>2026-04-18T11:57:40Z</time></trkpt><trkpt lat="45.75869674205422" lon="9.197886695035038"><ele>344.0</ele><time>2026-04-18T11:57:41Z</time></trkpt><trkpt lat="45.758758107363285" lon="9.197959584716816"><ele>344.0</ele><time>2026-04-18T11:57:42Z</time></trkpt><trkpt lat="45.75884285452266" lon="9.198026729552852"><ele>344.0</ele><time>2026-04-18T11:57:43Z</time></trkpt><trkpt lat="45.758943638985954" lon="9.198073491468117"><ele>344.0</ele><time>2026-04-18T11:57:44Z</time></trkpt><trkpt lat="45.75904342064893" lon="9.198112245240212"><ele>344.0</ele><time>2026-04-18T11:57:45Z</time></trkpt><trkpt lat="45.75914878570346" lon="9.19814769403536"><ele>344.0</ele><time>2026-04-18T11:57:46Z</time></trkpt><trkpt lat="45.75925386718106" lon="9.198187133675699"><ele>344.0</ele><time>2026-04-18T11:57:47Z</time></trkpt><trkpt lat="45.75935622965644" lon="9.198220712911136"><ele>344.0</ele><time>2026-04-18T11:57:48Z</time></trkpt><trkpt lat="45.759445703413725" lon="9.19825142113079"><ele>341.6666666666667</ele><time>2026-04-18T11:57:49Z</time></trkpt><trkpt lat="45.75951524883285" lon="9.198268637113646"><ele>339.33333333333337</ele><time>2026-04-18T11:57:50Z</time></trkpt><trkpt lat="45.759582886702724" lon="9.198270452297574"><ele>337.0</ele><time>2026-04-18T11:57:51Z</time></trkpt><trkpt lat="45.75965763612585" lon="9.198243415460198"><ele>334.6666666666667</ele><time>2026-04-18T11:57:52Z</time></trkpt><trkpt lat="45.759732424097244" lon="9.19821466987409"><ele>332.3333333333333</ele><time>2026-04-18T11:57:53Z</time></trkpt><trkpt lat="45.75980956860999" lon="9.198203566657545"><ele>330.0</ele><time>2026-04-18T11:57:54Z</time></trkpt><trkpt lat="45.75989066434353" lon="9.19819678812488"><ele>330.0</ele><time>2026-04-18T11:57:55Z</time></trkpt><trkpt lat="45.75997070138762" lon="9.198188762098749"><ele>330.0</ele><time>2026-04-18T11:57:56Z</time></trkpt><trkpt lat="45.76005159290272" lon="9.19817702412825"><ele>330.0</ele><time>2026-04-18T11:57:57Z</time></trkpt><trkpt lat="45.760125244876264" lon="9.198168197584174"><ele>330.0</ele><time>2026-04-18T11:57:58Z</time></trkpt><trkpt lat="45.76023980369341" lon="9.198132019875844"><ele>330.0</ele><time>2026-04-18T11:58:00Z</time></trkpt><trkpt lat="45.76032086957608" lon="9.198061368251313"><ele>330.0</ele><time>2026-04-18T11:58:02Z</time></trkpt><trkpt lat="45.7604257505638" lon="9.197954377234993"><ele>331.5</ele><time>2026-04-18T11:58:04Z</time></trkpt><trkpt lat="45.76051315681919" lon="9.197834142091486"><ele>333.0</ele><time>2026-04-18T11:58:06Z</time></trkpt><trkpt lat="45.76059296502477" lon="9.197717629748347"><ele>334.5</ele><time>2026-04-18T11:58:08Z</time></trkpt><trkpt lat="45.7606379157989" lon="9.197648133797694"><ele>336.0</ele><time>2026-04-18T11:58:09Z</time></trkpt><trkpt lat="45.760684605616234" lon="9.197577365591284"><ele>337.5</ele><time>2026-04-18T11:58:10Z</time></trkpt><trkpt lat="45.76072665405826" lon="9.197501688726694"><ele>339.0</ele><time>2026-04-18T11:58:11Z</time></trkpt><trkpt lat="45.760769304222734" lon="9.1974238790238"><ele>339.0</ele><time>2026-04-18T11:58:12Z</time></trkpt><trkpt lat="45.760813180071004" lon="9.197345539041187"><ele>339.0</ele><time>2026-04-18T11:58:13Z</time></trkpt><trkpt lat="45.760856190765246" lon="9.197272364865817"><ele>339.0</ele><time>2026-04-18T11:58:14Z</time></trkpt><trkpt lat="45.76093422185261" lon="9.1971650156759"><ele>339.0</ele><time>2026-04-18T11:58:16Z</time></trkpt><trkpt lat="45.760973077780164" lon="9.197091604947785"><ele>339.0</ele><time>2026-04-18T11:58:18Z</time></trkpt><trkpt lat="45.76092983580785" lon="9.197173302255843"><ele>339.0</ele><time>2026-04-18T11:58:28Z</time></trkpt><trkpt lat="45.760904014406066" lon="9.196927826095264"><ele>339.0</ele><time>2026-04-18T11:58:29Z</time></trkpt><trkpt lat="45.76077218801957" lon="9.19734052622824"><ele>339.0</ele><time>2026-04-18T11:58:31Z</time></trkpt><trkpt lat="45.760688701137475" lon="9.197484568715728"><ele>339.0</ele><time>2026-04-18T11:58:33Z</time></trkpt><trkpt lat="45.7606402819446" lon="9.19757376420876"><ele>339.0</ele><time>2026-04-18T11:58:34Z</time></trkpt><trkpt lat="45.7605993278542" lon="9.19765652494026"><ele>339.0</ele><time>2026-04-18T11:58:35Z</time></trkpt><trkpt lat="45.76054817936817" lon="9.1977390658729"><ele>339.0</ele><time>2026-04-18T11:58:36Z</time></trkpt><trkpt lat="45.76050254635315" lon="9.197814194022223"><ele>339.0</ele><time>2026-04-18T11:58:37Z</time></trkpt><trkpt lat="45.76039327100199" lon="9.197914743791241"><ele>339.0</ele><time>2026-04-18T11:58:39Z</time></trkpt><trkpt lat="45.760330617416685" lon="9.197985362341944"><ele>339.0</ele><time>2026-04-18T11:58:40Z</time></trkpt><trkpt lat="45.76026965636905" lon="9.198043715695569"><ele>339.0</ele><time>2026-04-18T11:58:41Z</time></trkpt><trkpt lat="45.76016908444633" lon="9.198110751328645"><ele>339.0</ele><time>2026-04-18T11:58:43Z</time></trkpt><trkpt lat="45.7600948174943" lon="9.198119145969766"><ele>339.0</ele><time>2026-04-18T11:58:45Z</time></trkpt><trkpt lat="45.760015908743725" lon="9.198129541738734"><ele>339.0</ele><time>2026-04-18T11:58:47Z</time></trkpt><trkpt lat="45.75995321725981" lon="9.198143136462184"><ele>339.0</ele><time>2026-04-18T11:58:48Z</time></trkpt><trkpt lat="45.75986102994872" lon="9.19815426691439"><ele>339.0</ele><time>2026-04-18T11:58:49Z</time></trkpt><trkpt lat="45.75977252954647" lon="9.198149205520574"><ele>339.0</ele><time>2026-04-18T11:58:50Z</time></trkpt><trkpt lat="45.75969281971924" lon="9.19815571062878"><ele>339.0</ele><time>2026-04-18T11:58:51Z</time></trkpt><trkpt lat="45.75961150278094" lon="9.198166417619355"><ele>339.0</ele><time>2026-04-18T11:58:53Z</time></trkpt><trkpt lat="45.75963219903735" lon="9.198299467630031"><ele>339.0</ele><time>2026-04-18T11:59:00Z</time></trkpt><trkpt lat="45.75969504716888" lon="9.198325519767716"><ele>339.0</ele><time>2026-04-18T11:59:01Z</time></trkpt><trkpt lat="45.75980487792326" lon="9.198353002567885"><ele>339.0</ele><time>2026-04-18T11:59:02Z</time></trkpt><trkpt lat="45.759945264743166" lon="9.198404204122928"><ele>336.3333333333333</ele><time>2026-04-18T11:59:03Z</time></trkpt><trkpt lat="45.76008178003392" lon="9.198456115632151"><ele>333.66666666666663</ele><time>2026-04-18T11:59:04Z</time></trkpt><trkpt lat="45.76024677321558" lon="9.198519998408344"><ele>331.0</ele><time>2026-04-18T11:59:05Z</time></trkpt><trkpt lat="45.76046938598524" lon="9.198606673827884"><ele>331.0</ele><time>2026-04-18T11:59:06Z</time></trkpt><trkpt lat="45.76068408865022" lon="9.198686813170449"><ele>331.0</ele><time>2026-04-18T11:59:07Z</time></trkpt><trkpt lat="45.76084693592648" lon="9.198743554975822"><ele>331.0</ele><time>2026-04-18T11:59:08Z</time></trkpt><trkpt lat="45.76097439004568" lon="9.198792749189908"><ele>332.0</ele><time>2026-04-18T11:59:09Z</time></trkpt><trkpt lat="45.761086401635936" lon="9.198867487483296"><ele>333.0</ele><time>2026-04-18T11:59:10Z</time></trkpt><trkpt lat="45.76118587100431" lon="9.198983297774367"><ele>334.0</ele><time>2026-04-18T11:59:11Z</time></trkpt><trkpt lat="45.76127489973764" lon="9.199139936788628"><ele>335.0</ele><time>2026-04-18T11:59:12Z</time></trkpt><trkpt lat="45.761357834288184" lon="9.199339743392867"><ele>335.0</ele><time>2026-04-18T11:59:13Z</time></trkpt><trkpt lat="45.761457679625586" lon="9.199599150425199"><ele>335.0</ele><time>2026-04-18T11:59:14Z</time></trkpt><trkpt lat="45.76156830563409" lon="9.19988756722983"><ele>335.0</ele><time>2026-04-18T11:59:15Z</time></trkpt><trkpt lat="45.76166780531741" lon="9.20013117800197"><ele>332.6666666666667</ele><time>2026-04-18T11:59:16Z</time></trkpt><trkpt lat="45.761748351954346" lon="9.200336076840383"><ele>330.3333333333333</ele><time>2026-04-18T11:59:17Z</time></trkpt><trkpt lat="45.76181015862293" lon="9.200529557898763"><ele>328.0</ele><time>2026-04-18T11:59:18Z</time></trkpt><trkpt lat="45.761858549433725" lon="9.200730354663719"><ele>327.66666666666663</ele><time>2026-04-18T11:59:19Z</time></trkpt><trkpt lat="45.7618994609052" lon="9.20095568367816"><ele>327.3333333333333</ele><time>2026-04-18T11:59:20Z</time></trkpt><trkpt lat="45.761947738518785" lon="9.20119610939452"><ele>327.0</ele><time>2026-04-18T11:59:21Z</time></trkpt><trkpt lat="45.7620244424879" lon="9.201450252041996"><ele>322.5</ele><time>2026-04-18T11:59:22Z</time></trkpt><trkpt lat="45.76214006999382" lon="9.201722069948044"><ele>318.0</ele><time>2026-04-18T11:59:23Z</time></trkpt><trkpt lat="45.76227834302163" lon="9.202001669777257"><ele>318.0</ele><time>2026-04-18T11:59:24Z</time></trkpt><trkpt lat="45.76240802134067" lon="9.202225392274608"><ele>318.0</ele><time>2026-04-18T11:59:25Z</time></trkpt><trkpt lat="45.762515091347886" lon="9.202409491081797"><ele>318.0</ele><time>2026-04-18T11:59:26Z</time></trkpt><trkpt lat="45.76260602253454" lon="9.202569602245028"><ele>317.0</ele><time>2026-04-18T11:59:27Z</time></trkpt><trkpt lat="45.762678853753364" lon="9.202705434011136"><ele>316.0</ele><time>2026-04-18T11:59:28Z</time></trkpt><trkpt lat="45.76272557704111" lon="9.202817050460093"><ele>315.0</ele><time>2026-04-18T11:59:29Z</time></trkpt><trkpt lat="45.76274444071692" lon="9.202925508378526"><ele>314.0</ele><time>2026-04-18T11:59:30Z</time></trkpt><trkpt lat="45.762747626866734" lon="9.203065761088542"><ele>313.0</ele><time>2026-04-18T11:59:31Z</time></trkpt><trkpt lat="45.7627422152628" lon="9.203231858134993"><ele>312.8</ele><time>2026-04-18T11:59:32Z</time></trkpt><trkpt lat="45.76275195902794" lon="9.203383958106317"><ele>312.6</ele><time>2026-04-18T11:59:33Z</time></trkpt><trkpt lat="45.76279854362063" lon="9.203489541589983"><ele>312.4</ele><time>2026-04-18T11:59:34Z</time></trkpt><trkpt lat="45.76286827876324" lon="9.203553073694046"><ele>312.2</ele><time>2026-04-18T11:59:35Z</time></trkpt><trkpt lat="45.76294919972766" lon="9.20357816095762"><ele>312.0</ele><time>2026-04-18T11:59:36Z</time></trkpt><trkpt lat="45.76304198317106" lon="9.203581738347692"><ele>312.0</ele><time>2026-04-18T11:59:37Z</time></trkpt><trkpt lat="45.763145863389035" lon="9.203540734373039"><ele>312.0</ele><time>2026-04-18T11:59:38Z</time></trkpt><trkpt lat="45.76325029490404" lon="9.203462856582473"><ele>312.0</ele><time>2026-04-18T11:59:39Z</time></trkpt><trkpt lat="45.763376137714616" lon="9.203352933204437"><ele>312.0</ele><time>2026-04-18T11:59:40Z</time></trkpt><trkpt lat="45.763550660729145" lon="9.203212879142866"><ele>313.0</ele><time>2026-04-18T11:59:41Z</time></trkpt><trkpt lat="45.76370400746974" lon="9.20309064520123"><ele>314.0</ele><time>2026-04-18T11:59:42Z</time></trkpt><trkpt lat="45.76381648078042" lon="9.202974803923933"><ele>315.0</ele><time>2026-04-18T11:59:43Z</time></trkpt><trkpt lat="45.76389821555068" lon="9.202850291776013"><ele>316.0</ele><time>2026-04-18T11:59:44Z</time></trkpt><trkpt lat="45.763965729493364" lon="9.202714726832804"><ele>316.0</ele><time>2026-04-18T11:59:45Z</time></trkpt><trkpt lat="45.76403318664949" lon="9.20257569839139"><ele>316.0</ele><time>2026-04-18T11:59:46Z</time></trkpt><trkpt lat="45.76410181047693" lon="9.202425452714198"><ele>316.0</ele><time>2026-04-18T11:59:47Z</time></trkpt><trkpt lat="45.76415985598795" lon="9.20225962709217"><ele>316.0</ele><time>2026-04-18T11:59:48Z</time></trkpt><trkpt lat="45.764223235400486" lon="9.202086127905666"><ele>316.0</ele><time>2026-04-18T11:59:49Z</time></trkpt><trkpt lat="45.76427435517144" lon="9.201897498565511"><ele>316.0</ele><time>2026-04-18T11:59:50Z</time></trkpt><trkpt lat="45.76437423900283" lon="9.201509237064686"><ele>316.0</ele><time>2026-04-18T11:59:52Z</time></trkpt><trkpt lat="45.764440062702334" lon="9.201256128110359"><ele>316.66666666666663</ele><time>2026-04-18T11:59:53Z</time></trkpt><trkpt lat="45.7645091530292" lon="9.20098939571116"><ele>317.3333333333333</ele><time>2026-04-18T11:59:54Z</time></trkpt><trkpt lat="45.7645728418958" lon="9.200768459466627"><ele>318.0</ele><time>2026-04-18T11:59:55Z</time></trkpt><trkpt lat="45.76465406308901" lon="9.200603182328308"><ele>319.0</ele><time>2026-04-18T11:59:56Z</time></trkpt><trkpt lat="45.76475733921661" lon="9.200465955825655"><ele>320.0</ele><time>2026-04-18T11:59:57Z</time></trkpt><trkpt lat="45.764880343861066" lon="9.200371782759227"><ele>321.0</ele><time>2026-04-18T11:59:58Z</time></trkpt><trkpt lat="45.76500933509808" lon="9.200331666201986"><ele>322.0</ele><time>2026-04-18T11:59:59Z</time></trkpt><trkpt lat="45.765149434849" lon="9.200304143261716"><ele>321.0</ele><time>2026-04-18T12:00:00Z</time></trkpt><trkpt lat="45.76531445015156" lon="9.200260921153635"><ele>320.0</ele><time>2026-04-18T12:00:01Z</time></trkpt><trkpt lat="45.76550200196221" lon="9.200240298330133"><ele>319.0</ele><time>2026-04-18T12:00:02Z</time></trkpt><trkpt lat="45.76566247897268" lon="9.200215539029019"><ele>319.0</ele><time>2026-04-18T12:00:03Z</time></trkpt><trkpt lat="45.76580066697297" lon="9.200185378281638"><ele>319.0</ele><time>2026-04-18T12:00:04Z</time></trkpt><trkpt lat="45.76593358779319" lon="9.200151248421934"><ele>319.0</ele><time>2026-04-18T12:00:05Z</time></trkpt><trkpt lat="45.76607048263215" lon="9.200121191081173"><ele>319.0</ele><time>2026-04-18T12:00:06Z</time></trkpt><trkpt lat="45.76621180194367" lon="9.200096343505885"><ele>317.75</ele><time>2026-04-18T12:00:07Z</time></trkpt><trkpt lat="45.766352015960365" lon="9.200061899113683"><ele>316.5</ele><time>2026-04-18T12:00:08Z</time></trkpt><trkpt lat="45.76647873741546" lon="9.200011697862752"><ele>315.25</ele><time>2026-04-18T12:00:09Z</time></trkpt><trkpt lat="45.76659780473541" lon="9.199945426159758"><ele>314.0</ele><time>2026-04-18T12:00:10Z</time></trkpt><trkpt lat="45.766715830714645" lon="9.19986497324005"><ele>314.5</ele><time>2026-04-18T12:00:11Z</time></trkpt><trkpt lat="45.76683016807361" lon="9.19978738506129"><ele>315.0</ele><time>2026-04-18T12:00:12Z</time></trkpt><trkpt lat="45.76692869289904" lon="9.199715578784765"><ele>315.5</ele><time>2026-04-18T12:00:13Z</time></trkpt><trkpt lat="45.76707473953234" lon="9.199623368803254"><ele>316.0</ele><time>2026-04-18T12:00:15Z</time></trkpt><trkpt lat="45.76716344579733" lon="9.19967162320207"><ele>316.0</ele><time>2026-04-18T12:00:17Z</time></trkpt><trkpt lat="45.76721362444911" lon="9.19980431114067"><ele>316.0</ele><time>2026-04-18T12:00:18Z</time></trkpt><trkpt lat="45.76725465442731" lon="9.199921051887152"><ele>316.0</ele><time>2026-04-18T12:00:19Z</time></trkpt><trkpt lat="45.767296486868226" lon="9.20004717535471"><ele>316.0</ele><time>2026-04-18T12:00:20Z</time></trkpt><trkpt lat="45.7673311275921" lon="9.200170781420159"><ele>316.0</ele><time>2026-04-18T12:00:21Z</time></trkpt><trkpt lat="45.767383399035374" lon="9.200301841416728"><ele>315.2</ele><time>2026-04-18T12:00:22Z</time></trkpt><trkpt lat="45.76743908142818" lon="9.200417802655497"><ele>314.40000000000003</ele><time>2026-04-18T12:00:23Z</time></trkpt><trkpt lat="45.767487726739986" lon="9.200534687052219"><ele>313.6</ele><time>2026-04-18T12:00:24Z</time></trkpt><trkpt lat="45.7675343725116" lon="9.200657018911475"><ele>312.8</ele><time>2026-04-18T12:00:25Z</time></trkpt><trkpt lat="45.767578323729424" lon="9.200784004564392"><ele>312.0</ele><time>2026-04-18T12:00:26Z</time></trkpt><trkpt lat="45.76760276160797" lon="9.20093663812849"><ele>311.8</ele><time>2026-04-18T12:00:28Z</time></trkpt><trkpt lat="45.767676777987674" lon="9.201000680129212"><ele>311.6</ele><time>2026-04-18T12:00:34Z</time></trkpt><trkpt lat="45.76776843003785" lon="9.200899836500682"><ele>311.40000000000003</ele><time>2026-04-18T12:00:36Z</time></trkpt><trkpt lat="45.76782809742255" lon="9.200816320870942"><ele>311.2</ele><time>2026-04-18T12:00:37Z</time></trkpt><trkpt lat="45.76788484310807" lon="9.20073689463418"><ele>311.0</ele><time>2026-04-18T12:00:38Z</time></trkpt><trkpt lat="45.76795384469097" lon="9.200640313900301"><ele>311.6</ele><time>2026-04-18T12:00:39Z</time></trkpt><trkpt lat="45.768018159087006" lon="9.20055019245128"><ele>312.20000000000005</ele><time>2026-04-18T12:00:40Z</time></trkpt><trkpt lat="45.76808337540592" lon="9.20045819049736"><ele>312.79999999999995</ele><time>2026-04-18T12:00:41Z</time></trkpt><trkpt lat="45.768152285834134" lon="9.200343627490264"><ele>313.4</ele><time>2026-04-18T12:00:42Z</time></trkpt><trkpt lat="45.768248633617745" lon="9.200209495663344"><ele>314.0</ele><time>2026-04-18T12:00:43Z</time></trkpt><trkpt lat="45.76837454810344" lon="9.200037165543845"><ele>314.0</ele><time>2026-04-18T12:00:44Z</time></trkpt><trkpt lat="45.7684791572169" lon="9.199894256501054"><ele>314.0</ele><time>2026-04-18T12:00:45Z</time></trkpt><trkpt lat="45.76856910071819" lon="9.19977194923321"><ele>314.0</ele><time>2026-04-18T12:00:46Z</time></trkpt><trkpt lat="45.76864263299427" lon="9.199667033071304"><ele>314.0</ele><time>2026-04-18T12:00:47Z</time></trkpt><trkpt lat="45.768701920073255" lon="9.199580019507078"><ele>315.5</ele><time>2026-04-18T12:00:48Z</time></trkpt><trkpt lat="45.76878325363194" lon="9.199551017384579"><ele>317.0</ele><time>2026-04-18T12:00:50Z</time></trkpt><trkpt lat="45.76885916049745" lon="9.199581597369997"><ele>318.5</ele><time>2026-04-18T12:00:52Z</time></trkpt><trkpt lat="45.76896446291123" lon="9.199684585143771"><ele>320.0</ele><time>2026-04-18T12:00:54Z</time></trkpt><trkpt lat="45.769024395822434" lon="9.199755158505795"><ele>321.5</ele><time>2026-04-18T12:00:55Z</time></trkpt><trkpt lat="45.76907958858813" lon="9.199836185894572"><ele>323.0</ele><time>2026-04-18T12:00:56Z</time></trkpt><trkpt lat="45.76912845829419" lon="9.199955482882261"><ele>323.0</ele><time>2026-04-18T12:00:58Z</time></trkpt><trkpt lat="45.76919107245795" lon="9.199995700393254"><ele>323.0</ele><time>2026-04-18T12:01:00Z</time></trkpt><trkpt lat="45.769334517676214" lon="9.199891691071791"><ele>323.0</ele><time>2026-04-18T12:01:02Z</time></trkpt><trkpt lat="45.76940491343742" lon="9.199840465507618"><ele>323.0</ele><time>2026-04-18T12:01:03Z</time></trkpt><trkpt lat="45.769466303210834" lon="9.199777848407992"><ele>323.0</ele><time>2026-04-18T12:01:04Z</time></trkpt><trkpt lat="45.76951827628462" lon="9.199705937658223"><ele>324.1666666666667</ele><time>2026-04-18T12:01:05Z</time></trkpt><trkpt lat="45.769566744685974" lon="9.199633326391364"><ele>325.33333333333337</ele><time>2026-04-18T12:01:06Z</time></trkpt><trkpt lat="45.76962810025564" lon="9.199600173611996"><ele>326.5</ele><time>2026-04-18T12:01:07Z</time></trkpt><trkpt lat="45.76971067938596" lon="9.19956785112269"><ele>327.6666666666667</ele><time>2026-04-18T12:01:09Z</time></trkpt><trkpt lat="45.76982740105298" lon="9.199504946935138"><ele>328.8333333333333</ele><time>2026-04-18T12:01:13Z</time></trkpt><trkpt lat="45.769891907620355" lon="9.199489525628023"><ele>330.0</ele><time>2026-04-18T12:01:15Z</time></trkpt><trkpt lat="45.77001893641211" lon="9.199463659570556"><ele>330.0</ele><time>2026-04-18T12:01:17Z</time></trkpt><trkpt lat="45.77014566490084" lon="9.19944688820661"><ele>330.0</ele><time>2026-04-18T12:01:18Z</time></trkpt><trkpt lat="45.77028159461118" lon="9.19942820372419"><ele>330.0</ele><time>2026-04-18T12:01:19Z</time></trkpt><trkpt lat="45.77045635487784" lon="9.19937078881808"><ele>330.0</ele><time>2026-04-18T12:01:20Z</time></trkpt><trkpt lat="45.770601545679796" lon="9.199323498660858"><ele>328.0</ele><time>2026-04-18T12:01:21Z</time></trkpt><trkpt lat="45.77073179663275" lon="9.199283608457785"><ele>326.0</ele><time>2026-04-18T12:01:22Z</time></trkpt><trkpt lat="45.770877424556495" lon="9.199234579578091"><ele>324.0</ele><time>2026-04-18T12:01:23Z</time></trkpt><trkpt lat="45.77106001590299" lon="9.199171572095894"><ele>320.0</ele><time>2026-04-18T12:01:24Z</time></trkpt><trkpt lat="45.77123735205503" lon="9.199105835032334"><ele>316.0</ele><time>2026-04-18T12:01:25Z</time></trkpt><trkpt lat="45.77138793466392" lon="9.199059142745782"><ele>312.0</ele><time>2026-04-18T12:01:26Z</time></trkpt><trkpt lat="45.77153171031168" lon="9.199009589411428"><ele>312.0</ele><time>2026-04-18T12:01:27Z</time></trkpt><trkpt lat="45.77166675461368" lon="9.198964817572854"><ele>312.0</ele><time>2026-04-18T12:01:28Z</time></trkpt><trkpt lat="45.7717980732925" lon="9.198928795309138"><ele>312.0</ele><time>2026-04-18T12:01:29Z</time></trkpt><trkpt lat="45.7719202394854" lon="9.198883002591577"><ele>312.0</ele><time>2026-04-18T12:01:30Z</time></trkpt><trkpt lat="45.77204721146633" lon="9.198842310806171"><ele>312.0</ele><time>2026-04-18T12:01:31Z</time></trkpt><trkpt lat="45.77217530003684" lon="9.19881756459651"><ele>312.0</ele><time>2026-04-18T12:01:32Z</time></trkpt><trkpt lat="45.772295342065036" lon="9.19882815738813"><ele>312.0</ele><time>2026-04-18T12:01:33Z</time></trkpt><trkpt lat="45.772419245996694" lon="9.198872411710893"><ele>312.0</ele><time>2026-04-18T12:01:34Z</time></trkpt><trkpt lat="45.77254793357109" lon="9.198951652532015"><ele>310.25</ele><time>2026-04-18T12:01:35Z</time></trkpt><trkpt lat="45.77267317965629" lon="9.199051429224422"><ele>308.5</ele><time>2026-04-18T12:01:36Z</time></trkpt><trkpt lat="45.77278337795729" lon="9.199152732719135"><ele>306.75</ele><time>2026-04-18T12:01:37Z</time></trkpt><trkpt lat="45.77287690412913" lon="9.199238373818318"><ele>305.0</ele><time>2026-04-18T12:01:38Z</time></trkpt><trkpt lat="45.772965112162765" lon="9.1993144557807"><ele>304.75</ele><time>2026-04-18T12:01:39Z</time></trkpt><trkpt lat="45.77305502127038" lon="9.199385420050051"><ele>304.5</ele><time>2026-04-18T12:01:40Z</time></trkpt><trkpt lat="45.77316063949243" lon="9.199467542073467"><ele>304.25</ele><time>2026-04-18T12:01:41Z</time></trkpt><trkpt lat="45.77328858038196" lon="9.19956591933591"><ele>304.0</ele><time>2026-04-18T12:01:42Z</time></trkpt><trkpt lat="45.77343289382071" lon="9.199680322837102"><ele>303.3333333333333</ele><time>2026-04-18T12:01:43Z</time></trkpt><trkpt lat="45.77360776713842" lon="9.199818069473213"><ele>302.6666666666667</ele><time>2026-04-18T12:01:44Z</time></trkpt><trkpt lat="45.773752031492435" lon="9.199941088503605"><ele>302.0</ele><time>2026-04-18T12:01:45Z</time></trkpt><trkpt lat="45.77387573944829" lon="9.20003801755985"><ele>301.6</ele><time>2026-04-18T12:01:46Z</time></trkpt><trkpt lat="45.773982053406414" lon="9.200120216059124"><ele>301.2</ele><time>2026-04-18T12:01:47Z</time></trkpt><trkpt lat="45.77407576328778" lon="9.200197110842723"><ele>300.8</ele><time>2026-04-18T12:01:48Z</time></trkpt><trkpt lat="45.77415843333037" lon="9.200261472680674"><ele>300.4</ele><time>2026-04-18T12:01:49Z</time></trkpt><trkpt lat="45.77423217809915" lon="9.2003245693076"><ele>300.0</ele><time>2026-04-18T12:01:50Z</time></trkpt><trkpt lat="45.7743779285654" lon="9.200423420467104"><ele>299.4</ele><time>2026-04-18T12:01:52Z</time></trkpt><trkpt lat="45.774456653040474" lon="9.200445893984783"><ele>298.8</ele><time>2026-04-18T12:01:53Z</time></trkpt><trkpt lat="45.77454110089721" lon="9.200432087894203"><ele>298.2</ele><time>2026-04-18T12:01:54Z</time></trkpt><trkpt lat="45.77463901735658" lon="9.200394365351498"><ele>297.6</ele><time>2026-04-18T12:01:55Z</time></trkpt><trkpt lat="45.77472403722314" lon="9.20033031897227"><ele>297.0</ele><time>2026-04-18T12:01:56Z</time></trkpt><trkpt lat="45.77480284002951" lon="9.200221649324497"><ele>297.0</ele><time>2026-04-18T12:01:57Z</time></trkpt><trkpt lat="45.77488432822403" lon="9.20009141316855"><ele>297.0</ele><time>2026-04-18T12:01:58Z</time></trkpt><trkpt lat="45.774965975965024" lon="9.19996984507126"><ele>297.0</ele><time>2026-04-18T12:01:59Z</time></trkpt><trkpt lat="45.775041352274954" lon="9.199866402194605"><ele>297.0</ele><time>2026-04-18T12:02:00Z</time></trkpt><trkpt lat="45.77511548204248" lon="9.19977406919379"><ele>297.0</ele><time>2026-04-18T12:02:01Z</time></trkpt><trkpt lat="45.77520496263633" lon="9.199675947388657"><ele>296.0</ele><time>2026-04-18T12:02:02Z</time></trkpt><trkpt lat="45.77531073178404" lon="9.199626585912497"><ele>295.0</ele><time>2026-04-18T12:02:03Z</time></trkpt><trkpt lat="45.775425098821316" lon="9.199592518148847"><ele>294.0</ele><time>2026-04-18T12:02:04Z</time></trkpt><trkpt lat="45.775551398386355" lon="9.199556312395087"><ele>293.0</ele><time>2026-04-18T12:02:05Z</time></trkpt><trkpt lat="45.77570096439489" lon="9.199498413089584"><ele>293.0</ele><time>2026-04-18T12:02:06Z</time></trkpt><trkpt lat="45.77590087700153" lon="9.199443826245618"><ele>293.0</ele><time>2026-04-18T12:02:07Z</time></trkpt><trkpt lat="45.776121283810596" lon="9.199386933757886"><ele>293.0</ele><time>2026-04-18T12:02:08Z</time></trkpt><trkpt lat="45.776315703156676" lon="9.199331882610778"><ele>289.6666666666667</ele><time>2026-04-18T12:02:09Z</time></trkpt><trkpt lat="45.776481492406745" lon="9.199280850204145"><ele>286.3333333333333</ele><time>2026-04-18T12:02:10Z</time></trkpt><trkpt lat="45.77662998260555" lon="9.199236743412303"><ele>283.0</ele><time>2026-04-18T12:02:11Z</time></trkpt><trkpt lat="45.776769068286995" lon="9.199201247270166"><ele>282.25</ele><time>2026-04-18T12:02:12Z</time></trkpt><trkpt lat="45.776889433272316" lon="9.199178795954648"><ele>281.5</ele><time>2026-04-18T12:02:13Z</time></trkpt><trkpt lat="45.77699201647767" lon="9.199175179075327"><ele>280.75</ele><time>2026-04-18T12:02:14Z</time></trkpt><trkpt lat="45.77709138066207" lon="9.199180616664236"><ele>280.0</ele><time>2026-04-18T12:02:15Z</time></trkpt><trkpt lat="45.77722257380942" lon="9.199200389019117"><ele>280.0</ele><time>2026-04-18T12:02:16Z</time></trkpt><trkpt lat="45.777399028662046" lon="9.199228539461975"><ele>280.0</ele><time>2026-04-18T12:02:17Z</time></trkpt><trkpt lat="45.77761801389677" lon="9.199254704533002"><ele>280.0</ele><time>2026-04-18T12:02:18Z</time></trkpt><trkpt lat="45.77780716060389" lon="9.199276888518492"><ele>279.0</ele><time>2026-04-18T12:02:19Z</time></trkpt><trkpt lat="45.77797183528172" lon="9.199296848829118"><ele>278.0</ele><time>2026-04-18T12:02:20Z</time></trkpt><trkpt lat="45.77811542317185" lon="9.199297764713327"><ele>277.0</ele><time>2026-04-18T12:02:21Z</time></trkpt><trkpt lat="45.7782270020328" lon="9.199286958379602"><ele>276.0</ele><time>2026-04-18T12:02:22Z</time></trkpt><trkpt lat="45.77830839222827" lon="9.199268335828986"><ele>276.0</ele><time>2026-04-18T12:02:23Z</time></trkpt><trkpt lat="45.778382163140805" lon="9.199250996025292"><ele>276.0</ele><time>2026-04-18T12:02:24Z</time></trkpt><trkpt lat="45.778504533545785" lon="9.199214882680051"><ele>276.0</ele><time>2026-04-18T12:02:25Z</time></trkpt><trkpt lat="45.778643055181554" lon="9.199182276241892"><ele>276.0</ele><time>2026-04-18T12:02:26Z</time></trkpt><trkpt lat="45.77875366033802" lon="9.199169529393075"><ele>274.75</ele><time>2026-04-18T12:02:27Z</time></trkpt><trkpt lat="45.77885765065567" lon="9.199181655764551"><ele>273.5</ele><time>2026-04-18T12:02:28Z</time></trkpt><trkpt lat="45.77896637633814" lon="9.199222158958673"><ele>272.25</ele><time>2026-04-18T12:02:29Z</time></trkpt><trkpt lat="45.77908227835465" lon="9.199286555788564"><ele>271.0</ele><time>2026-04-18T12:02:30Z</time></trkpt><trkpt lat="45.779188073353744" lon="9.199359677420818"><ele>271.0</ele><time>2026-04-18T12:02:31Z</time></trkpt><trkpt lat="45.779290236270846" lon="9.199431048757246"><ele>271.0</ele><time>2026-04-18T12:02:32Z</time></trkpt><trkpt lat="45.779390369869944" lon="9.199493988459313"><ele>271.0</ele><time>2026-04-18T12:02:33Z</time></trkpt><trkpt lat="45.779481735891856" lon="9.199537532307078"><ele>271.0</ele><time>2026-04-18T12:02:34Z</time></trkpt><trkpt lat="45.77956378880245" lon="9.19957035728452"><ele>271.0</ele><time>2026-04-18T12:02:35Z</time></trkpt><trkpt lat="45.77964869223017" lon="9.199584846541969"><ele>270.66666666666663</ele><time>2026-04-18T12:02:36Z</time></trkpt><trkpt lat="45.779754581311124" lon="9.19957745098939"><ele>270.3333333333333</ele><time>2026-04-18T12:02:37Z</time></trkpt><trkpt lat="45.77984741601029" lon="9.19956867418892"><ele>270.0</ele><time>2026-04-18T12:02:38Z</time></trkpt><trkpt lat="45.77992492469814" lon="9.199572328001542"><ele>269.6666666666667</ele><time>2026-04-18T12:02:39Z</time></trkpt><trkpt lat="45.779987005757334" lon="9.19959379689485"><ele>269.33333333333337</ele><time>2026-04-18T12:02:40Z</time></trkpt><trkpt lat="45.78005175011897" lon="9.199626338263865"><ele>269.0</ele><time>2026-04-18T12:02:41Z</time></trkpt><trkpt lat="45.7801092977679" lon="9.199678399107288"><ele>269.0</ele><time>2026-04-18T12:02:42Z</time></trkpt><trkpt lat="45.78018049243772" lon="9.199741361504135"><ele>269.0</ele><time>2026-04-18T12:02:43Z</time></trkpt><trkpt lat="45.7802594316915" lon="9.199795103158545"><ele>269.0</ele><time>2026-04-18T12:02:44Z</time></trkpt><trkpt lat="45.78033582385972" lon="9.199830523079903"><ele>269.0</ele><time>2026-04-18T12:02:45Z</time></trkpt><trkpt lat="45.78041931547239" lon="9.199827402129161"><ele>269.0</ele><time>2026-04-18T12:02:46Z</time></trkpt><trkpt lat="45.78049329310959" lon="9.19979857565348"><ele>269.0</ele><time>2026-04-18T12:02:47Z</time></trkpt><trkpt lat="45.78062947177206" lon="9.199757501625218"><ele>269.59999999999997</ele><time>2026-04-18T12:02:49Z</time></trkpt><trkpt lat="45.78075018100483" lon="9.199793311118034"><ele>270.2</ele><time>2026-04-18T12:02:51Z</time></trkpt><trkpt lat="45.78082463408747" lon="9.199816834597875"><ele>270.79999999999995</ele><time>2026-04-18T12:02:52Z</time></trkpt><trkpt lat="45.78092738914871" lon="9.199822500851669"><ele>271.4</ele><time>2026-04-18T12:02:53Z</time></trkpt><trkpt lat="45.781042745046975" lon="9.199816688829895"><ele>272.0</ele><time>2026-04-18T12:02:54Z</time></trkpt><trkpt lat="45.78116040189791" lon="9.199803942171105"><ele>272.75</ele><time>2026-04-18T12:02:55Z</time></trkpt><trkpt lat="45.781299927831725" lon="9.19978350343651"><ele>273.5</ele><time>2026-04-18T12:02:56Z</time></trkpt><trkpt lat="45.78144256719749" lon="9.199757660680092"><ele>274.25</ele><time>2026-04-18T12:02:57Z</time></trkpt><trkpt lat="45.781567614752866" lon="9.19973460382872"><ele>275.0</ele><time>2026-04-18T12:02:58Z</time></trkpt><trkpt lat="45.78166749373784" lon="9.199728560192957"><ele>275.0</ele><time>2026-04-18T12:02:59Z</time></trkpt><trkpt lat="45.781769497800695" lon="9.1997241473532"><ele>275.0</ele><time>2026-04-18T12:03:00Z</time></trkpt><trkpt lat="45.78188850351323" lon="9.199737242345602"><ele>275.0</ele><time>2026-04-18T12:03:01Z</time></trkpt><trkpt lat="45.7820169639121" lon="9.199785160684602"><ele>275.0</ele><time>2026-04-18T12:03:02Z</time></trkpt><trkpt lat="45.782140854994836" lon="9.199868423903432"><ele>274.0</ele><time>2026-04-18T12:03:03Z</time></trkpt><trkpt lat="45.78224337842489" lon="9.199952381813508"><ele>273.0</ele><time>2026-04-18T12:03:04Z</time></trkpt><trkpt lat="45.78233857313902" lon="9.200045429348092"><ele>272.0</ele><time>2026-04-18T12:03:05Z</time></trkpt><trkpt lat="45.78243588256095" lon="9.200129160214567"><ele>271.0</ele><time>2026-04-18T12:03:06Z</time></trkpt><trkpt lat="45.78252324415324" lon="9.200206089658149"><ele>270.0</ele><time>2026-04-18T12:03:07Z</time></trkpt><trkpt lat="45.78260429609637" lon="9.200266088336942"><ele>270.0</ele><time>2026-04-18T12:03:08Z</time></trkpt><trkpt lat="45.78267871427871" lon="9.200326635375278"><ele>270.0</ele><time>2026-04-18T12:03:09Z</time></trkpt><trkpt lat="45.782736227605895" lon="9.200388063535936"><ele>270.0</ele><time>2026-04-18T12:03:10Z</time></trkpt><trkpt lat="45.78279622939996" lon="9.200418651534838"><ele>270.0</ele><time>2026-04-18T12:03:11Z</time></trkpt><trkpt lat="45.78282542118571" lon="9.200535104904796"><ele>270.0</ele><time>2026-04-18T12:03:13Z</time></trkpt><trkpt lat="45.78284926191389" lon="9.20044384415143"><ele>270.0</ele><time>2026-04-18T12:03:18Z</time></trkpt><trkpt lat="45.782758219460185" lon="9.200335636326358"><ele>270.0</ele><time>2026-04-18T12:03:20Z</time></trkpt><trkpt lat="45.782622896242096" lon="9.200220591737926"><ele>270.0</ele><time>2026-04-18T12:03:21Z</time></trkpt><trkpt lat="45.78254599201486" lon="9.20016589184754"><ele>270.0</ele><time>2026-04-18T12:03:22Z</time></trkpt><trkpt lat="45.78249307573212" lon="9.200112184454554"><ele>270.0</ele><time>2026-04-18T12:03:23Z</time></trkpt><trkpt lat="45.78244995228507" lon="9.200046349125982"><ele>270.0</ele><time>2026-04-18T12:03:24Z</time></trkpt><trkpt lat="45.782442678474666" lon="9.199915891354818"><ele>271.2857142857143</ele><time>2026-04-18T12:03:26Z</time></trkpt><trkpt lat="45.782474744817215" lon="9.199815884925934"><ele>272.57142857142856</ele><time>2026-04-18T12:03:29Z</time></trkpt><trkpt lat="45.78254193143836" lon="9.199753686156358"><ele>273.85714285714283</ele><time>2026-04-18T12:03:31Z</time></trkpt><trkpt lat="45.782606988029876" lon="9.199729332692204"><ele>275.1428571428571</ele><time>2026-04-18T12:03:32Z</time></trkpt><trkpt lat="45.782655722552256" lon="9.199670808571478"><ele>276.42857142857144</ele><time>2026-04-18T12:03:33Z</time></trkpt><trkpt lat="45.78268207644883" lon="9.199586710431118"><ele>277.71428571428567</ele><time>2026-04-18T12:03:34Z</time></trkpt><trkpt lat="45.782716322881846" lon="9.199487344322522"><ele>279.0</ele><time>2026-04-18T12:03:35Z</time></trkpt><trkpt lat="45.78275654624053" lon="9.19940143626884"><ele>281.8</ele><time>2026-04-18T12:03:36Z</time></trkpt><trkpt lat="45.78281413870312" lon="9.199335090456426"><ele>284.59999999999997</ele><time>2026-04-18T12:03:38Z</time></trkpt><trkpt lat="45.78290784371723" lon="9.199380712396206"><ele>287.4</ele><time>2026-04-18T12:03:41Z</time></trkpt><trkpt lat="45.78300281244034" lon="9.199477164416255"><ele>290.2</ele><time>2026-04-18T12:03:43Z</time></trkpt><trkpt lat="45.78305508113414" lon="9.199530824434955"><ele>293.0</ele><time>2026-04-18T12:03:44Z</time></trkpt><trkpt lat="45.78315883979071" lon="9.199618744213891"><ele>292.99999999999994</ele><time>2026-04-18T12:03:46Z</time></trkpt><trkpt lat="45.78322526447845" lon="9.199640311320094"><ele>293.0</ele><time>2026-04-18T12:03:47Z</time></trkpt><trkpt lat="45.78329594068304" lon="9.199664609432975"><ele>293.0</ele><time>2026-04-18T12:03:48Z</time></trkpt><trkpt lat="45.7833584205776" lon="9.199695718771977"><ele>293.0</ele><time>2026-04-18T12:03:49Z</time></trkpt><trkpt lat="45.78342579273125" lon="9.199722872856581"><ele>293.0</ele><time>2026-04-18T12:03:50Z</time></trkpt><trkpt lat="45.783490341561944" lon="9.199750310140207"><ele>292.99999999999994</ele><time>2026-04-18T12:03:51Z</time></trkpt><trkpt lat="45.7835493248512" lon="9.19979265524368"><ele>293.0</ele><time>2026-04-18T12:03:52Z</time></trkpt><trkpt lat="45.78361087560566" lon="9.199833331983372"><ele>294.1428571428571</ele><time>2026-04-18T12:03:53Z</time></trkpt><trkpt lat="45.783667348805025" lon="9.199882184446144"><ele>295.2857142857143</ele><time>2026-04-18T12:03:54Z</time></trkpt><trkpt lat="45.78372249006696" lon="9.199933992813827"><ele>296.42857142857144</ele><time>2026-04-18T12:03:55Z</time></trkpt><trkpt lat="45.78377646344925" lon="9.199990661603538"><ele>297.57142857142856</ele><time>2026-04-18T12:03:56Z</time></trkpt><trkpt lat="45.78383613165425" lon="9.200048857575245"><ele>298.7142857142857</ele><time>2026-04-18T12:03:57Z</time></trkpt><trkpt lat="45.783898360298956" lon="9.200096817533522"><ele>299.85714285714283</ele><time>2026-04-18T12:03:58Z</time></trkpt><trkpt lat="45.78396687136543" lon="9.200155493606692"><ele>301.0</ele><time>2026-04-18T12:03:59Z</time></trkpt><trkpt lat="45.78401418480281" lon="9.200215925002155"><ele>301.0</ele><time>2026-04-18T12:04:00Z</time></trkpt><trkpt lat="45.784072162804414" lon="9.200272570870208"><ele>301.0</ele><time>2026-04-18T12:04:01Z</time></trkpt><trkpt lat="45.78412736646849" lon="9.200323375180057"><ele>301.0</ele><time>2026-04-18T12:04:02Z</time></trkpt><trkpt lat="45.784189353357114" lon="9.200375417848024"><ele>301.0</ele><time>2026-04-18T12:04:03Z</time></trkpt><trkpt lat="45.784248152584446" lon="9.200413779939526"><ele>301.0</ele><time>2026-04-18T12:04:04Z</time></trkpt><trkpt lat="45.78431198461731" lon="9.200463421408031"><ele>301.0</ele><time>2026-04-18T12:04:05Z</time></trkpt><trkpt lat="45.784373271596756" lon="9.200524403721614"><ele>301.0</ele><time>2026-04-18T12:04:06Z</time></trkpt><trkpt lat="45.784443749815246" lon="9.200582050829308"><ele>299.2</ele><time>2026-04-18T12:04:07Z</time></trkpt><trkpt lat="45.78452376128428" lon="9.20060852366529"><ele>297.40000000000003</ele><time>2026-04-18T12:04:08Z</time></trkpt><trkpt lat="45.784608460173175" lon="9.200649371402864"><ele>295.6</ele><time>2026-04-18T12:04:09Z</time></trkpt><trkpt lat="45.784694957222875" lon="9.200684872001734"><ele>293.8</ele><time>2026-04-18T12:04:10Z</time></trkpt><trkpt lat="45.784791225651105" lon="9.200736988529755"><ele>292.0</ele><time>2026-04-18T12:04:11Z</time></trkpt><trkpt lat="45.784887216742774" lon="9.200785570564953"><ele>292.0</ele><time>2026-04-18T12:04:12Z</time></trkpt><trkpt lat="45.784978959030305" lon="9.200847600877559"><ele>292.0</ele><time>2026-04-18T12:04:13Z</time></trkpt><trkpt lat="45.78506052989792" lon="9.20089434489877"><ele>292.0</ele><time>2026-04-18T12:04:14Z</time></trkpt><trkpt lat="45.78512738793824" lon="9.200933141203496"><ele>292.0</ele><time>2026-04-18T12:04:15Z</time></trkpt><trkpt lat="45.785183141749044" lon="9.200985457237824"><ele>292.0</ele><time>2026-04-18T12:04:16Z</time></trkpt><trkpt lat="45.78524007880148" lon="9.201057608996889"><ele>292.0</ele><time>2026-04-18T12:04:17Z</time></trkpt><trkpt lat="45.78532496727015" lon="9.201164204897285"><ele>292.3333333333333</ele><time>2026-04-18T12:04:18Z</time></trkpt><trkpt lat="45.785409835181376" lon="9.201260742813744"><ele>292.66666666666663</ele><time>2026-04-18T12:04:19Z</time></trkpt><trkpt lat="45.78549329227776" lon="9.201336158657172"><ele>293.0</ele><time>2026-04-18T12:04:20Z</time></trkpt><trkpt lat="45.785559494216955" lon="9.201401271328336"><ele>293.3333333333333</ele><time>2026-04-18T12:04:21Z</time></trkpt><trkpt lat="45.78562565871358" lon="9.201474818699378"><ele>293.6666666666667</ele><time>2026-04-18T12:04:22Z</time></trkpt><trkpt lat="45.78568469685006" lon="9.201547516658465"><ele>294.0</ele><time>2026-04-18T12:04:23Z</time></trkpt><trkpt lat="45.7857418140479" lon="9.201619313469704"><ele>294.0</ele><time>2026-04-18T12:04:24Z</time></trkpt><trkpt lat="45.78579742538639" lon="9.201682984540913"><ele>294.0</ele><time>2026-04-18T12:04:25Z</time></trkpt><trkpt lat="45.78592482046328" lon="9.201791132759684"><ele>294.0</ele><time>2026-04-18T12:04:27Z</time></trkpt><trkpt lat="45.78600740478964" lon="9.20183852336687"><ele>294.0</ele><time>2026-04-18T12:04:28Z</time></trkpt><trkpt lat="45.786105702184585" lon="9.201894978319594"><ele>294.0</ele><time>2026-04-18T12:04:29Z</time></trkpt><trkpt lat="45.78618866375653" lon="9.201953373131653"><ele>296.3333333333333</ele><time>2026-04-18T12:04:30Z</time></trkpt><trkpt lat="45.78626049772131" lon="9.20199900287234"><ele>298.6666666666667</ele><time>2026-04-18T12:04:31Z</time></trkpt><trkpt lat="45.786338086503136" lon="9.202046789321033"><ele>301.0</ele><time>2026-04-18T12:04:32Z</time></trkpt><trkpt lat="45.78642757478503" lon="9.202100466863"><ele>303.33333333333337</ele><time>2026-04-18T12:04:33Z</time></trkpt><trkpt lat="45.786514985869836" lon="9.202163555587315"><ele>305.6666666666667</ele><time>2026-04-18T12:04:34Z</time></trkpt><trkpt lat="45.78659165481129" lon="9.202222735901874"><ele>308.0</ele><time>2026-04-18T12:04:35Z</time></trkpt><trkpt lat="45.78666996400692" lon="9.202272071708755"><ele>308.0</ele><time>2026-04-18T12:04:36Z</time></trkpt><trkpt lat="45.786755397188266" lon="9.202304825734089"><ele>308.0</ele><time>2026-04-18T12:04:37Z</time></trkpt><trkpt lat="45.78684116198481" lon="9.202336396001705"><ele>308.0</ele><time>2026-04-18T12:04:38Z</time></trkpt><trkpt lat="45.78692887716479" lon="9.202371631373111"><ele>308.0</ele><time>2026-04-18T12:04:39Z</time></trkpt><trkpt lat="45.787000848096206" lon="9.202406017609093"><ele>308.0</ele><time>2026-04-18T12:04:40Z</time></trkpt><trkpt lat="45.78707815046601" lon="9.202433459031324"><ele>308.0</ele><time>2026-04-18T12:04:41Z</time></trkpt><trkpt lat="45.78717019552083" lon="9.2024458624614"><ele>307.0</ele><time>2026-04-18T12:04:42Z</time></trkpt><trkpt lat="45.7872548416901" lon="9.202460527098353"><ele>306.0</ele><time>2026-04-18T12:04:43Z</time></trkpt><trkpt lat="45.78731205648731" lon="9.202503349377839"><ele>305.0</ele><time>2026-04-18T12:04:44Z</time></trkpt><trkpt lat="45.787362060181614" lon="9.202572699739203"><ele>304.0</ele><time>2026-04-18T12:04:45Z</time></trkpt><trkpt lat="45.787413381489834" lon="9.202655605809989"><ele>303.0</ele><time>2026-04-18T12:04:46Z</time></trkpt><trkpt lat="45.78746869210688" lon="9.202736704203003"><ele>302.0</ele><time>2026-04-18T12:04:47Z</time></trkpt><trkpt lat="45.7875159072221" lon="9.202811206070582"><ele>301.0</ele><time>2026-04-18T12:04:48Z</time></trkpt><trkpt lat="45.78761520024558" lon="9.202891332226033"><ele>303.0</ele><time>2026-04-18T12:04:50Z</time></trkpt><trkpt lat="45.78767954093419" lon="9.20288709486801"><ele>305.0</ele><time>2026-04-18T12:04:51Z</time></trkpt><trkpt lat="45.787748668683086" lon="9.20287760591546"><ele>307.0</ele><time>2026-04-18T12:04:52Z</time></trkpt><trkpt lat="45.78783738171629" lon="9.20287309508432"><ele>309.0</ele><time>2026-04-18T12:04:53Z</time></trkpt><trkpt lat="45.78791191511863" lon="9.202899196565067"><ele>311.0</ele><time>2026-04-18T12:04:54Z</time></trkpt><trkpt lat="45.78799583917653" lon="9.202942266990695"><ele>313.0</ele><time>2026-04-18T12:04:55Z</time></trkpt><trkpt lat="45.788083259649646" lon="9.20299515769382"><ele>313.0</ele><time>2026-04-18T12:04:56Z</time></trkpt><trkpt lat="45.78819917539924" lon="9.203050056840976"><ele>313.0</ele><time>2026-04-18T12:04:57Z</time></trkpt><trkpt lat="45.78832159302428" lon="9.203088641651531"><ele>313.0</ele><time>2026-04-18T12:04:58Z</time></trkpt><trkpt lat="45.78844166995022" lon="9.203122908186655"><ele>313.0</ele><time>2026-04-18T12:04:59Z</time></trkpt><trkpt lat="45.78856151907337" lon="9.20315586742298"><ele>311.0</ele><time>2026-04-18T12:05:00Z</time></trkpt><trkpt lat="45.788680577792626" lon="9.203182585894162"><ele>309.0</ele><time>2026-04-18T12:05:01Z</time></trkpt><trkpt lat="45.78880441991345" lon="9.203193429146836"><ele>307.0</ele><time>2026-04-18T12:05:02Z</time></trkpt><trkpt lat="45.788925166786804" lon="9.203208395662283"><ele>305.0</ele><time>2026-04-18T12:05:03Z</time></trkpt><trkpt lat="45.78904434140108" lon="9.203219891183036"><ele>305.0</ele><time>2026-04-18T12:05:04Z</time></trkpt><trkpt lat="45.78916137214522" lon="9.20322867512432"><ele>305.0</ele><time>2026-04-18T12:05:05Z</time></trkpt><trkpt lat="45.78927562172691" lon="9.203235571629282"><ele>305.0</ele><time>2026-04-18T12:05:06Z</time></trkpt><trkpt lat="45.78938093519044" lon="9.20324457693939"><ele>305.0</ele><time>2026-04-18T12:05:07Z</time></trkpt><trkpt lat="45.78948197193958" lon="9.203256021689324"><ele>305.0</ele><time>2026-04-18T12:05:08Z</time></trkpt><trkpt lat="45.78957427103407" lon="9.20326941122868"><ele>306.8</ele><time>2026-04-18T12:05:09Z</time></trkpt><trkpt lat="45.7896671536394" lon="9.203297105949702"><ele>308.6</ele><time>2026-04-18T12:05:10Z</time></trkpt><trkpt lat="45.78974910934443" lon="9.20334229744594"><ele>310.4</ele><time>2026-04-18T12:05:11Z</time></trkpt><trkpt lat="45.78982833227015" lon="9.203395199973645"><ele>312.2</ele><time>2026-04-18T12:05:12Z</time></trkpt><trkpt lat="45.78991531860792" lon="9.203429983550077"><ele>314.0</ele><time>2026-04-18T12:05:13Z</time></trkpt><trkpt lat="45.79001353592006" lon="9.203438634296054"><ele>314.0</ele><time>2026-04-18T12:05:14Z</time></trkpt><trkpt lat="45.790113020070294" lon="9.20344070486356"><ele>314.0</ele><time>2026-04-18T12:05:15Z</time></trkpt><trkpt lat="45.79021048028578" lon="9.203460471335648"><ele>314.0</ele><time>2026-04-18T12:05:16Z</time></trkpt><trkpt lat="45.7903049617467" lon="9.203491765133291"><ele>314.0</ele><time>2026-04-18T12:05:17Z</time></trkpt><trkpt lat="45.790400086855804" lon="9.203518087676295"><ele>314.0</ele><time>2026-04-18T12:05:18Z</time></trkpt><trkpt lat="45.79047945458433" lon="9.203541936591762"><ele>315.0</ele><time>2026-04-18T12:05:19Z</time></trkpt><trkpt lat="45.79056849152802" lon="9.203576283265454"><ele>316.0</ele><time>2026-04-18T12:05:21Z</time></trkpt><trkpt lat="45.79060392039781" lon="9.20377115577828"><ele>317.0</ele><time>2026-04-18T12:05:27Z</time></trkpt><trkpt lat="45.790672667063916" lon="9.203923470267531"><ele>318.0</ele><time>2026-04-18T12:05:29Z</time></trkpt><trkpt lat="45.790719239910594" lon="9.203993508014207"><ele>319.0</ele><time>2026-04-18T12:05:30Z</time></trkpt><trkpt lat="45.79077784939849" lon="9.204061656602951"><ele>318.66666666666663</ele><time>2026-04-18T12:05:31Z</time></trkpt><trkpt lat="45.79082604162278" lon="9.20412763684648"><ele>318.3333333333333</ele><time>2026-04-18T12:05:32Z</time></trkpt><trkpt lat="45.790890681279755" lon="9.204211977831863"><ele>318.0</ele><time>2026-04-18T12:05:33Z</time></trkpt><trkpt lat="45.7909522354917" lon="9.204302665331056"><ele>317.6666666666667</ele><time>2026-04-18T12:05:34Z</time></trkpt><trkpt lat="45.79101245854856" lon="9.204396382996482"><ele>317.33333333333337</ele><time>2026-04-18T12:05:35Z</time></trkpt><trkpt lat="45.79107450692576" lon="9.204491397309965"><ele>317.0</ele><time>2026-04-18T12:05:36Z</time></trkpt><trkpt lat="45.79113514599987" lon="9.204584354744792"><ele>317.0</ele><time>2026-04-18T12:05:37Z</time></trkpt><trkpt lat="45.79119611015609" lon="9.204678261587805"><ele>317.0</ele><time>2026-04-18T12:05:38Z</time></trkpt><trkpt lat="45.79124877220569" lon="9.204761985325094"><ele>317.0</ele><time>2026-04-18T12:05:39Z</time></trkpt><trkpt lat="45.79129854929257" lon="9.204835410070986"><ele>317.0</ele><time>2026-04-18T12:05:40Z</time></trkpt><trkpt lat="45.79136811435264" lon="9.204892503126175"><ele>317.0</ele><time>2026-04-18T12:05:41Z</time></trkpt><trkpt lat="45.79143755404541" lon="9.204932721960017"><ele>317.0</ele><time>2026-04-18T12:05:42Z</time></trkpt><trkpt lat="45.791509245894375" lon="9.20496954178993"><ele>313.83333333333337</ele><time>2026-04-18T12:05:43Z</time></trkpt><trkpt lat="45.791583935311515" lon="9.204990350650299"><ele>310.6666666666667</ele><time>2026-04-18T12:05:44Z</time></trkpt><trkpt lat="45.79165539732809" lon="9.205012895724543"><ele>307.5</ele><time>2026-04-18T12:05:45Z</time></trkpt><trkpt lat="45.791732449694855" lon="9.205033789279927"><ele>304.3333333333333</ele><time>2026-04-18T12:05:46Z</time></trkpt><trkpt lat="45.79181407829051" lon="9.205051906016166"><ele>301.16666666666663</ele><time>2026-04-18T12:05:47Z</time></trkpt><trkpt lat="45.7918937505028" lon="9.20509299125399"><ele>298.0</ele><time>2026-04-18T12:05:48Z</time></trkpt><trkpt lat="45.79196864056308" lon="9.205157417922413"><ele>298.0</ele><time>2026-04-18T12:05:49Z</time></trkpt><trkpt lat="45.79204175334335" lon="9.205227383967538"><ele>298.0</ele><time>2026-04-18T12:05:50Z</time></trkpt><trkpt lat="45.79212645682932" lon="9.205296658629976"><ele>298.0</ele><time>2026-04-18T12:05:51Z</time></trkpt><trkpt lat="45.79221914737624" lon="9.205375092005498"><ele>298.0</ele><time>2026-04-18T12:05:52Z</time></trkpt><trkpt lat="45.79231808622004" lon="9.205463080085929"><ele>298.0</ele><time>2026-04-18T12:05:53Z</time></trkpt><trkpt lat="45.792405941618895" lon="9.205541099817452"><ele>298.0</ele><time>2026-04-18T12:05:54Z</time></trkpt><trkpt lat="45.792485001636074" lon="9.20560986673128"><ele>298.0</ele><time>2026-04-18T12:05:55Z</time></trkpt><trkpt lat="45.79255553663585" lon="9.205663740652199"><ele>298.0</ele><time>2026-04-18T12:05:56Z</time></trkpt><trkpt lat="45.792633551649246" lon="9.205692325559358"><ele>298.0</ele><time>2026-04-18T12:05:57Z</time></trkpt><trkpt lat="45.7927152681501" lon="9.205696946332784"><ele>298.0</ele><time>2026-04-18T12:05:58Z</time></trkpt><trkpt lat="45.79279535407967" lon="9.205692789562013"><ele>298.0</ele><time>2026-04-18T12:05:59Z</time></trkpt><trkpt lat="45.79287385636673" lon="9.20569377789857"><ele>295.8</ele><time>2026-04-18T12:06:00Z</time></trkpt><trkpt lat="45.792941420899275" lon="9.20571098494763"><ele>293.6</ele><time>2026-04-18T12:06:01Z</time></trkpt><trkpt lat="45.793029928295866" lon="9.205834805228783"><ele>291.4</ele><time>2026-04-18T12:06:03Z</time></trkpt><trkpt lat="45.79306135775447" lon="9.205944617844724"><ele>289.2</ele><time>2026-04-18T12:06:04Z</time></trkpt><trkpt lat="45.79308506753698" lon="9.206091963549584"><ele>287.0</ele><time>2026-04-18T12:06:05Z</time></trkpt><trkpt lat="45.79308432919606" lon="9.206299131412532"><ele>287.0</ele><time>2026-04-18T12:06:06Z</time></trkpt><trkpt lat="45.793076258073704" lon="9.206451855974386"><ele>287.0</ele><time>2026-04-18T12:06:07Z</time></trkpt><trkpt lat="45.793072207538344" lon="9.206577448541996"><ele>287.0</ele><time>2026-04-18T12:06:08Z</time></trkpt><trkpt lat="45.793071141744996" lon="9.206677047469148"><ele>287.0</ele><time>2026-04-18T12:06:09Z</time></trkpt><trkpt lat="45.79305497246635" lon="9.206777800757163"><ele>287.0</ele><time>2026-04-18T12:06:11Z</time></trkpt><trkpt lat="45.79313878085344" lon="9.206887696734507"><ele>285.75</ele><time>2026-04-18T12:06:17Z</time></trkpt><trkpt lat="45.793241981281284" lon="9.20693112566801"><ele>284.5</ele><time>2026-04-18T12:06:18Z</time></trkpt><trkpt lat="45.7933430732009" lon="9.206979978218245"><ele>283.25</ele><time>2026-04-18T12:06:19Z</time></trkpt><trkpt lat="45.79346053604822" lon="9.207041169120044"><ele>282.0</ele><time>2026-04-18T12:06:20Z</time></trkpt><trkpt lat="45.79359578430858" lon="9.207116239384549"><ele>282.0</ele><time>2026-04-18T12:06:21Z</time></trkpt><trkpt lat="45.793735391928" lon="9.20719574362027"><ele>282.0</ele><time>2026-04-18T12:06:22Z</time></trkpt><trkpt lat="45.79386878885204" lon="9.20727053951286"><ele>282.0</ele><time>2026-04-18T12:06:23Z</time></trkpt><trkpt lat="45.7939919793903" lon="9.207346556076422"><ele>282.0</ele><time>2026-04-18T12:06:24Z</time></trkpt><trkpt lat="45.79411858452637" lon="9.207425630441453"><ele>281.0</ele><time>2026-04-18T12:06:25Z</time></trkpt><trkpt lat="45.79425169177137" lon="9.207502599702494"><ele>280.0</ele><time>2026-04-18T12:06:26Z</time></trkpt><trkpt lat="45.794384702438705" lon="9.207587221977404"><ele>279.0</ele><time>2026-04-18T12:06:27Z</time></trkpt><trkpt lat="45.794529548376886" lon="9.207677347939423"><ele>278.0</ele><time>2026-04-18T12:06:28Z</time></trkpt><trkpt lat="45.794680212066176" lon="9.207772496278903"><ele>278.0</ele><time>2026-04-18T12:06:29Z</time></trkpt><trkpt lat="45.79484749192132" lon="9.207868356565998"><ele>278.0</ele><time>2026-04-18T12:06:30Z</time></trkpt><trkpt lat="45.795029701776436" lon="9.207986700463461"><ele>278.0</ele><time>2026-04-18T12:06:31Z</time></trkpt><trkpt lat="45.79522759555686" lon="9.208130522689547"><ele>276.0</ele><time>2026-04-18T12:06:32Z</time></trkpt><trkpt lat="45.79542709221689" lon="9.20829644468704"><ele>274.0</ele><time>2026-04-18T12:06:33Z</time></trkpt><trkpt lat="45.795636473182526" lon="9.208490914175783"><ele>274.0</ele><time>2026-04-18T12:06:34Z</time></trkpt><trkpt lat="45.795867472501804" lon="9.20869902656248"><ele>274.0</ele><time>2026-04-18T12:06:35Z</time></trkpt><trkpt lat="45.796112747231916" lon="9.208922940929217"><ele>273.5</ele><time>2026-04-18T12:06:36Z</time></trkpt><trkpt lat="45.79631532423491" lon="9.209109173132665"><ele>273.0</ele><time>2026-04-18T12:06:37Z</time></trkpt><trkpt lat="45.79650340753343" lon="9.209276945574716"><ele>273.0</ele><time>2026-04-18T12:06:38Z</time></trkpt><trkpt lat="45.79667649434803" lon="9.209431283833883"><ele>273.0</ele><time>2026-04-18T12:06:39Z</time></trkpt><trkpt lat="45.79683330978401" lon="9.209573293980363"><ele>273.0</ele><time>2026-04-18T12:06:40Z</time></trkpt><trkpt lat="45.796990390615456" lon="9.209714633905104"><ele>272.3333333333333</ele><time>2026-04-18T12:06:41Z</time></trkpt><trkpt lat="45.79717283375895" lon="9.209874285850947"><ele>271.66666666666663</ele><time>2026-04-18T12:06:42Z</time></trkpt><trkpt lat="45.797358674556506" lon="9.210031245029725"><ele>271.0</ele><time>2026-04-18T12:06:43Z</time></trkpt><trkpt lat="45.79752569890824" lon="9.210180210130105"><ele>271.0</ele><time>2026-04-18T12:06:44Z</time></trkpt><trkpt lat="45.79766416285288" lon="9.210303267558201"><ele>271.0</ele><time>2026-04-18T12:06:45Z</time></trkpt><trkpt lat="45.797799123552544" lon="9.21042450950078"><ele>271.0</ele><time>2026-04-18T12:06:46Z</time></trkpt><trkpt lat="45.79793790481621" lon="9.210544235717876"><ele>270.66666666666663</ele><time>2026-04-18T12:06:47Z</time></trkpt><trkpt lat="45.7980705054348" lon="9.210665497842323"><ele>270.3333333333333</ele><time>2026-04-18T12:06:48Z</time></trkpt><trkpt lat="45.79820587697533" lon="9.210783567302512"><ele>270.0</ele><time>2026-04-18T12:06:49Z</time></trkpt><trkpt lat="45.79833263087943" lon="9.210893551246848"><ele>270.0</ele><time>2026-04-18T12:06:50Z</time></trkpt><trkpt lat="45.79845517225809" lon="9.211009741248956"><ele>270.0</ele><time>2026-04-18T12:06:51Z</time></trkpt><trkpt lat="45.798569763231455" lon="9.21113592988748"><ele>270.0</ele><time>2026-04-18T12:06:52Z</time></trkpt><trkpt lat="45.7986627618437" lon="9.211265515964332"><ele>270.0</ele><time>2026-04-18T12:06:53Z</time></trkpt><trkpt lat="45.79874360486131" lon="9.211391834414934"><ele>269.25</ele><time>2026-04-18T12:06:54Z</time></trkpt><trkpt lat="45.79881441978613" lon="9.21151271678"><ele>268.5</ele><time>2026-04-18T12:06:55Z</time></trkpt><trkpt lat="45.79887530007748" lon="9.211636512932444"><ele>267.75</ele><time>2026-04-18T12:06:56Z</time></trkpt><trkpt lat="45.79894701790555" lon="9.211775745810556"><ele>267.0</ele><time>2026-04-18T12:06:57Z</time></trkpt><trkpt lat="45.7990264147289" lon="9.211933278597822"><ele>267.0</ele><time>2026-04-18T12:06:58Z</time></trkpt><trkpt lat="45.7991147025231" lon="9.212094847686405"><ele>267.0</ele><time>2026-04-18T12:06:59Z</time></trkpt><trkpt lat="45.799224182935944" lon="9.212260922798242"><ele>267.0</ele><time>2026-04-18T12:07:00Z</time></trkpt><trkpt lat="45.79935568467604" lon="9.212429938647142"><ele>266.6666666666667</ele><time>2026-04-18T12:07:01Z</time></trkpt><trkpt lat="45.79951329247906" lon="9.212605707900888"><ele>266.33333333333337</ele><time>2026-04-18T12:07:02Z</time></trkpt><trkpt lat="45.79969781490823" lon="9.21279856872084"><ele>266.0</ele><time>2026-04-18T12:07:03Z</time></trkpt><trkpt lat="45.7998488096414" lon="9.212947224113423"><ele>266.0</ele><time>2026-04-18T12:07:04Z</time></trkpt><trkpt lat="45.799977764296656" lon="9.213078048764023"><ele>266.0</ele><time>2026-04-18T12:07:05Z</time></trkpt><trkpt lat="45.800095951558006" lon="9.213199545245068"><ele>266.0</ele><time>2026-04-18T12:07:06Z</time></trkpt><trkpt lat="45.80021423873302" lon="9.21332253621027"><ele>266.0</ele><time>2026-04-18T12:07:07Z</time></trkpt><trkpt lat="45.80034063709622" lon="9.213450558903745"><ele>266.0</ele><time>2026-04-18T12:07:08Z</time></trkpt><trkpt lat="45.800463496262786" lon="9.213574522587692"><ele>266.0</ele><time>2026-04-18T12:07:09Z</time></trkpt><trkpt lat="45.80057412732169" lon="9.213693936204313"><ele>266.0</ele><time>2026-04-18T12:07:10Z</time></trkpt><trkpt lat="45.800686493198405" lon="9.213811278823568"><ele>266.0</ele><time>2026-04-18T12:07:11Z</time></trkpt><trkpt lat="45.80079552878558" lon="9.213919164372703"><ele>266.0</ele><time>2026-04-18T12:07:12Z</time></trkpt><trkpt lat="45.800909631878405" lon="9.214020225276498"><ele>266.0</ele><time>2026-04-18T12:07:13Z</time></trkpt><trkpt lat="45.801027943130734" lon="9.214098470354443"><ele>266.0</ele><time>2026-04-18T12:07:14Z</time></trkpt><trkpt lat="45.80115480714938" lon="9.214162730688876"><ele>266.0</ele><time>2026-04-18T12:07:15Z</time></trkpt><trkpt lat="45.801278563317005" lon="9.214226115950195"><ele>267.25</ele><time>2026-04-18T12:07:16Z</time></trkpt><trkpt lat="45.80139402542223" lon="9.214305601509082"><ele>268.5</ele><time>2026-04-18T12:07:17Z</time></trkpt><trkpt lat="45.801506326766415" lon="9.214395523938002"><ele>269.75</ele><time>2026-04-18T12:07:18Z</time></trkpt><trkpt lat="45.801613552267014" lon="9.214489377105977"><ele>271.0</ele><time>2026-04-18T12:07:19Z</time></trkpt><trkpt lat="45.801718802265675" lon="9.214592434227521"><ele>271.0</ele><time>2026-04-18T12:07:20Z</time></trkpt><trkpt lat="45.80182223502968" lon="9.21470170010606"><ele>271.0</ele><time>2026-04-18T12:07:21Z</time></trkpt><trkpt lat="45.80193243803531" lon="9.214815458529213"><ele>271.0</ele><time>2026-04-18T12:07:22Z</time></trkpt><trkpt lat="45.802039862431336" lon="9.214927956277265"><ele>271.0</ele><time>2026-04-18T12:07:23Z</time></trkpt><trkpt lat="45.80214890130728" lon="9.215038297682073"><ele>271.75</ele><time>2026-04-18T12:07:24Z</time></trkpt><trkpt lat="45.80225569297648" lon="9.21514995111344"><ele>272.5</ele><time>2026-04-18T12:07:25Z</time></trkpt><trkpt lat="45.802364753944595" lon="9.215257583304505"><ele>273.25</ele><time>2026-04-18T12:07:26Z</time></trkpt><trkpt lat="45.802472507870945" lon="9.215367477870474"><ele>274.0</ele><time>2026-04-18T12:07:27Z</time></trkpt><trkpt lat="45.8025714741297" lon="9.21546751991336"><ele>274.0</ele><time>2026-04-18T12:07:28Z</time></trkpt><trkpt lat="45.802654938222304" lon="9.215554894212952"><ele>274.0</ele><time>2026-04-18T12:07:29Z</time></trkpt><trkpt lat="45.80273272670864" lon="9.215630823433623"><ele>274.0</ele><time>2026-04-18T12:07:30Z</time></trkpt><trkpt lat="45.802801978970706" lon="9.21570060324851"><ele>274.0</ele><time>2026-04-18T12:07:31Z</time></trkpt><trkpt lat="45.80286026646993" lon="9.21576864882109"><ele>274.0</ele><time>2026-04-18T12:07:32Z</time></trkpt><trkpt lat="45.802913358717525" lon="9.215828273112512"><ele>274.0</ele><time>2026-04-18T12:07:33Z</time></trkpt><trkpt lat="45.80296410272399" lon="9.21588299940204"><ele>274.4</ele><time>2026-04-18T12:07:34Z</time></trkpt><trkpt lat="45.803046193740904" lon="9.21596177299021"><ele>274.79999999999995</ele><time>2026-04-18T12:07:36Z</time></trkpt><trkpt lat="45.80311891416848" lon="9.21603397412952"><ele>275.20000000000005</ele><time>2026-04-18T12:07:39Z</time></trkpt><trkpt lat="45.803206964302994" lon="9.21612742617277"><ele>275.6</ele><time>2026-04-18T12:07:41Z</time></trkpt><trkpt lat="45.80328490339484" lon="9.216194744810705"><ele>276.0</ele><time>2026-04-18T12:07:42Z</time></trkpt><trkpt lat="45.803374971418975" lon="9.216279280371946"><ele>276.0</ele><time>2026-04-18T12:07:43Z</time></trkpt><trkpt lat="45.80348195855003" lon="9.21639692812965"><ele>276.0</ele><time>2026-04-18T12:07:44Z</time></trkpt><trkpt lat="45.80360617726304" lon="9.216520486990465"><ele>276.0</ele><time>2026-04-18T12:07:45Z</time></trkpt><trkpt lat="45.80373885375798" lon="9.216656365331595"><ele>276.0</ele><time>2026-04-18T12:07:46Z</time></trkpt><trkpt lat="45.80384110489385" lon="9.2167766141137"><ele>276.8</ele><time>2026-04-18T12:07:47Z</time></trkpt><trkpt lat="45.80394566915131" lon="9.216859724137503"><ele>277.6</ele><time>2026-04-18T12:07:48Z</time></trkpt><trkpt lat="45.80401011627671" lon="9.216950656328178"><ele>278.4</ele><time>2026-04-18T12:07:49Z</time></trkpt><trkpt lat="45.804074417676176" lon="9.2170333255721"><ele>279.2</ele><time>2026-04-18T12:07:50Z</time></trkpt><trkpt lat="45.80414486529201" lon="9.217146898078573"><ele>280.0</ele><time>2026-04-18T12:07:52Z</time></trkpt><trkpt lat="45.8041976931592" lon="9.217240928112068"><ele>280.0</ele><time>2026-04-18T12:07:54Z</time></trkpt><trkpt lat="45.80424492016442" lon="9.217308285613697"><ele>280.0</ele><time>2026-04-18T12:07:57Z</time></trkpt><trkpt lat="45.80425071377575" lon="9.217518328703836"><ele>280.0</ele><time>2026-04-18T12:07:59Z</time></trkpt><trkpt lat="45.804261418861905" lon="9.217691510172454"><ele>280.0</ele><time>2026-04-18T12:08:00Z</time></trkpt><trkpt lat="45.80426450525416" lon="9.217858344332724"><ele>280.0</ele><time>2026-04-18T12:08:01Z</time></trkpt><trkpt lat="45.80424993945522" lon="9.218045945927859"><ele>280.0</ele><time>2026-04-18T12:08:02Z</time></trkpt><trkpt lat="45.804213991031716" lon="9.218259345679579"><ele>280.0</ele><time>2026-04-18T12:08:03Z</time></trkpt><trkpt lat="45.8041476424608" lon="9.218521834530648"><ele>279.5</ele><time>2026-04-18T12:08:04Z</time></trkpt><trkpt lat="45.80407528211554" lon="9.218826871742847"><ele>279.0</ele><time>2026-04-18T12:08:05Z</time></trkpt><trkpt lat="45.80399533695338" lon="9.219180278325421"><ele>279.0</ele><time>2026-04-18T12:08:06Z</time></trkpt><trkpt lat="45.80393191950223" lon="9.219474246968252"><ele>279.0</ele><time>2026-04-18T12:08:07Z</time></trkpt><trkpt lat="45.803873344643144" lon="9.21974221243745"><ele>279.0</ele><time>2026-04-18T12:08:08Z</time></trkpt><trkpt lat="45.80382090421" lon="9.219974029478314"><ele>278.25</ele><time>2026-04-18T12:08:09Z</time></trkpt><trkpt lat="45.80377346925563" lon="9.220188758243609"><ele>277.5</ele><time>2026-04-18T12:08:10Z</time></trkpt><trkpt lat="45.80372818519674" lon="9.220384277808085"><ele>276.75</ele><time>2026-04-18T12:08:11Z</time></trkpt><trkpt lat="45.80368858736577" lon="9.220565164956222"><ele>276.0</ele><time>2026-04-18T12:08:12Z</time></trkpt><trkpt lat="45.80364733250666" lon="9.220742455039806"><ele>275.25</ele><time>2026-04-18T12:08:13Z</time></trkpt><trkpt lat="45.80360955582584" lon="9.220925407908826"><ele>274.5</ele><time>2026-04-18T12:08:14Z</time></trkpt><trkpt lat="45.80357168947478" lon="9.221108174437658"><ele>273.75</ele><time>2026-04-18T12:08:15Z</time></trkpt><trkpt lat="45.80353889137607" lon="9.221299898128692"><ele>273.0</ele><time>2026-04-18T12:08:16Z</time></trkpt><trkpt lat="45.80350411224725" lon="9.22149054829817"><ele>272.6666666666667</ele><time>2026-04-18T12:08:17Z</time></trkpt><trkpt lat="45.80347485250278" lon="9.22168999501459"><ele>272.33333333333337</ele><time>2026-04-18T12:08:18Z</time></trkpt><trkpt lat="45.80345418340665" lon="9.221912902390388"><ele>272.0</ele><time>2026-04-18T12:08:19Z</time></trkpt><trkpt lat="45.80342680976057" lon="9.22216008858444"><ele>272.33333333333337</ele><time>2026-04-18T12:08:20Z</time></trkpt><trkpt lat="45.803402313580115" lon="9.22241401301529"><ele>272.6666666666667</ele><time>2026-04-18T12:08:21Z</time></trkpt><trkpt lat="45.803389771534206" lon="9.222637887307863"><ele>273.0</ele><time>2026-04-18T12:08:22Z</time></trkpt><trkpt lat="45.8033781573121" lon="9.222828569787128"><ele>273.0</ele><time>2026-04-18T12:08:23Z</time></trkpt><trkpt lat="45.80337443633866" lon="9.22300439896175"><ele>273.0</ele><time>2026-04-18T12:08:24Z</time></trkpt><trkpt lat="45.80336910462628" lon="9.223162672623998"><ele>273.0</ele><time>2026-04-18T12:08:25Z</time></trkpt><trkpt lat="45.80336574179878" lon="9.223311278513064"><ele>273.0</ele><time>2026-04-18T12:08:26Z</time></trkpt><trkpt lat="45.803368199895694" lon="9.223443912437244"><ele>273.0</ele><time>2026-04-18T12:08:27Z</time></trkpt><trkpt lat="45.80336556728111" lon="9.223584860280756"><ele>272.8</ele><time>2026-04-18T12:08:29Z</time></trkpt><trkpt lat="45.803318858544955" lon="9.223719535907305"><ele>272.6</ele><time>2026-04-18T12:08:32Z</time></trkpt><trkpt lat="45.80327174106131" lon="9.223873537627082"><ele>272.4</ele><time>2026-04-18T12:08:34Z</time></trkpt><trkpt lat="45.80327800657853" lon="9.223980777110864"><ele>272.2</ele><time>2026-04-18T12:08:35Z</time></trkpt><trkpt lat="45.803310985727485" lon="9.224089814540312"><ele>272.0</ele><time>2026-04-18T12:08:36Z</time></trkpt><trkpt lat="45.8033692124262" lon="9.224222210027312"><ele>272.0</ele><time>2026-04-18T12:08:37Z</time></trkpt><trkpt lat="45.80341892850035" lon="9.224370875246201"><ele>272.0</ele><time>2026-04-18T12:08:38Z</time></trkpt><trkpt lat="45.803447613263735" lon="9.224553273200193"><ele>272.0</ele><time>2026-04-18T12:08:39Z</time></trkpt><trkpt lat="45.80346797571446" lon="9.224801192781664"><ele>272.0</ele><time>2026-04-18T12:08:40Z</time></trkpt><trkpt lat="45.80349791322062" lon="9.225110504040087"><ele>272.0</ele><time>2026-04-18T12:08:41Z</time></trkpt><trkpt lat="45.80353676887723" lon="9.225433190677284"><ele>272.0</ele><time>2026-04-18T12:08:42Z</time></trkpt><trkpt lat="45.803581870505674" lon="9.225711493165367"><ele>272.0</ele><time>2026-04-18T12:08:43Z</time></trkpt><trkpt lat="45.80362685058413" lon="9.225948801662055"><ele>272.0</ele><time>2026-04-18T12:08:44Z</time></trkpt><trkpt lat="45.80366850850439" lon="9.226156472209514"><ele>272.0</ele><time>2026-04-18T12:08:45Z</time></trkpt><trkpt lat="45.803711275941026" lon="9.226348784382221"><ele>272.0</ele><time>2026-04-18T12:08:46Z</time></trkpt><trkpt lat="45.80375644760609" lon="9.226545411973845"><ele>272.0</ele><time>2026-04-18T12:08:47Z</time></trkpt><trkpt lat="45.80380464644308" lon="9.2267556925277"><ele>272.0</ele><time>2026-04-18T12:08:48Z</time></trkpt><trkpt lat="45.80385189537673" lon="9.226973236408874"><ele>272.0</ele><time>2026-04-18T12:08:49Z</time></trkpt><trkpt lat="45.803912801134885" lon="9.227251508544073"><ele>272.0</ele><time>2026-04-18T12:08:50Z</time></trkpt><trkpt lat="45.80398575875236" lon="9.227601926400988"><ele>272.0</ele><time>2026-04-18T12:08:51Z</time></trkpt><trkpt lat="45.80406429904016" lon="9.227972742354009"><ele>272.0</ele><time>2026-04-18T12:08:52Z</time></trkpt><trkpt lat="45.80414536342118" lon="9.228377301003317"><ele>272.5</ele><time>2026-04-18T12:08:53Z</time></trkpt><trkpt lat="45.80421445133243" lon="9.228735476807305"><ele>273.0</ele><time>2026-04-18T12:08:54Z</time></trkpt><trkpt lat="45.80428120445167" lon="9.229061113135334"><ele>273.5</ele><time>2026-04-18T12:08:55Z</time></trkpt><trkpt lat="45.80435078336047" lon="9.229396965850674"><ele>274.0</ele><time>2026-04-18T12:08:56Z</time></trkpt><trkpt lat="45.804424039862546" lon="9.229742560305363"><ele>275.0</ele><time>2026-04-18T12:08:57Z</time></trkpt><trkpt lat="45.804502294914975" lon="9.230118298934942"><ele>276.0</ele><time>2026-04-18T12:08:58Z</time></trkpt><trkpt lat="45.804582286454774" lon="9.230484538563612"><ele>276.0</ele><time>2026-04-18T12:08:59Z</time></trkpt><trkpt lat="45.804643124533406" lon="9.23079422947599"><ele>276.0</ele><time>2026-04-18T12:09:00Z</time></trkpt><trkpt lat="45.80469699174166" lon="9.231069792348773"><ele>276.0</ele><time>2026-04-18T12:09:01Z</time></trkpt><trkpt lat="45.80474967257313" lon="9.231330591972217"><ele>276.0</ele><time>2026-04-18T12:09:02Z</time></trkpt><trkpt lat="45.80480162604898" lon="9.231582266666026"><ele>276.0</ele><time>2026-04-18T12:09:03Z</time></trkpt><trkpt lat="45.80485338705929" lon="9.231824086309429"><ele>276.0</ele><time>2026-04-18T12:09:04Z</time></trkpt><trkpt lat="45.80490518743284" lon="9.23206041886334"><ele>276.0</ele><time>2026-04-18T12:09:05Z</time></trkpt><trkpt lat="45.80495367875962" lon="9.232282524732794"><ele>276.0</ele><time>2026-04-18T12:09:06Z</time></trkpt><trkpt lat="45.80499641998281" lon="9.232486746052327"><ele>276.0</ele><time>2026-04-18T12:09:07Z</time></trkpt><trkpt lat="45.80503828175386" lon="9.232675090915436"><ele>276.0</ele><time>2026-04-18T12:09:08Z</time></trkpt><trkpt lat="45.805074256090286" lon="9.232873526082404"><ele>276.25</ele><time>2026-04-18T12:09:09Z</time></trkpt><trkpt lat="45.80511278262695" lon="9.233067137349437"><ele>276.5</ele><time>2026-04-18T12:09:10Z</time></trkpt><trkpt lat="45.80514616031422" lon="9.233254793708824"><ele>276.75</ele><time>2026-04-18T12:09:11Z</time></trkpt><trkpt lat="45.80517828694728" lon="9.23343217351015"><ele>277.0</ele><time>2026-04-18T12:09:12Z</time></trkpt><trkpt lat="45.805210611888036" lon="9.233594000343018"><ele>277.6</ele><time>2026-04-18T12:09:13Z</time></trkpt><trkpt lat="45.80523838710163" lon="9.233741815117954"><ele>278.2</ele><time>2026-04-18T12:09:14Z</time></trkpt><trkpt lat="45.80526381781565" lon="9.233898845536016"><ele>278.8</ele><time>2026-04-18T12:09:15Z</time></trkpt><trkpt lat="45.80527687214618" lon="9.234027974194378"><ele>279.4</ele><time>2026-04-18T12:09:16Z</time></trkpt><trkpt lat="45.805276713720616" lon="9.234143891546207"><ele>280.0</ele><time>2026-04-18T12:09:17Z</time></trkpt><trkpt lat="45.8052605778604" lon="9.234248278949947"><ele>280.0</ele><time>2026-04-18T12:09:18Z</time></trkpt><trkpt lat="45.805228937050245" lon="9.234339195467998"><ele>280.0</ele><time>2026-04-18T12:09:19Z</time></trkpt><trkpt lat="45.805177100953614" lon="9.234486777521976"><ele>280.0</ele><time>2026-04-18T12:09:21Z</time></trkpt><trkpt lat="45.805245109146085" lon="9.234599251880285"><ele>280.0</ele><time>2026-04-18T12:09:23Z</time></trkpt><trkpt lat="45.80530735755287" lon="9.234627294879074"><ele>280.0</ele><time>2026-04-18T12:09:24Z</time></trkpt><trkpt lat="45.80538348190351" lon="9.234616809634979"><ele>280.0</ele><time>2026-04-18T12:09:25Z</time></trkpt><trkpt lat="45.805470016178326" lon="9.234566469615242"><ele>280.0</ele><time>2026-04-18T12:09:26Z</time></trkpt><trkpt lat="45.80558219970954" lon="9.234498728956638"><ele>280.0</ele><time>2026-04-18T12:09:27Z</time></trkpt><trkpt lat="45.80572126555886" lon="9.234426180939959"><ele>280.0</ele><time>2026-04-18T12:09:28Z</time></trkpt><trkpt lat="45.80589593783405" lon="9.23436280982879"><ele>279.3333333333333</ele><time>2026-04-18T12:09:29Z</time></trkpt><trkpt lat="45.80608764579037" lon="9.234311632711973"><ele>278.6666666666667</ele><time>2026-04-18T12:09:30Z</time></trkpt><trkpt lat="45.80625279829186" lon="9.234274452099159"><ele>278.0</ele><time>2026-04-18T12:09:31Z</time></trkpt><trkpt lat="45.80639866427457" lon="9.234249521106468"><ele>278.0</ele><time>2026-04-18T12:09:32Z</time></trkpt><trkpt lat="45.8065249671379" lon="9.2342410185882"><ele>278.0</ele><time>2026-04-18T12:09:33Z</time></trkpt><trkpt lat="45.80664316737248" lon="9.234230197231307"><ele>278.0</ele><time>2026-04-18T12:09:34Z</time></trkpt><trkpt lat="45.80674848782567" lon="9.234220302193524"><ele>278.0</ele><time>2026-04-18T12:09:35Z</time></trkpt><trkpt lat="45.806839453380455" lon="9.234210614525255"><ele>278.0</ele><time>2026-04-18T12:09:36Z</time></trkpt><trkpt lat="45.80691681684481" lon="9.234207467419882"><ele>278.25</ele><time>2026-04-18T12:09:37Z</time></trkpt><trkpt lat="45.807012810626375" lon="9.234197287463603"><ele>278.5</ele><time>2026-04-18T12:09:38Z</time></trkpt><trkpt lat="45.80711927332139" lon="9.234182774685964"><ele>278.75</ele><time>2026-04-18T12:09:39Z</time></trkpt><trkpt lat="45.80724319554335" lon="9.23416820328569"><ele>279.0</ele><time>2026-04-18T12:09:40Z</time></trkpt><trkpt lat="45.807390493034546" lon="9.234153247171076"><ele>279.0</ele><time>2026-04-18T12:09:41Z</time></trkpt><trkpt lat="45.807555108553636" lon="9.23413594545725"><ele>279.0</ele><time>2026-04-18T12:09:42Z</time></trkpt><trkpt lat="45.80771805522955" lon="9.234117257858998"><ele>279.0</ele><time>2026-04-18T12:09:43Z</time></trkpt><trkpt lat="45.80786146028385" lon="9.234099275890015"><ele>279.2</ele><time>2026-04-18T12:09:44Z</time></trkpt><trkpt lat="45.80798459021491" lon="9.23408636535625"><ele>279.4</ele><time>2026-04-18T12:09:45Z</time></trkpt><trkpt lat="45.808097059246585" lon="9.23407158757631"><ele>279.6</ele><time>2026-04-18T12:09:46Z</time></trkpt><trkpt lat="45.80819829802987" lon="9.234068252277249"><ele>279.8</ele><time>2026-04-18T12:09:47Z</time></trkpt><trkpt lat="45.808301695188945" lon="9.234051892227697"><ele>280.0</ele><time>2026-04-18T12:09:48Z</time></trkpt><trkpt lat="45.80841499670877" lon="9.234036201200963"><ele>280.2</ele><time>2026-04-18T12:09:49Z</time></trkpt><trkpt lat="45.80853566558845" lon="9.234017635389886"><ele>280.4</ele><time>2026-04-18T12:09:50Z</time></trkpt><trkpt lat="45.80864496432837" lon="9.234004618185033"><ele>280.6</ele><time>2026-04-18T12:09:51Z</time></trkpt><trkpt lat="45.80874500148551" lon="9.233986746089197"><ele>280.8</ele><time>2026-04-18T12:09:52Z</time></trkpt><trkpt lat="45.80884635613374" lon="9.233973503848922"><ele>281.0</ele><time>2026-04-18T12:09:53Z</time></trkpt><trkpt lat="45.8089536355673" lon="9.233949783727095"><ele>281.2</ele><time>2026-04-18T12:09:54Z</time></trkpt><trkpt lat="45.809087282824265" lon="9.233913915442637"><ele>281.40000000000003</ele><time>2026-04-18T12:09:55Z</time></trkpt><trkpt lat="45.80920455945971" lon="9.233898620133118"><ele>281.6</ele><time>2026-04-18T12:09:56Z</time></trkpt><trkpt lat="45.809304143277195" lon="9.233874583770216"><ele>281.8</ele><time>2026-04-18T12:09:57Z</time></trkpt><trkpt lat="45.809393247021" lon="9.233857171693236"><ele>282.0</ele><time>2026-04-18T12:09:58Z</time></trkpt><trkpt lat="45.809486885408525" lon="9.233834648675236"><ele>282.1666666666667</ele><time>2026-04-18T12:09:59Z</time></trkpt><trkpt lat="45.80956655301748" lon="9.233817507444801"><ele>282.3333333333333</ele><time>2026-04-18T12:10:00Z</time></trkpt><trkpt lat="45.809640823842614" lon="9.23379215055818"><ele>282.5</ele><time>2026-04-18T12:10:01Z</time></trkpt><trkpt lat="45.80975625893611" lon="9.233774655298449"><ele>282.66666666666663</ele><time>2026-04-18T12:10:03Z</time></trkpt><trkpt lat="45.8098187493256" lon="9.233793836250138"><ele>282.8333333333333</ele><time>2026-04-18T12:10:05Z</time></trkpt><trkpt lat="45.80986336001342" lon="9.233864525044439"><ele>283.0</ele><time>2026-04-18T12:10:09Z</time></trkpt><trkpt lat="45.80992461503898" lon="9.233991283943757"><ele>282.8333333333333</ele><time>2026-04-18T12:10:11Z</time></trkpt><trkpt lat="45.80998996613708" lon="9.234089900979296"><ele>282.66666666666663</ele><time>2026-04-18T12:10:13Z</time></trkpt><trkpt lat="45.81005343573312" lon="9.234124488302003"><ele>282.5</ele><time>2026-04-18T12:10:14Z</time></trkpt><trkpt lat="45.81012084834559" lon="9.234169089689365"><ele>282.3333333333333</ele><time>2026-04-18T12:10:15Z</time></trkpt><trkpt lat="45.810181399643064" lon="9.234240562421384"><ele>282.1666666666667</ele><time>2026-04-18T12:10:16Z</time></trkpt><trkpt lat="45.81021755420371" lon="9.234330365434898"><ele>282.0</ele><time>2026-04-18T12:10:17Z</time></trkpt><trkpt lat="45.810231413474675" lon="9.23444010355804"><ele>282.0</ele><time>2026-04-18T12:10:18Z</time></trkpt><trkpt lat="45.810218726924795" lon="9.23455576110129"><ele>282.0</ele><time>2026-04-18T12:10:19Z</time></trkpt><trkpt lat="45.81021027578812" lon="9.234674530275422"><ele>282.0</ele><time>2026-04-18T12:10:20Z</time></trkpt><trkpt lat="45.81020302125447" lon="9.23478933446974"><ele>282.0</ele><time>2026-04-18T12:10:21Z</time></trkpt><trkpt lat="45.8102001895584" lon="9.23490918090903"><ele>282.0</ele><time>2026-04-18T12:10:22Z</time></trkpt><trkpt lat="45.81019722661242" lon="9.23501298036546"><ele>282.0</ele><time>2026-04-18T12:10:23Z</time></trkpt><trkpt lat="45.81019819335154" lon="9.235186855278263"><ele>282.0</ele><time>2026-04-18T12:10:25Z</time></trkpt><trkpt lat="45.81020000700062" lon="9.235280826746413"><ele>282.0</ele><time>2026-04-18T12:10:26Z</time></trkpt><trkpt lat="45.81019942832581" lon="9.235372865886962"><ele>282.0</ele><time>2026-04-18T12:10:27Z</time></trkpt><trkpt lat="45.810197553486624" lon="9.235470087190665"><ele>282.0</ele><time>2026-04-18T12:10:28Z</time></trkpt><trkpt lat="45.81019657835072" lon="9.235566141284346"><ele>282.0</ele><time>2026-04-18T12:10:29Z</time></trkpt><trkpt lat="45.81020026746558" lon="9.235742641811772"><ele>282.0</ele><time>2026-04-18T12:10:31Z</time></trkpt><trkpt lat="45.81021636453482" lon="9.235901735523559"><ele>282.3333333333333</ele><time>2026-04-18T12:10:33Z</time></trkpt><trkpt lat="45.810264627028914" lon="9.236062784424544"><ele>282.6666666666667</ele><time>2026-04-18T12:10:35Z</time></trkpt><trkpt lat="45.81032882561835" lon="9.236080288551518"><ele>283.0</ele><time>2026-04-18T12:10:36Z</time></trkpt><trkpt lat="45.81039018548191" lon="9.236053593530483"><ele>283.33333333333337</ele><time>2026-04-18T12:10:37Z</time></trkpt><trkpt lat="45.81046468900823" lon="9.236005072109524"><ele>283.6666666666667</ele><time>2026-04-18T12:10:38Z</time></trkpt><trkpt lat="45.81056570109067" lon="9.235997115384658"><ele>284.0</ele><time>2026-04-18T12:10:39Z</time></trkpt><trkpt lat="45.81070146350825" lon="9.236028754078768"><ele>284.0</ele><time>2026-04-18T12:10:40Z</time></trkpt><trkpt lat="45.810893122912994" lon="9.236079339098492"><ele>284.0</ele><time>2026-04-18T12:10:41Z</time></trkpt><trkpt lat="45.81110892409097" lon="9.236126306432528"><ele>284.0</ele><time>2026-04-18T12:10:42Z</time></trkpt><trkpt lat="45.81126707880987" lon="9.23616577214735"><ele>285.25</ele><time>2026-04-18T12:10:43Z</time></trkpt><trkpt lat="45.81139348538407" lon="9.236192804144194"><ele>286.5</ele><time>2026-04-18T12:10:44Z</time></trkpt><trkpt lat="45.81150098495442" lon="9.236217514021321"><ele>287.75</ele><time>2026-04-18T12:10:45Z</time></trkpt><trkpt lat="45.81159879888064" lon="9.236231199692329"><ele>289.0</ele><time>2026-04-18T12:10:46Z</time></trkpt><trkpt lat="45.811717118717716" lon="9.23625569132073"><ele>288.5</ele><time>2026-04-18T12:10:47Z</time></trkpt><trkpt lat="45.81185215794868" lon="9.236281078274116"><ele>288.0</ele><time>2026-04-18T12:10:48Z</time></trkpt><trkpt lat="45.811983261261744" lon="9.23631316390343"><ele>287.5</ele><time>2026-04-18T12:10:49Z</time></trkpt><trkpt lat="45.81211720428046" lon="9.236341526548006"><ele>287.0</ele><time>2026-04-18T12:10:50Z</time></trkpt><trkpt lat="45.81224140766434" lon="9.236363769749254"><ele>287.0</ele><time>2026-04-18T12:10:51Z</time></trkpt><trkpt lat="45.81235613275152" lon="9.236397918271642"><ele>287.0</ele><time>2026-04-18T12:10:52Z</time></trkpt><trkpt lat="45.81244780754066" lon="9.236431605499954"><ele>287.0</ele><time>2026-04-18T12:10:53Z</time></trkpt><trkpt lat="45.812556815622024" lon="9.23648157438383"><ele>287.0</ele><time>2026-04-18T12:10:54Z</time></trkpt><trkpt lat="45.8126763792106" lon="9.23655061037836"><ele>288.75</ele><time>2026-04-18T12:10:55Z</time></trkpt><trkpt lat="45.81278519475055" lon="9.23662593060472"><ele>290.5</ele><time>2026-04-18T12:10:56Z</time></trkpt><trkpt lat="45.81289645876232" lon="9.23669973326187"><ele>292.25</ele><time>2026-04-18T12:10:57Z</time></trkpt><trkpt lat="45.81301198446245" lon="9.23678234638701"><ele>294.0</ele><time>2026-04-18T12:10:58Z</time></trkpt><trkpt lat="45.81311957265707" lon="9.236875282200637"><ele>294.0</ele><time>2026-04-18T12:10:59Z</time></trkpt><trkpt lat="45.81322176628278" lon="9.236971142160511"><ele>294.0</ele><time>2026-04-18T12:11:00Z</time></trkpt><trkpt lat="45.81331813181185" lon="9.237072651292367"><ele>294.0</ele><time>2026-04-18T12:11:01Z</time></trkpt><trkpt lat="45.81341108751822" lon="9.237185015031443"><ele>294.0</ele><time>2026-04-18T12:11:02Z</time></trkpt><trkpt lat="45.81349941496348" lon="9.237305582527648"><ele>293.75</ele><time>2026-04-18T12:11:03Z</time></trkpt><trkpt lat="45.81358135350161" lon="9.237428636948358"><ele>293.5</ele><time>2026-04-18T12:11:04Z</time></trkpt><trkpt lat="45.81365763368523" lon="9.237561971291194"><ele>293.25</ele><time>2026-04-18T12:11:05Z</time></trkpt><trkpt lat="45.813725082260405" lon="9.237700497579732"><ele>293.0</ele><time>2026-04-18T12:11:06Z</time></trkpt><trkpt lat="45.813791057982" lon="9.237850250041795"><ele>293.0</ele><time>2026-04-18T12:11:07Z</time></trkpt><trkpt lat="45.81385204344197" lon="9.237997620675197"><ele>293.0</ele><time>2026-04-18T12:11:08Z</time></trkpt><trkpt lat="45.81390642706944" lon="9.238143122361599"><ele>293.0</ele><time>2026-04-18T12:11:09Z</time></trkpt><trkpt lat="45.81395468185311" lon="9.238284392714801"><ele>293.0</ele><time>2026-04-18T12:11:10Z</time></trkpt><trkpt lat="45.81399815505518" lon="9.238429475170234"><ele>294.6</ele><time>2026-04-18T12:11:11Z</time></trkpt><trkpt lat="45.81403388622023" lon="9.238574723495768"><ele>296.20000000000005</ele><time>2026-04-18T12:11:12Z</time></trkpt><trkpt lat="45.81407041467891" lon="9.238720298067875"><ele>297.8</ele><time>2026-04-18T12:11:13Z</time></trkpt><trkpt lat="45.81409925110743" lon="9.238838790988735"><ele>299.40000000000003</ele><time>2026-04-18T12:11:14Z</time></trkpt><trkpt lat="45.814117527180876" lon="9.238943855692538"><ele>301.0</ele><time>2026-04-18T12:11:15Z</time></trkpt><trkpt lat="45.81412828324294" lon="9.23906076829246"><ele>301.8</ele><time>2026-04-18T12:11:16Z</time></trkpt><trkpt lat="45.81412392985633" lon="9.239165589082056"><ele>302.6</ele><time>2026-04-18T12:11:17Z</time></trkpt><trkpt lat="45.81409849959013" lon="9.239272554477292"><ele>303.4</ele><time>2026-04-18T12:11:18Z</time></trkpt><trkpt lat="45.81409314023977" lon="9.239406304031577"><ele>304.2</ele><time>2026-04-18T12:11:19Z</time></trkpt><trkpt lat="45.814114015240406" lon="9.239557964286927"><ele>305.0</ele><time>2026-04-18T12:11:20Z</time></trkpt><trkpt lat="45.81413389221395" lon="9.2397049485455"><ele>306.0</ele><time>2026-04-18T12:11:21Z</time></trkpt><trkpt lat="45.81412994999014" lon="9.239845288864954"><ele>307.0</ele><time>2026-04-18T12:11:22Z</time></trkpt><trkpt lat="45.81411334696989" lon="9.240038933379575"><ele>308.0</ele><time>2026-04-18T12:11:23Z</time></trkpt><trkpt lat="45.814081798842345" lon="9.240277496537784"><ele>309.0</ele><time>2026-04-18T12:11:24Z</time></trkpt><trkpt lat="45.81403890671051" lon="9.240514604233878"><ele>309.6666666666667</ele><time>2026-04-18T12:11:25Z</time></trkpt><trkpt lat="45.81397545278241" lon="9.240829515551335"><ele>310.33333333333337</ele><time>2026-04-18T12:11:26Z</time></trkpt><trkpt lat="45.813918952559035" lon="9.241119028046157"><ele>311.0</ele><time>2026-04-18T12:11:27Z</time></trkpt><trkpt lat="45.8138708476919" lon="9.241390822021852"><ele>311.0</ele><time>2026-04-18T12:11:28Z</time></trkpt><trkpt lat="45.813823234217246" lon="9.241675464428798"><ele>311.0</ele><time>2026-04-18T12:11:29Z</time></trkpt><trkpt lat="45.813774163506146" lon="9.241957631302437"><ele>311.0</ele><time>2026-04-18T12:11:30Z</time></trkpt><trkpt lat="45.813725559070356" lon="9.242249963983387"><ele>311.6666666666667</ele><time>2026-04-18T12:11:31Z</time></trkpt><trkpt lat="45.81367964100941" lon="9.242535643266399"><ele>312.3333333333333</ele><time>2026-04-18T12:11:32Z</time></trkpt><trkpt lat="45.81363529118806" lon="9.24282886166875"><ele>313.0</ele><time>2026-04-18T12:11:33Z</time></trkpt><trkpt lat="45.81359016476179" lon="9.243116671797775"><ele>315.5</ele><time>2026-04-18T12:11:34Z</time></trkpt><trkpt lat="45.813537642840394" lon="9.243419588101952"><ele>318.0</ele><time>2026-04-18T12:11:35Z</time></trkpt><trkpt lat="45.81347558866156" lon="9.243788713602658"><ele>319.0</ele><time>2026-04-18T12:11:36Z</time></trkpt><trkpt lat="45.81341770148188" lon="9.24414850495027"><ele>320.0</ele><time>2026-04-18T12:11:37Z</time></trkpt><trkpt lat="45.813371235670374" lon="9.24444113429785"><ele>320.0</ele><time>2026-04-18T12:11:38Z</time></trkpt><trkpt lat="45.81332842615999" lon="9.2446954796593"><ele>320.0</ele><time>2026-04-18T12:11:39Z</time></trkpt><trkpt lat="45.81328862051494" lon="9.244921671338359"><ele>320.0</ele><time>2026-04-18T12:11:40Z</time></trkpt><trkpt lat="45.813254735436296" lon="9.245130810411291"><ele>320.0</ele><time>2026-04-18T12:11:41Z</time></trkpt><trkpt lat="45.81323114867257" lon="9.245321644357388"><ele>320.0</ele><time>2026-04-18T12:11:42Z</time></trkpt><trkpt lat="45.813223347645454" lon="9.245509703845277"><ele>320.0</ele><time>2026-04-18T12:11:43Z</time></trkpt><trkpt lat="45.813234639975796" lon="9.245706641603405"><ele>320.0</ele><time>2026-04-18T12:11:44Z</time></trkpt><trkpt lat="45.81327428743736" lon="9.24590436435352"><ele>319.25</ele><time>2026-04-18T12:11:45Z</time></trkpt><trkpt lat="45.81335444070037" lon="9.246080807455295"><ele>318.5</ele><time>2026-04-18T12:11:46Z</time></trkpt><trkpt lat="45.81347373548197" lon="9.246213693027778"><ele>317.75</ele><time>2026-04-18T12:11:47Z</time></trkpt><trkpt lat="45.81360427946755" lon="9.24630513377285"><ele>317.0</ele><time>2026-04-18T12:11:48Z</time></trkpt><trkpt lat="45.813742459715534" lon="9.246370214558425"><ele>318.5</ele><time>2026-04-18T12:11:49Z</time></trkpt><trkpt lat="45.81388553480714" lon="9.246379863948176"><ele>320.0</ele><time>2026-04-18T12:11:50Z</time></trkpt><trkpt lat="45.814018516116946" lon="9.246349343288921"><ele>321.5</ele><time>2026-04-18T12:11:51Z</time></trkpt><trkpt lat="45.814146997581126" lon="9.246267557286643"><ele>323.0</ele><time>2026-04-18T12:11:52Z</time></trkpt><trkpt lat="45.81427266168984" lon="9.24617617754435"><ele>324.59999999999997</ele><time>2026-04-18T12:11:53Z</time></trkpt><trkpt lat="45.8143645083515" lon="9.246075923357605"><ele>326.2</ele><time>2026-04-18T12:11:54Z</time></trkpt><trkpt lat="45.814443196646245" lon="9.245916435434092"><ele>327.8</ele><time>2026-04-18T12:11:55Z</time></trkpt><trkpt lat="45.81448091215743" lon="9.245785474088777"><ele>329.4</ele><time>2026-04-18T12:11:56Z</time></trkpt><trkpt lat="45.81450025561319" lon="9.245655489019702"><ele>331.0</ele><time>2026-04-18T12:11:57Z</time></trkpt><trkpt lat="45.81452584493181" lon="9.24550402940815"><ele>331.0</ele><time>2026-04-18T12:11:58Z</time></trkpt><trkpt lat="45.814564579953995" lon="9.245337227167449"><ele>331.0</ele><time>2026-04-18T12:11:59Z</time></trkpt><trkpt lat="45.81461753312291" lon="9.245163893708087"><ele>331.0</ele><time>2026-04-18T12:12:00Z</time></trkpt><trkpt lat="45.81466427670894" lon="9.244989498021372"><ele>331.0</ele><time>2026-04-18T12:12:01Z</time></trkpt><trkpt lat="45.8147084374616" lon="9.244837285543412"><ele>331.6</ele><time>2026-04-18T12:12:02Z</time></trkpt><trkpt lat="45.81475211476496" lon="9.244690946532616"><ele>332.20000000000005</ele><time>2026-04-18T12:12:03Z</time></trkpt><trkpt lat="45.814805999515315" lon="9.244567590775983"><ele>332.79999999999995</ele><time>2026-04-18T12:12:04Z</time></trkpt><trkpt lat="45.8148933223334" lon="9.244501799134705"><ele>333.4</ele><time>2026-04-18T12:12:05Z</time></trkpt><trkpt lat="45.814986613535496" lon="9.244449185308186"><ele>334.0</ele><time>2026-04-18T12:12:06Z</time></trkpt><trkpt lat="45.815082731215035" lon="9.244415427102215"><ele>336.5</ele><time>2026-04-18T12:12:07Z</time></trkpt><trkpt lat="45.81518523128637" lon="9.24445132888598"><ele>339.0</ele><time>2026-04-18T12:12:08Z</time></trkpt><trkpt lat="45.815285239573704" lon="9.244526776596583"><ele>341.5</ele><time>2026-04-18T12:12:09Z</time></trkpt><trkpt lat="45.8153696832294" lon="9.244638244782312"><ele>344.0</ele><time>2026-04-18T12:12:10Z</time></trkpt><trkpt lat="45.815433023769984" lon="9.244782609070395"><ele>343.75</ele><time>2026-04-18T12:12:11Z</time></trkpt><trkpt lat="45.81544867301567" lon="9.244954940614255"><ele>343.5</ele><time>2026-04-18T12:12:12Z</time></trkpt><trkpt lat="45.815488614365144" lon="9.245127715390927"><ele>343.25</ele><time>2026-04-18T12:12:13Z</time></trkpt><trkpt lat="45.8155083133605" lon="9.245330779219953"><ele>343.0</ele><time>2026-04-18T12:12:14Z</time></trkpt><trkpt lat="45.815547734070144" lon="9.245601659948408"><ele>344.3333333333333</ele><time>2026-04-18T12:12:15Z</time></trkpt><trkpt lat="45.81559099881333" lon="9.24588961769502"><ele>345.6666666666667</ele><time>2026-04-18T12:12:16Z</time></trkpt><trkpt lat="45.81559466535482" lon="9.246083857760631"><ele>347.0</ele><time>2026-04-18T12:12:17Z</time></trkpt><trkpt lat="45.815561352602145" lon="9.246244574162272"><ele>347.0</ele><time>2026-04-18T12:12:18Z</time></trkpt><trkpt lat="45.81550270414348" lon="9.246424948681675"><ele>347.0</ele><time>2026-04-18T12:12:19Z</time></trkpt><trkpt lat="45.815411337736336" lon="9.246642235505039"><ele>347.0</ele><time>2026-04-18T12:12:20Z</time></trkpt><trkpt lat="45.815297156266226" lon="9.246912304359771"><ele>346.75</ele><time>2026-04-18T12:12:21Z</time></trkpt><trkpt lat="45.81520410204076" lon="9.247143591335595"><ele>346.5</ele><time>2026-04-18T12:12:22Z</time></trkpt><trkpt lat="45.815145160681915" lon="9.24730693507806"><ele>346.25</ele><time>2026-04-18T12:12:23Z</time></trkpt><trkpt lat="45.81513203197564" lon="9.247471112882234"><ele>346.0</ele><time>2026-04-18T12:12:24Z</time></trkpt><trkpt lat="45.81513616345675" lon="9.24764573976163"><ele>347.0</ele><time>2026-04-18T12:12:25Z</time></trkpt><trkpt lat="45.81517250706213" lon="9.247828015630494"><ele>348.0</ele><time>2026-04-18T12:12:26Z</time></trkpt><trkpt lat="45.81524332421567" lon="9.24800657420913"><ele>349.0</ele><time>2026-04-18T12:12:27Z</time></trkpt><trkpt lat="45.8153410652184" lon="9.248163560531271"><ele>350.0</ele><time>2026-04-18T12:12:28Z</time></trkpt><trkpt lat="45.81547591780737" lon="9.248307460115047"><ele>350.0</ele><time>2026-04-18T12:12:29Z</time></trkpt><trkpt lat="45.81564312954248" lon="9.248475119557254"><ele>350.0</ele><time>2026-04-18T12:12:30Z</time></trkpt><trkpt lat="45.81583260388829" lon="9.248656441622083"><ele>350.0</ele><time>2026-04-18T12:12:31Z</time></trkpt><trkpt lat="45.81599077343201" lon="9.24880486122635"><ele>350.5</ele><time>2026-04-18T12:12:32Z</time></trkpt><trkpt lat="45.816112829789944" lon="9.248932619894077"><ele>351.0</ele><time>2026-04-18T12:12:33Z</time></trkpt><trkpt lat="45.816226724283524" lon="9.249056821645075"><ele>351.5</ele><time>2026-04-18T12:12:34Z</time></trkpt><trkpt lat="45.816331173780576" lon="9.24917579333577"><ele>352.0</ele><time>2026-04-18T12:12:35Z</time></trkpt><trkpt lat="45.81643785544859" lon="9.249291680486165"><ele>352.0</ele><time>2026-04-18T12:12:36Z</time></trkpt><trkpt lat="45.8165501525922" lon="9.24940517902131"><ele>352.0</ele><time>2026-04-18T12:12:37Z</time></trkpt><trkpt lat="45.81666433903614" lon="9.249520212271072"><ele>352.0</ele><time>2026-04-18T12:12:38Z</time></trkpt><trkpt lat="45.81677555753645" lon="9.249637211407792"><ele>352.0</ele><time>2026-04-18T12:12:39Z</time></trkpt><trkpt lat="45.81688260092175" lon="9.249751704866192"><ele>353.25</ele><time>2026-04-18T12:12:40Z</time></trkpt><trkpt lat="45.81699139817747" lon="9.249864959673449"><ele>354.5</ele><time>2026-04-18T12:12:41Z</time></trkpt><trkpt lat="45.81709829414527" lon="9.249973809459895"><ele>355.75</ele><time>2026-04-18T12:12:42Z</time></trkpt><trkpt lat="45.81720711733022" lon="9.250085747166846"><ele>357.0</ele><time>2026-04-18T12:12:43Z</time></trkpt><trkpt lat="45.817317721905994" lon="9.250194265613775"><ele>357.0</ele><time>2026-04-18T12:12:44Z</time></trkpt><trkpt lat="45.81742591079952" lon="9.25031142268082"><ele>357.0</ele><time>2026-04-18T12:12:45Z</time></trkpt><trkpt lat="45.817535086743874" lon="9.250435173577218"><ele>357.0</ele><time>2026-04-18T12:12:46Z</time></trkpt><trkpt lat="45.8176484560628" lon="9.250551771220646"><ele>357.0</ele><time>2026-04-18T12:12:47Z</time></trkpt><trkpt lat="45.81776776211656" lon="9.250672031157574"><ele>356.3333333333333</ele><time>2026-04-18T12:12:48Z</time></trkpt><trkpt lat="45.8178887265038" lon="9.25080423968969"><ele>355.66666666666663</ele><time>2026-04-18T12:12:49Z</time></trkpt><trkpt lat="45.81801769409675" lon="9.250945697530822"><ele>355.0</ele><time>2026-04-18T12:12:50Z</time></trkpt><trkpt lat="45.81813567414572" lon="9.251057088357104"><ele>355.0</ele><time>2026-04-18T12:12:51Z</time></trkpt><trkpt lat="45.81823351962251" lon="9.251150513656649"><ele>355.0</ele><time>2026-04-18T12:12:52Z</time></trkpt><trkpt lat="45.81831691685397" lon="9.251241002468271"><ele>355.0</ele><time>2026-04-18T12:12:53Z</time></trkpt><trkpt lat="45.8183736986179" lon="9.251340542254182"><ele>355.0</ele><time>2026-04-18T12:12:54Z</time></trkpt><trkpt lat="45.81840122891027" lon="9.251445922831886"><ele>355.0</ele><time>2026-04-18T12:12:55Z</time></trkpt><trkpt lat="45.818396051037496" lon="9.251550778039107"><ele>355.5</ele><time>2026-04-18T12:12:56Z</time></trkpt><trkpt lat="45.818405741563744" lon="9.251640856346636"><ele>356.0</ele><time>2026-04-18T12:12:57Z</time></trkpt><trkpt lat="45.81845761350612" lon="9.25169826690993"><ele>356.5</ele><time>2026-04-18T12:12:58Z</time></trkpt><trkpt lat="45.818531909844374" lon="9.251705962230503"><ele>357.0</ele><time>2026-04-18T12:12:59Z</time></trkpt><trkpt lat="45.81862517387344" lon="9.251676642253807"><ele>357.5</ele><time>2026-04-18T12:13:00Z</time></trkpt><trkpt lat="45.81870657677664" lon="9.251618199417361"><ele>358.0</ele><time>2026-04-18T12:13:01Z</time></trkpt><trkpt lat="45.818796484821384" lon="9.251698679162203"><ele>358.5</ele><time>2026-04-18T12:13:02Z</time></trkpt><trkpt lat="45.818858133421585" lon="9.2517998356688"><ele>359.0</ele><time>2026-04-18T12:13:03Z</time></trkpt><trkpt lat="45.81890742150404" lon="9.251923876167316"><ele>359.5</ele><time>2026-04-18T12:13:04Z</time></trkpt><trkpt lat="45.81895062154726" lon="9.252081575143766"><ele>360.0</ele><time>2026-04-18T12:13:05Z</time></trkpt><trkpt lat="45.819000535063395" lon="9.252277653889667"><ele>360.0</ele><time>2026-04-18T12:13:06Z</time></trkpt><trkpt lat="45.81907310130074" lon="9.252534254205917"><ele>360.0</ele><time>2026-04-18T12:13:07Z</time></trkpt><trkpt lat="45.819135695144595" lon="9.25276939986539"><ele>360.0</ele><time>2026-04-18T12:13:08Z</time></trkpt><trkpt lat="45.81918352674786" lon="9.253053656893801"><ele>361.6666666666667</ele><time>2026-04-18T12:13:09Z</time></trkpt><trkpt lat="45.819231771465695" lon="9.253396893178778"><ele>363.33333333333337</ele><time>2026-04-18T12:13:10Z</time></trkpt><trkpt lat="45.819270818903206" lon="9.253681246799736"><ele>365.0</ele><time>2026-04-18T12:13:11Z</time></trkpt><trkpt lat="45.81931028151344" lon="9.253916289676717"><ele>367.6666666666667</ele><time>2026-04-18T12:13:12Z</time></trkpt><trkpt lat="45.81936626537154" lon="9.254115477181875"><ele>370.3333333333333</ele><time>2026-04-18T12:13:13Z</time></trkpt><trkpt lat="45.819456270577504" lon="9.254297802191047"><ele>373.0</ele><time>2026-04-18T12:13:14Z</time></trkpt><trkpt lat="45.819577794733796" lon="9.254467329378423"><ele>373.0</ele><time>2026-04-18T12:13:15Z</time></trkpt><trkpt lat="45.81973594929664" lon="9.254610700050275"><ele>373.0</ele><time>2026-04-18T12:13:16Z</time></trkpt><trkpt lat="45.81992912862983" lon="9.254737441071974"><ele>373.0</ele><time>2026-04-18T12:13:17Z</time></trkpt><trkpt lat="45.82010904835159" lon="9.254894966408733"><ele>374.4</ele><time>2026-04-18T12:13:18Z</time></trkpt><trkpt lat="45.82025507281361" lon="9.254986911884673"><ele>375.79999999999995</ele><time>2026-04-18T12:13:19Z</time></trkpt><trkpt lat="45.820347408504325" lon="9.255087158212753"><ele>377.2</ele><time>2026-04-18T12:13:20Z</time></trkpt><trkpt lat="45.82043353998572" lon="9.255161754839918"><ele>378.6</ele><time>2026-04-18T12:13:21Z</time></trkpt><trkpt lat="45.82049216810786" lon="9.255216568364977"><ele>380.0</ele><time>2026-04-18T12:13:22Z</time></trkpt><trkpt lat="45.820553409460196" lon="9.255268939870534"><ele>380.0</ele><time>2026-04-18T12:13:23Z</time></trkpt><trkpt lat="45.82062896018815" lon="9.255345026305381"><ele>380.0</ele><time>2026-04-18T12:13:24Z</time></trkpt><trkpt lat="45.82071984156795" lon="9.25544673466699"><ele>380.0</ele><time>2026-04-18T12:13:25Z</time></trkpt><trkpt lat="45.8207983998734" lon="9.255614320174804"><ele>380.0</ele><time>2026-04-18T12:13:26Z</time></trkpt><trkpt lat="45.82088483252354" lon="9.255791407894124"><ele>385.0</ele><time>2026-04-18T12:13:27Z</time></trkpt><trkpt lat="45.821015855582125" lon="9.2559690795418"><ele>390.0</ele><time>2026-04-18T12:13:28Z</time></trkpt><trkpt lat="45.82114831856594" lon="9.256122900323136"><ele>395.0</ele><time>2026-04-18T12:13:29Z</time></trkpt><trkpt lat="45.82126112794829" lon="9.256296085426497"><ele>395.0</ele><time>2026-04-18T12:13:30Z</time></trkpt><trkpt lat="45.82136933396023" lon="9.25644795591853"><ele>395.0</ele><time>2026-04-18T12:13:31Z</time></trkpt><trkpt lat="45.82148640148953" lon="9.256612263944135"><ele>395.0</ele><time>2026-04-18T12:13:32Z</time></trkpt><trkpt lat="45.82161846154599" lon="9.256796044494516"><ele>394.66666666666663</ele><time>2026-04-18T12:13:33Z</time></trkpt><trkpt lat="45.82177414798821" lon="9.257005051698638"><ele>394.33333333333337</ele><time>2026-04-18T12:13:34Z</time></trkpt><trkpt lat="45.82190599134297" lon="9.257151035810088"><ele>394.0</ele><time>2026-04-18T12:13:35Z</time></trkpt><trkpt lat="45.82200175577011" lon="9.257274293683583"><ele>397.0</ele><time>2026-04-18T12:13:36Z</time></trkpt><trkpt lat="45.82209304542523" lon="9.257409973056026"><ele>400.0</ele><time>2026-04-18T12:13:37Z</time></trkpt><trkpt lat="45.82220953583694" lon="9.257548002708663"><ele>403.0</ele><time>2026-04-18T12:13:38Z</time></trkpt><trkpt lat="45.822348863004194" lon="9.257703761457304"><ele>403.0</ele><time>2026-04-18T12:13:39Z</time></trkpt><trkpt lat="45.82250542264329" lon="9.257930000178671"><ele>403.0</ele><time>2026-04-18T12:13:40Z</time></trkpt><trkpt lat="45.82268174617091" lon="9.258122570729084"><ele>403.0</ele><time>2026-04-18T12:13:41Z</time></trkpt><trkpt lat="45.82285416853905" lon="9.258359284657665"><ele>404.0</ele><time>2026-04-18T12:13:42Z</time></trkpt><trkpt lat="45.823021888874145" lon="9.258577531079613"><ele>405.0</ele><time>2026-04-18T12:13:43Z</time></trkpt><trkpt lat="45.82316489235623" lon="9.25876235157636"><ele>406.0</ele><time>2026-04-18T12:13:44Z</time></trkpt><trkpt lat="45.82328310365775" lon="9.258912306751704"><ele>405.25</ele><time>2026-04-18T12:13:45Z</time></trkpt><trkpt lat="45.82339235283799" lon="9.259056529311822"><ele>404.5</ele><time>2026-04-18T12:13:46Z</time></trkpt><trkpt lat="45.823473145007526" lon="9.259186433547244"><ele>403.75</ele><time>2026-04-18T12:13:47Z</time></trkpt><trkpt lat="45.82353473837775" lon="9.259316087232627"><ele>403.0</ele><time>2026-04-18T12:13:48Z</time></trkpt><trkpt lat="45.823574426333494" lon="9.259442542561688"><ele>403.0</ele><time>2026-04-18T12:13:49Z</time></trkpt><trkpt lat="45.82359314078283" lon="9.259573185799525"><ele>403.0</ele><time>2026-04-18T12:13:50Z</time></trkpt><trkpt lat="45.82364883505684" lon="9.259756475646883"><ele>403.0</ele><time>2026-04-18T12:13:52Z</time></trkpt><trkpt lat="45.82372930436947" lon="9.259789778872166"><ele>403.0</ele><time>2026-04-18T12:13:53Z</time></trkpt><trkpt lat="45.82382575072017" lon="9.259790087154887"><ele>403.0</ele><time>2026-04-18T12:13:54Z</time></trkpt><trkpt lat="45.82392394743155" lon="9.259747715058065"><ele>398.33333333333337</ele><time>2026-04-18T12:13:55Z</time></trkpt><trkpt lat="45.824023450734686" lon="9.259859186680904"><ele>393.66666666666663</ele><time>2026-04-18T12:13:56Z</time></trkpt><trkpt lat="45.8241657520239" lon="9.259999784425077"><ele>389.0</ele><time>2026-04-18T12:13:57Z</time></trkpt><trkpt lat="45.82428144562969" lon="9.260169411775207"><ele>388.3333333333333</ele><time>2026-04-18T12:13:58Z</time></trkpt><trkpt lat="45.82440904163892" lon="9.26032556439536"><ele>387.66666666666663</ele><time>2026-04-18T12:13:59Z</time></trkpt><trkpt lat="45.82456869182636" lon="9.26049729336752"><ele>387.0</ele><time>2026-04-18T12:14:00Z</time></trkpt><trkpt lat="45.82474292613791" lon="9.26064541671586"><ele>387.0</ele><time>2026-04-18T12:14:01Z</time></trkpt><trkpt lat="45.824911070521566" lon="9.260754190206777"><ele>387.0</ele><time>2026-04-18T12:14:02Z</time></trkpt><trkpt lat="45.82507326226376" lon="9.260847563445017"><ele>387.0</ele><time>2026-04-18T12:14:03Z</time></trkpt><trkpt lat="45.825219100529885" lon="9.260939156560045"><ele>390.75</ele><time>2026-04-18T12:14:04Z</time></trkpt><trkpt lat="45.82534983904895" lon="9.261028959828218"><ele>394.5</ele><time>2026-04-18T12:14:05Z</time></trkpt><trkpt lat="45.825482706075476" lon="9.261124234061342"><ele>398.25</ele><time>2026-04-18T12:14:06Z</time></trkpt><trkpt lat="45.8256190155634" lon="9.261215180989446"><ele>402.0</ele><time>2026-04-18T12:14:07Z</time></trkpt><trkpt lat="45.82575657663839" lon="9.261308129250226"><ele>402.0</ele><time>2026-04-18T12:14:08Z</time></trkpt><trkpt lat="45.82589189862682" lon="9.261401101846321"><ele>402.0</ele><time>2026-04-18T12:14:09Z</time></trkpt><trkpt lat="45.82602831265638" lon="9.2614915077888"><ele>402.0</ele><time>2026-04-18T12:14:10Z</time></trkpt><trkpt lat="45.826170154488764" lon="9.261583870212636"><ele>398.66666666666663</ele><time>2026-04-18T12:14:11Z</time></trkpt><trkpt lat="45.82631802912604" lon="9.261685045972733"><ele>395.3333333333333</ele><time>2026-04-18T12:14:12Z</time></trkpt><trkpt lat="45.826470371450185" lon="9.261782129982919"><ele>392.0</ele><time>2026-04-18T12:14:13Z</time></trkpt><trkpt lat="45.82662147066518" lon="9.26186968503672"><ele>392.0</ele><time>2026-04-18T12:14:14Z</time></trkpt><trkpt lat="45.826778502976225" lon="9.261941133934009"><ele>392.0</ele><time>2026-04-18T12:14:15Z</time></trkpt><trkpt lat="45.826929793815864" lon="9.261996537839151"><ele>392.0</ele><time>2026-04-18T12:14:16Z</time></trkpt><trkpt lat="45.827079231167566" lon="9.262048875829207"><ele>397.66666666666663</ele><time>2026-04-18T12:14:17Z</time></trkpt><trkpt lat="45.827239603243136" lon="9.262099984623514"><ele>403.33333333333337</ele><time>2026-04-18T12:14:18Z</time></trkpt><trkpt lat="45.827404523901805" lon="9.262143408610921"><ele>409.0</ele><time>2026-04-18T12:14:19Z</time></trkpt><trkpt lat="45.82757072761445" lon="9.262181128552779"><ele>414.0</ele><time>2026-04-18T12:14:20Z</time></trkpt><trkpt lat="45.827732869725686" lon="9.262219770308981"><ele>419.0</ele><time>2026-04-18T12:14:21Z</time></trkpt><trkpt lat="45.82789039614556" lon="9.262267531408751"><ele>424.0</ele><time>2026-04-18T12:14:22Z</time></trkpt><trkpt lat="45.828048209671124" lon="9.262324853602284"><ele>420.0</ele><time>2026-04-18T12:14:23Z</time></trkpt><trkpt lat="45.82820735366444" lon="9.262394947921877"><ele>416.0</ele><time>2026-04-18T12:14:24Z</time></trkpt><trkpt lat="45.828356132601456" lon="9.262489756952442"><ele>412.0</ele><time>2026-04-18T12:14:25Z</time></trkpt><trkpt lat="45.82849968291985" lon="9.262614668233821"><ele>412.0</ele><time>2026-04-18T12:14:26Z</time></trkpt><trkpt lat="45.82864183201095" lon="9.262749952532893"><ele>412.0</ele><time>2026-04-18T12:14:27Z</time></trkpt><trkpt lat="45.82877731232137" lon="9.26291582986905"><ele>412.0</ele><time>2026-04-18T12:14:28Z</time></trkpt><trkpt lat="45.828900942499644" lon="9.26308591035887"><ele>405.6666666666667</ele><time>2026-04-18T12:14:29Z</time></trkpt><trkpt lat="45.82901585576867" lon="9.263258051401227"><ele>399.33333333333337</ele><time>2026-04-18T12:14:30Z</time></trkpt><trkpt lat="45.82916565106314" lon="9.263365785740353"><ele>393.0</ele><time>2026-04-18T12:14:31Z</time></trkpt><trkpt lat="45.829295775208514" lon="9.263517705730877"><ele>397.0</ele><time>2026-04-18T12:14:32Z</time></trkpt><trkpt lat="45.82942473844972" lon="9.263672197794879"><ele>401.0</ele><time>2026-04-18T12:14:33Z</time></trkpt><trkpt lat="45.82954899856326" lon="9.263834886759081"><ele>405.0</ele><time>2026-04-18T12:14:34Z</time></trkpt><trkpt lat="45.82965876713576" lon="9.264018401858772"><ele>405.0</ele><time>2026-04-18T12:14:35Z</time></trkpt><trkpt lat="45.82976600726265" lon="9.264220686396452"><ele>405.0</ele><time>2026-04-18T12:14:36Z</time></trkpt><trkpt lat="45.829872144145455" lon="9.264422904041528"><ele>405.0</ele><time>2026-04-18T12:14:37Z</time></trkpt><trkpt lat="45.82997516068599" lon="9.264633782917285"><ele>397.6666666666667</ele><time>2026-04-18T12:14:38Z</time></trkpt><trkpt lat="45.830074554738715" lon="9.264842243293307"><ele>390.33333333333337</ele><time>2026-04-18T12:14:39Z</time></trkpt><trkpt lat="45.83017708404286" lon="9.265054506950484"><ele>383.0</ele><time>2026-04-18T12:14:40Z</time></trkpt><trkpt lat="45.83027357404859" lon="9.265258514820236"><ele>388.6666666666667</ele><time>2026-04-18T12:14:41Z</time></trkpt><trkpt lat="45.830372188083416" lon="9.265464214955964"><ele>394.33333333333337</ele><time>2026-04-18T12:14:42Z</time></trkpt><trkpt lat="45.83047337459821" lon="9.26567685567474"><ele>400.0</ele><time>2026-04-18T12:14:43Z</time></trkpt><trkpt lat="45.83057313494992" lon="9.265887359334217"><ele>400.0</ele><time>2026-04-18T12:14:44Z</time></trkpt><trkpt lat="45.830671223234916" lon="9.266100448415015"><ele>400.0</ele><time>2026-04-18T12:14:45Z</time></trkpt><trkpt lat="45.830778349205836" lon="9.266317651926437"><ele>400.0</ele><time>2026-04-18T12:14:46Z</time></trkpt><trkpt lat="45.830883870939324" lon="9.266522647668316"><ele>405.6666666666667</ele><time>2026-04-18T12:14:47Z</time></trkpt><trkpt lat="45.83098054412783" lon="9.26672209252318"><ele>411.33333333333337</ele><time>2026-04-18T12:14:48Z</time></trkpt><trkpt lat="45.83108533128565" lon="9.266898096125846"><ele>417.0</ele><time>2026-04-18T12:14:49Z</time></trkpt><trkpt lat="45.83118542710384" lon="9.26703841948226"><ele>417.0</ele><time>2026-04-18T12:14:50Z</time></trkpt><trkpt lat="45.83130361535103" lon="9.26718312990371"><ele>417.0</ele><time>2026-04-18T12:14:51Z</time></trkpt><trkpt lat="45.831428758319845" lon="9.267371081028198"><ele>417.0</ele><time>2026-04-18T12:14:52Z</time></trkpt><trkpt lat="45.83156274897979" lon="9.267562750306835"><ele>414.66666666666663</ele><time>2026-04-18T12:14:53Z</time></trkpt><trkpt lat="45.8317067886598" lon="9.267750520580531"><ele>412.3333333333333</ele><time>2026-04-18T12:14:54Z</time></trkpt><trkpt lat="45.83187174542362" lon="9.268014250381242"><ele>410.0</ele><time>2026-04-18T12:14:55Z</time></trkpt><trkpt lat="45.83206120309028" lon="9.26828522130999"><ele>410.0</ele><time>2026-04-18T12:14:56Z</time></trkpt><trkpt lat="45.83226755760972" lon="9.268560061794522"><ele>410.0</ele><time>2026-04-18T12:14:57Z</time></trkpt><trkpt lat="45.832478447507405" lon="9.268889571943557"><ele>417.5</ele><time>2026-04-18T12:14:58Z</time></trkpt><trkpt lat="45.83267202594716" lon="9.269181192750757"><ele>425.0</ele><time>2026-04-18T12:14:59Z</time></trkpt><trkpt lat="45.832874695818006" lon="9.269488457818229"><ele>425.0</ele><time>2026-04-18T12:15:00Z</time></trkpt><trkpt lat="45.8330577314396" lon="9.26976382440905"><ele>425.0</ele><time>2026-04-18T12:15:01Z</time></trkpt><trkpt lat="45.83322018503961" lon="9.270012481724484"><ele>430.0</ele><time>2026-04-18T12:15:02Z</time></trkpt><trkpt lat="45.83337099038685" lon="9.27023038200023"><ele>435.0</ele><time>2026-04-18T12:15:03Z</time></trkpt><trkpt lat="45.8335321533547" lon="9.270438946581043"><ele>440.0</ele><time>2026-04-18T12:15:04Z</time></trkpt><trkpt lat="45.833711757254754" lon="9.27064362621674"><ele>428.66666666666663</ele><time>2026-04-18T12:15:05Z</time></trkpt><trkpt lat="45.83390098726457" lon="9.270844789065466"><ele>417.33333333333337</ele><time>2026-04-18T12:15:06Z</time></trkpt><trkpt lat="45.83406485145461" lon="9.271022776504646"><ele>406.0</ele><time>2026-04-18T12:15:07Z</time></trkpt><trkpt lat="45.834212121580826" lon="9.271182980636217"><ele>403.6666666666667</ele><time>2026-04-18T12:15:08Z</time></trkpt><trkpt lat="45.83434445207648" lon="9.271326744992631"><ele>401.33333333333337</ele><time>2026-04-18T12:15:09Z</time></trkpt><trkpt lat="45.8344730872942" lon="9.27146665841961"><ele>399.0</ele><time>2026-04-18T12:15:10Z</time></trkpt><trkpt lat="45.83460361587432" lon="9.27160610014009"><ele>399.0</ele><time>2026-04-18T12:15:11Z</time></trkpt><trkpt lat="45.83474140482348" lon="9.271736843256434"><ele>399.0</ele><time>2026-04-18T12:15:12Z</time></trkpt><trkpt lat="45.834887121786636" lon="9.271848870216111"><ele>399.0</ele><time>2026-04-18T12:15:13Z</time></trkpt><trkpt lat="45.83503489552756" lon="9.271944911676416"><ele>405.75</ele><time>2026-04-18T12:15:14Z</time></trkpt><trkpt lat="45.83516857044687" lon="9.272028191425493"><ele>412.5</ele><time>2026-04-18T12:15:15Z</time></trkpt><trkpt lat="45.83530363223608" lon="9.27210457880044"><ele>419.25</ele><time>2026-04-18T12:15:16Z</time></trkpt><trkpt lat="45.83544466512219" lon="9.272180898170584"><ele>426.0</ele><time>2026-04-18T12:15:17Z</time></trkpt><trkpt lat="45.8356010743609" lon="9.272265116177474"><ele>419.0</ele><time>2026-04-18T12:15:18Z</time></trkpt><trkpt lat="45.83576973933157" lon="9.272387584115657"><ele>412.0</ele><time>2026-04-18T12:15:19Z</time></trkpt><trkpt lat="45.83597764017106" lon="9.27253728954719"><ele>405.0</ele><time>2026-04-18T12:15:20Z</time></trkpt><trkpt lat="45.836223797745475" lon="9.272713122277"><ele>405.0</ele><time>2026-04-18T12:15:21Z</time></trkpt><trkpt lat="45.83646294453792" lon="9.272782095664567"><ele>405.0</ele><time>2026-04-18T12:15:22Z</time></trkpt><trkpt lat="45.83664621071897" lon="9.27289567697029"><ele>405.0</ele><time>2026-04-18T12:15:23Z</time></trkpt><trkpt lat="45.8368242621795" lon="9.272999305846643"><ele>399.33333333333337</ele><time>2026-04-18T12:15:24Z</time></trkpt><trkpt lat="45.83702881655705" lon="9.2731215524016"><ele>393.6666666666667</ele><time>2026-04-18T12:15:25Z</time></trkpt><trkpt lat="45.83722745761298" lon="9.273256634267108"><ele>388.0</ele><time>2026-04-18T12:15:26Z</time></trkpt><trkpt lat="45.83739860381546" lon="9.273370091094437"><ele>388.0</ele><time>2026-04-18T12:15:27Z</time></trkpt><trkpt lat="45.83755269588704" lon="9.273458599207157"><ele>388.0</ele><time>2026-04-18T12:15:28Z</time></trkpt><trkpt lat="45.83770155568209" lon="9.273525236710793"><ele>388.0</ele><time>2026-04-18T12:15:29Z</time></trkpt><trkpt lat="45.83784203512055" lon="9.273560927873142"><ele>386.25</ele><time>2026-04-18T12:15:30Z</time></trkpt><trkpt lat="45.83798259973265" lon="9.273586892928702"><ele>384.5</ele><time>2026-04-18T12:15:31Z</time></trkpt><trkpt lat="45.83812757031013" lon="9.273607063651536"><ele>382.75</ele><time>2026-04-18T12:15:32Z</time></trkpt><trkpt lat="45.83827261355675" lon="9.2736157263472"><ele>381.0</ele><time>2026-04-18T12:15:33Z</time></trkpt><trkpt lat="45.83841315372016" lon="9.273615904791482"><ele>380.75</ele><time>2026-04-18T12:15:34Z</time></trkpt><trkpt lat="45.83855489494616" lon="9.273602493803025"><ele>380.5</ele><time>2026-04-18T12:15:35Z</time></trkpt><trkpt lat="45.83869073936981" lon="9.27358525789794"><ele>380.25</ele><time>2026-04-18T12:15:36Z</time></trkpt><trkpt lat="45.83880844707656" lon="9.273571208520254"><ele>380.0</ele><time>2026-04-18T12:15:37Z</time></trkpt><trkpt lat="45.83891296594098" lon="9.273563425460306"><ele>380.0</ele><time>2026-04-18T12:15:38Z</time></trkpt><trkpt lat="45.83901340144085" lon="9.273556593837485"><ele>380.0</ele><time>2026-04-18T12:15:39Z</time></trkpt><trkpt lat="45.8391097098146" lon="9.273548379897582"><ele>380.0</ele><time>2026-04-18T12:15:40Z</time></trkpt><trkpt lat="45.83920190570072" lon="9.27354071370369"><ele>380.0</ele><time>2026-04-18T12:15:41Z</time></trkpt><trkpt lat="45.839293746037" lon="9.273530861519955"><ele>380.0</ele><time>2026-04-18T12:15:42Z</time></trkpt><trkpt lat="45.83937859717997" lon="9.273523957004375"><ele>380.8</ele><time>2026-04-18T12:15:43Z</time></trkpt><trkpt lat="45.83948158558382" lon="9.273514145486265"><ele>381.6</ele><time>2026-04-18T12:15:44Z</time></trkpt><trkpt lat="45.8396018928752" lon="9.273497279368744"><ele>382.4</ele><time>2026-04-18T12:15:45Z</time></trkpt><trkpt lat="45.83970247215768" lon="9.273486733018633"><ele>383.2</ele><time>2026-04-18T12:15:46Z</time></trkpt><trkpt lat="45.83979613647957" lon="9.27347692730616"><ele>384.0</ele><time>2026-04-18T12:15:47Z</time></trkpt><trkpt lat="45.83988915727933" lon="9.273470477790484"><ele>384.0</ele><time>2026-04-18T12:15:48Z</time></trkpt><trkpt lat="45.839981044971786" lon="9.273461707431382"><ele>384.0</ele><time>2026-04-18T12:15:49Z</time></trkpt><trkpt lat="45.84007104113804" lon="9.273454884154317"><ele>384.0</ele><time>2026-04-18T12:15:50Z</time></trkpt><trkpt lat="45.84016438386963" lon="9.273449342408588"><ele>384.0</ele><time>2026-04-18T12:15:51Z</time></trkpt><trkpt lat="45.84026404962581" lon="9.273437527688623"><ele>384.0</ele><time>2026-04-18T12:15:52Z</time></trkpt><trkpt lat="45.84037010695402" lon="9.273426685272083"><ele>384.4</ele><time>2026-04-18T12:15:53Z</time></trkpt><trkpt lat="45.84047376066382" lon="9.273418827374524"><ele>384.79999999999995</ele><time>2026-04-18T12:15:54Z</time></trkpt><trkpt lat="45.84057190462241" lon="9.273413804617087"><ele>385.20000000000005</ele><time>2026-04-18T12:15:55Z</time></trkpt><trkpt lat="45.84066893465324" lon="9.273403218195677"><ele>385.6</ele><time>2026-04-18T12:15:56Z</time></trkpt><trkpt lat="45.84076821703398" lon="9.273389356824794"><ele>386.0</ele><time>2026-04-18T12:15:57Z</time></trkpt><trkpt lat="45.840871189341605" lon="9.273376049367931"><ele>387.75</ele><time>2026-04-18T12:15:58Z</time></trkpt><trkpt lat="45.840978178312334" lon="9.273368010462784"><ele>389.5</ele><time>2026-04-18T12:15:59Z</time></trkpt><trkpt lat="45.841093027346666" lon="9.273361824536584"><ele>391.25</ele><time>2026-04-18T12:16:00Z</time></trkpt><trkpt lat="45.841217930810025" lon="9.273351454025963"><ele>393.0</ele><time>2026-04-18T12:16:01Z</time></trkpt><trkpt lat="45.84135470775577" lon="9.27333404395682"><ele>393.0</ele><time>2026-04-18T12:16:02Z</time></trkpt><trkpt lat="45.84149308037376" lon="9.273318966548112"><ele>393.0</ele><time>2026-04-18T12:16:03Z</time></trkpt><trkpt lat="45.84161484438505" lon="9.273317369395805"><ele>393.0</ele><time>2026-04-18T12:16:04Z</time></trkpt><trkpt lat="45.84172505952996" lon="9.273306684337498"><ele>393.0</ele><time>2026-04-18T12:16:05Z</time></trkpt><trkpt lat="45.84182439451026" lon="9.273299444008389"><ele>393.3333333333333</ele><time>2026-04-18T12:16:06Z</time></trkpt><trkpt lat="45.84191185293439" lon="9.273288580155954"><ele>393.66666666666663</ele><time>2026-04-18T12:16:07Z</time></trkpt><trkpt lat="45.84199209011436" lon="9.273269391036942"><ele>394.0</ele><time>2026-04-18T12:16:08Z</time></trkpt><trkpt lat="45.84208843503759" lon="9.273262649995461"><ele>394.3333333333333</ele><time>2026-04-18T12:16:09Z</time></trkpt><trkpt lat="45.84217959832366" lon="9.273251578266427"><ele>394.66666666666663</ele><time>2026-04-18T12:16:10Z</time></trkpt><trkpt lat="45.842268726271925" lon="9.273245902016837"><ele>395.0</ele><time>2026-04-18T12:16:11Z</time></trkpt><trkpt lat="45.842347768679204" lon="9.273252268017256"><ele>394.99999999999994</ele><time>2026-04-18T12:16:12Z</time></trkpt><trkpt lat="45.84243637626643" lon="9.273272839780493"><ele>395.0</ele><time>2026-04-18T12:16:13Z</time></trkpt><trkpt lat="45.842506113479274" lon="9.273308841253378"><ele>395.0</ele><time>2026-04-18T12:16:14Z</time></trkpt><trkpt lat="45.84263142020378" lon="9.27328791694074"><ele>395.0</ele><time>2026-04-18T12:16:16Z</time></trkpt><trkpt lat="45.84269857901401" lon="9.273238249510035"><ele>394.99999999999994</ele><time>2026-04-18T12:16:17Z</time></trkpt><trkpt lat="45.842772245055066" lon="9.273197279739403"><ele>395.0</ele><time>2026-04-18T12:16:18Z</time></trkpt><trkpt lat="45.84285335375069" lon="9.273189751838963"><ele>395.2</ele><time>2026-04-18T12:16:19Z</time></trkpt><trkpt lat="45.8429329739344" lon="9.273192769261987"><ele>395.4</ele><time>2026-04-18T12:16:20Z</time></trkpt><trkpt lat="45.84302301116789" lon="9.273183957914735"><ele>395.6</ele><time>2026-04-18T12:16:21Z</time></trkpt><trkpt lat="45.843117021091395" lon="9.273174085766431"><ele>395.8</ele><time>2026-04-18T12:16:22Z</time></trkpt><trkpt lat="45.84321219398521" lon="9.273167352876388"><ele>396.0</ele><time>2026-04-18T12:16:23Z</time></trkpt><trkpt lat="45.84331072763825" lon="9.273157029323057"><ele>396.0</ele><time>2026-04-18T12:16:24Z</time></trkpt><trkpt lat="45.843416269098135" lon="9.273147098795912"><ele>396.0</ele><time>2026-04-18T12:16:25Z</time></trkpt><trkpt lat="45.8435334325703" lon="9.273141987183452"><ele>396.0</ele><time>2026-04-18T12:16:26Z</time></trkpt><trkpt lat="45.843652771406006" lon="9.27313452621588"><ele>396.0</ele><time>2026-04-18T12:16:27Z</time></trkpt><trkpt lat="45.84375200755668" lon="9.273119548087479"><ele>396.0</ele><time>2026-04-18T12:16:28Z</time></trkpt><trkpt lat="45.8438339921925" lon="9.273116228326934"><ele>395.8333333333333</ele><time>2026-04-18T12:16:29Z</time></trkpt><trkpt lat="45.843908790768864" lon="9.273110499316228"><ele>395.66666666666663</ele><time>2026-04-18T12:16:30Z</time></trkpt><trkpt lat="45.84397310901351" lon="9.27310661197144"><ele>395.5</ele><time>2026-04-18T12:16:31Z</time></trkpt><trkpt lat="45.84404466001582" lon="9.273128651358672"><ele>395.3333333333333</ele><time>2026-04-18T12:16:32Z</time></trkpt><trkpt lat="45.84413859407786" lon="9.273142123010848"><ele>395.16666666666663</ele><time>2026-04-18T12:16:33Z</time></trkpt><trkpt lat="45.84421079860603" lon="9.27314157789276"><ele>395.0</ele><time>2026-04-18T12:16:34Z</time></trkpt><trkpt lat="45.844294802460624" lon="9.273122952448531"><ele>395.0</ele><time>2026-04-18T12:16:36Z</time></trkpt></trkseg></trk></gpx>